<?xml version="1.0" encoding="UTF-8" standalone="no" ?>
<gpx xmlns="http://www.topografix.com/GPX/1/1" xmlns:xsi="http://www.w3.org/2001/XMLSchema-instance" xsi:schemaLocation="http://www.topografix.com/GPX/1/1 http://www.topografix.com/GPX/1/1/gpx.xsd" version="1.1" creator="VisuGPX - https://www.visugpx.com">
  <metadata>
    <name>lundi 2015 10</name>
    <desc><![CDATA[cumul octobre 2015]]></desc>
  </metadata>
  <trk>
    <name><![CDATA[lundi 2015 10 19]]></name>
    <extensions>
      <line xmlns="http://www.topografix.com/GPX/gpx_style/0/2">
        <color>000000</color>
      </line>
    </extensions>
    <trkseg>
      <trkpt lat="48.85587" lon="2.39147">
        <ele>38.79999923706</ele>
        <time>2015-10-19T18:41:46Z</time>
      </trkpt>
      <trkpt lat="48.85591" lon="2.39146">
        <ele>32.79999923706</ele>
        <time>2015-10-19T18:41:47Z</time>
      </trkpt>
      <trkpt lat="48.85595" lon="2.39172">
        <ele>29.39999961853</ele>
        <time>2015-10-19T18:41:55Z</time>
      </trkpt>
      <trkpt lat="48.85596" lon="2.39178">
        <ele>30.39999961853</ele>
        <time>2015-10-19T18:41:56Z</time>
      </trkpt>
      <trkpt lat="48.85609" lon="2.39199">
        <ele>41.400001525879</ele>
        <time>2015-10-19T18:42:00Z</time>
      </trkpt>
      <trkpt lat="48.85614" lon="2.39227">
        <ele>43.599998474121</ele>
        <time>2015-10-19T18:42:06Z</time>
      </trkpt>
      <trkpt lat="48.85621" lon="2.3924">
        <ele>44.20000076294</ele>
        <time>2015-10-19T18:42:08Z</time>
      </trkpt>
      <trkpt lat="48.85619" lon="2.39246">
        <ele>46.79999923706</ele>
        <time>2015-10-19T18:42:10Z</time>
      </trkpt>
      <trkpt lat="48.85623" lon="2.39267">
        <ele>49.599998474121</ele>
        <time>2015-10-19T18:42:14Z</time>
      </trkpt>
      <trkpt lat="48.85625" lon="2.39276">
        <ele>51</ele>
        <time>2015-10-19T18:42:16Z</time>
      </trkpt>
      <trkpt lat="48.85631" lon="2.39297">
        <ele>51</ele>
        <time>2015-10-19T18:42:20Z</time>
      </trkpt>
      <trkpt lat="48.85636" lon="2.39323">
        <ele>50</ele>
        <time>2015-10-19T18:42:25Z</time>
      </trkpt>
      <trkpt lat="48.85638" lon="2.39328">
        <ele>50</ele>
        <time>2015-10-19T18:42:26Z</time>
      </trkpt>
      <trkpt lat="48.85646" lon="2.39354">
        <ele>52</ele>
        <time>2015-10-19T18:42:31Z</time>
      </trkpt>
      <trkpt lat="48.85652" lon="2.39385">
        <ele>54.400001525879</ele>
        <time>2015-10-19T18:42:37Z</time>
      </trkpt>
      <trkpt lat="48.85655" lon="2.39412">
        <ele>59</ele>
        <time>2015-10-19T18:42:44Z</time>
      </trkpt>
      <trkpt lat="48.85661" lon="2.39441">
        <ele>65</ele>
        <time>2015-10-19T18:42:52Z</time>
      </trkpt>
      <trkpt lat="48.85666" lon="2.39471">
        <ele>64.800003051758</ele>
        <time>2015-10-19T18:42:57Z</time>
      </trkpt>
      <trkpt lat="48.85671" lon="2.39502">
        <ele>67.199996948242</ele>
        <time>2015-10-19T18:43:02Z</time>
      </trkpt>
      <trkpt lat="48.85678" lon="2.39534">
        <ele>69.800003051758</ele>
        <time>2015-10-19T18:43:07Z</time>
      </trkpt>
      <trkpt lat="48.85683" lon="2.39564">
        <ele>72.599998474121</ele>
        <time>2015-10-19T18:43:12Z</time>
      </trkpt>
      <trkpt lat="48.85684" lon="2.39594">
        <ele>74.400001525879</ele>
        <time>2015-10-19T18:43:17Z</time>
      </trkpt>
      <trkpt lat="48.85687" lon="2.39626">
        <ele>76.400001525879</ele>
        <time>2015-10-19T18:43:22Z</time>
      </trkpt>
      <trkpt lat="48.85696" lon="2.39658">
        <ele>77</ele>
        <time>2015-10-19T18:43:27Z</time>
      </trkpt>
      <trkpt lat="48.85698" lon="2.39673">
        <ele>74.800003051758</ele>
        <time>2015-10-19T18:43:29Z</time>
      </trkpt>
      <trkpt lat="48.85698" lon="2.39694">
        <ele>73.199996948242</ele>
        <time>2015-10-19T18:43:32Z</time>
      </trkpt>
      <trkpt lat="48.85697" lon="2.39727">
        <ele>72.800003051758</ele>
        <time>2015-10-19T18:43:37Z</time>
      </trkpt>
      <trkpt lat="48.85698" lon="2.39734">
        <ele>73.199996948242</ele>
        <time>2015-10-19T18:43:38Z</time>
      </trkpt>
      <trkpt lat="48.85701" lon="2.39759">
        <ele>74</ele>
        <time>2015-10-19T18:43:42Z</time>
      </trkpt>
      <trkpt lat="48.8571" lon="2.39788">
        <ele>75.599998474121</ele>
        <time>2015-10-19T18:43:47Z</time>
      </trkpt>
      <trkpt lat="48.85719" lon="2.39814">
        <ele>78.199996948242</ele>
        <time>2015-10-19T18:43:52Z</time>
      </trkpt>
      <trkpt lat="48.85729" lon="2.39844">
        <ele>81</ele>
        <time>2015-10-19T18:43:57Z</time>
      </trkpt>
      <trkpt lat="48.85734" lon="2.39863">
        <ele>82.199996948242</ele>
        <time>2015-10-19T18:44:00Z</time>
      </trkpt>
      <trkpt lat="48.85744" lon="2.39891">
        <ele>82</ele>
        <time>2015-10-19T18:44:05Z</time>
      </trkpt>
      <trkpt lat="48.85756" lon="2.39914">
        <ele>77.800003051758</ele>
        <time>2015-10-19T18:44:09Z</time>
      </trkpt>
      <trkpt lat="48.85758" lon="2.39921">
        <ele>76.599998474121</ele>
        <time>2015-10-19T18:44:10Z</time>
      </trkpt>
      <trkpt lat="48.85771" lon="2.39942">
        <ele>73.199996948242</ele>
        <time>2015-10-19T18:44:14Z</time>
      </trkpt>
      <trkpt lat="48.8578" lon="2.39966">
        <ele>71</ele>
        <time>2015-10-19T18:44:18Z</time>
      </trkpt>
      <trkpt lat="48.85785" lon="2.39976">
        <ele>69.599998474121</ele>
        <time>2015-10-19T18:44:20Z</time>
      </trkpt>
      <trkpt lat="48.85799" lon="2.39998">
        <ele>67</ele>
        <time>2015-10-19T18:44:25Z</time>
      </trkpt>
      <trkpt lat="48.8581" lon="2.40007">
        <ele>64.400001525879</ele>
        <time>2015-10-19T18:44:28Z</time>
      </trkpt>
      <trkpt lat="48.85826" lon="2.4003">
        <ele>62</ele>
        <time>2015-10-19T18:44:33Z</time>
      </trkpt>
      <trkpt lat="48.85841" lon="2.40054">
        <ele>60.20000076294</ele>
        <time>2015-10-19T18:44:38Z</time>
      </trkpt>
      <trkpt lat="48.85851" lon="2.40072">
        <ele>59.400001525879</ele>
        <time>2015-10-19T18:44:41Z</time>
      </trkpt>
      <trkpt lat="48.85864" lon="2.40096">
        <ele>59</ele>
        <time>2015-10-19T18:44:45Z</time>
      </trkpt>
      <trkpt lat="48.85877" lon="2.40124">
        <ele>58.400001525879</ele>
        <time>2015-10-19T18:44:49Z</time>
      </trkpt>
      <trkpt lat="48.85891" lon="2.4015">
        <ele>58.400001525879</ele>
        <time>2015-10-19T18:44:53Z</time>
      </trkpt>
      <trkpt lat="48.85893" lon="2.40156">
        <ele>58.20000076294</ele>
        <time>2015-10-19T18:44:54Z</time>
      </trkpt>
      <trkpt lat="48.85901" lon="2.40172">
        <ele>57.79999923706</ele>
        <time>2015-10-19T18:44:57Z</time>
      </trkpt>
      <trkpt lat="48.85915" lon="2.40193">
        <ele>58.400001525879</ele>
        <time>2015-10-19T18:45:03Z</time>
      </trkpt>
      <trkpt lat="48.85917" lon="2.40194">
        <ele>58.79999923706</ele>
        <time>2015-10-19T18:45:04Z</time>
      </trkpt>
      <trkpt lat="48.85918" lon="2.40198">
        <ele>60.599998474121</ele>
        <time>2015-10-19T18:45:09Z</time>
      </trkpt>
      <trkpt lat="48.85923" lon="2.40191">
        <ele>60.20000076294</ele>
        <time>2015-10-19T18:45:14Z</time>
      </trkpt>
      <trkpt lat="48.85929" lon="2.40216">
        <ele>60</ele>
        <time>2015-10-19T18:45:40Z</time>
      </trkpt>
      <trkpt lat="48.85941" lon="2.4024">
        <ele>60.20000076294</ele>
        <time>2015-10-19T18:45:44Z</time>
      </trkpt>
      <trkpt lat="48.85955" lon="2.40268">
        <ele>59.400001525879</ele>
        <time>2015-10-19T18:45:48Z</time>
      </trkpt>
      <trkpt lat="48.8597" lon="2.40294">
        <ele>59.400001525879</ele>
        <time>2015-10-19T18:45:52Z</time>
      </trkpt>
      <trkpt lat="48.85986" lon="2.4032">
        <ele>59.599998474121</ele>
        <time>2015-10-19T18:45:56Z</time>
      </trkpt>
      <trkpt lat="48.85997" lon="2.40341">
        <ele>59.400001525879</ele>
        <time>2015-10-19T18:45:59Z</time>
      </trkpt>
      <trkpt lat="48.8601" lon="2.40369">
        <ele>58.400001525879</ele>
        <time>2015-10-19T18:46:03Z</time>
      </trkpt>
      <trkpt lat="48.86017" lon="2.40379">
        <ele>58.20000076294</ele>
        <time>2015-10-19T18:46:05Z</time>
      </trkpt>
      <trkpt lat="48.86028" lon="2.40403">
        <ele>59</ele>
        <time>2015-10-19T18:46:09Z</time>
      </trkpt>
      <trkpt lat="48.86033" lon="2.40413">
        <ele>59.20000076294</ele>
        <time>2015-10-19T18:46:11Z</time>
      </trkpt>
      <trkpt lat="48.86047" lon="2.40426">
        <ele>59.79999923706</ele>
        <time>2015-10-19T18:46:15Z</time>
      </trkpt>
      <trkpt lat="48.86054" lon="2.40431">
        <ele>60.400001525879</ele>
        <time>2015-10-19T18:46:17Z</time>
      </trkpt>
      <trkpt lat="48.86074" lon="2.40452">
        <ele>60.79999923706</ele>
        <time>2015-10-19T18:46:22Z</time>
      </trkpt>
      <trkpt lat="48.86089" lon="2.40467">
        <ele>61.79999923706</ele>
        <time>2015-10-19T18:46:25Z</time>
      </trkpt>
      <trkpt lat="48.86103" lon="2.40486">
        <ele>62.599998474121</ele>
        <time>2015-10-19T18:46:28Z</time>
      </trkpt>
      <trkpt lat="48.86117" lon="2.40504">
        <ele>63.79999923706</ele>
        <time>2015-10-19T18:46:31Z</time>
      </trkpt>
      <trkpt lat="48.86124" lon="2.40516">
        <ele>64.599998474121</ele>
        <time>2015-10-19T18:46:33Z</time>
      </trkpt>
      <trkpt lat="48.86141" lon="2.40536">
        <ele>66.599998474121</ele>
        <time>2015-10-19T18:46:37Z</time>
      </trkpt>
      <trkpt lat="48.86151" lon="2.40543">
        <ele>67.400001525879</ele>
        <time>2015-10-19T18:46:39Z</time>
      </trkpt>
      <trkpt lat="48.8616" lon="2.4055">
        <ele>68.400001525879</ele>
        <time>2015-10-19T18:46:41Z</time>
      </trkpt>
      <trkpt lat="48.86176" lon="2.40568">
        <ele>70</ele>
        <time>2015-10-19T18:46:46Z</time>
      </trkpt>
      <trkpt lat="48.86194" lon="2.40581">
        <ele>73</ele>
        <time>2015-10-19T18:46:52Z</time>
      </trkpt>
      <trkpt lat="48.8621" lon="2.40595">
        <ele>78.800003051758</ele>
        <time>2015-10-19T18:46:58Z</time>
      </trkpt>
      <trkpt lat="48.86227" lon="2.40606">
        <ele>82.599998474121</ele>
        <time>2015-10-19T18:47:04Z</time>
      </trkpt>
      <trkpt lat="48.86244" lon="2.40615">
        <ele>88.800003051758</ele>
        <time>2015-10-19T18:47:11Z</time>
      </trkpt>
      <trkpt lat="48.8626" lon="2.40632">
        <ele>98.199996948242</ele>
        <time>2015-10-19T18:47:19Z</time>
      </trkpt>
      <trkpt lat="48.86275" lon="2.40648">
        <ele>108.40000152588</ele>
        <time>2015-10-19T18:47:27Z</time>
      </trkpt>
      <trkpt lat="48.86291" lon="2.40668">
        <ele>115.80000305176</ele>
        <time>2015-10-19T18:47:34Z</time>
      </trkpt>
      <trkpt lat="48.86307" lon="2.40683">
        <ele>123.80000305176</ele>
        <time>2015-10-19T18:47:40Z</time>
      </trkpt>
      <trkpt lat="48.86325" lon="2.40701">
        <ele>130</ele>
        <time>2015-10-19T18:47:46Z</time>
      </trkpt>
      <trkpt lat="48.86342" lon="2.40715">
        <ele>135.60000610352</ele>
        <time>2015-10-19T18:47:51Z</time>
      </trkpt>
      <trkpt lat="48.86357" lon="2.40734">
        <ele>137.60000610352</ele>
        <time>2015-10-19T18:47:55Z</time>
      </trkpt>
      <trkpt lat="48.86374" lon="2.40755">
        <ele>144.39999389648</ele>
        <time>2015-10-19T18:48:00Z</time>
      </trkpt>
      <trkpt lat="48.86381" lon="2.40769">
        <ele>151.39999389648</ele>
        <time>2015-10-19T18:48:04Z</time>
      </trkpt>
      <trkpt lat="48.86382" lon="2.40774">
        <ele>151.80000305176</ele>
        <time>2015-10-19T18:48:07Z</time>
      </trkpt>
      <trkpt lat="48.86374" lon="2.40789">
        <ele>123</ele>
        <time>2015-10-19T18:48:50Z</time>
      </trkpt>
      <trkpt lat="48.86359" lon="2.40786">
        <ele>115.59999847412</ele>
        <time>2015-10-19T18:48:57Z</time>
      </trkpt>
      <trkpt lat="48.8635" lon="2.40773">
        <ele>110.40000152588</ele>
        <time>2015-10-19T18:49:07Z</time>
      </trkpt>
      <trkpt lat="48.8636" lon="2.4076">
        <ele>103.19999694824</ele>
        <time>2015-10-19T18:49:19Z</time>
      </trkpt>
      <trkpt lat="48.86372" lon="2.40754">
        <ele>100.80000305176</ele>
        <time>2015-10-19T18:49:23Z</time>
      </trkpt>
      <trkpt lat="48.86377" lon="2.40757">
        <ele>100.19999694824</ele>
        <time>2015-10-19T18:49:25Z</time>
      </trkpt>
      <trkpt lat="48.86391" lon="2.40775">
        <ele>100.19999694824</ele>
        <time>2015-10-19T18:49:31Z</time>
      </trkpt>
      <trkpt lat="48.86406" lon="2.40791">
        <ele>100.59999847412</ele>
        <time>2015-10-19T18:49:38Z</time>
      </trkpt>
      <trkpt lat="48.86423" lon="2.40809">
        <ele>97.599998474121</ele>
        <time>2015-10-19T18:49:44Z</time>
      </trkpt>
      <trkpt lat="48.86434" lon="2.40826">
        <ele>88.800003051758</ele>
        <time>2015-10-19T18:49:49Z</time>
      </trkpt>
      <trkpt lat="48.86439" lon="2.40843">
        <ele>83.400001525879</ele>
        <time>2015-10-19T18:49:57Z</time>
      </trkpt>
      <trkpt lat="48.86438" lon="2.40845">
        <ele>83</ele>
        <time>2015-10-19T18:49:58Z</time>
      </trkpt>
      <trkpt lat="48.86429" lon="2.40851">
        <ele>80.599998474121</ele>
        <time>2015-10-19T18:50:04Z</time>
      </trkpt>
      <trkpt lat="48.86409" lon="2.40853">
        <ele>78.199996948242</ele>
        <time>2015-10-19T18:50:11Z</time>
      </trkpt>
      <trkpt lat="48.86388" lon="2.40864">
        <ele>78.199996948242</ele>
        <time>2015-10-19T18:50:17Z</time>
      </trkpt>
      <trkpt lat="48.86371" lon="2.40873">
        <ele>78</ele>
        <time>2015-10-19T18:50:21Z</time>
      </trkpt>
      <trkpt lat="48.86352" lon="2.4088">
        <ele>77.800003051758</ele>
        <time>2015-10-19T18:50:25Z</time>
      </trkpt>
      <trkpt lat="48.8633" lon="2.40888">
        <ele>78.400001525879</ele>
        <time>2015-10-19T18:50:30Z</time>
      </trkpt>
      <trkpt lat="48.86309" lon="2.40897">
        <ele>78.599998474121</ele>
        <time>2015-10-19T18:50:34Z</time>
      </trkpt>
      <trkpt lat="48.86287" lon="2.40912">
        <ele>80</ele>
        <time>2015-10-19T18:50:38Z</time>
      </trkpt>
      <trkpt lat="48.86268" lon="2.40922">
        <ele>81.199996948242</ele>
        <time>2015-10-19T18:50:41Z</time>
      </trkpt>
      <trkpt lat="48.8625" lon="2.40931">
        <ele>82.199996948242</ele>
        <time>2015-10-19T18:50:44Z</time>
      </trkpt>
      <trkpt lat="48.86227" lon="2.40941">
        <ele>83.800003051758</ele>
        <time>2015-10-19T18:50:48Z</time>
      </trkpt>
      <trkpt lat="48.86203" lon="2.40944">
        <ele>84.400001525879</ele>
        <time>2015-10-19T18:50:52Z</time>
      </trkpt>
      <trkpt lat="48.86181" lon="2.40936">
        <ele>82.599998474121</ele>
        <time>2015-10-19T18:50:56Z</time>
      </trkpt>
      <trkpt lat="48.86157" lon="2.40935">
        <ele>82.400001525879</ele>
        <time>2015-10-19T18:51:00Z</time>
      </trkpt>
      <trkpt lat="48.86139" lon="2.40938">
        <ele>82.199996948242</ele>
        <time>2015-10-19T18:51:03Z</time>
      </trkpt>
      <trkpt lat="48.86116" lon="2.40938">
        <ele>81.400001525879</ele>
        <time>2015-10-19T18:51:07Z</time>
      </trkpt>
      <trkpt lat="48.8611" lon="2.4094">
        <ele>80.800003051758</ele>
        <time>2015-10-19T18:51:08Z</time>
      </trkpt>
      <trkpt lat="48.861" lon="2.40941">
        <ele>80.199996948242</ele>
        <time>2015-10-19T18:51:10Z</time>
      </trkpt>
      <trkpt lat="48.86082" lon="2.40945">
        <ele>79.800003051758</ele>
        <time>2015-10-19T18:51:14Z</time>
      </trkpt>
      <trkpt lat="48.86063" lon="2.40943">
        <ele>78.800003051758</ele>
        <time>2015-10-19T18:51:19Z</time>
      </trkpt>
      <trkpt lat="48.86059" lon="2.40942">
        <ele>78.599998474121</ele>
        <time>2015-10-19T18:51:20Z</time>
      </trkpt>
      <trkpt lat="48.86038" lon="2.4094">
        <ele>74.599998474121</ele>
        <time>2015-10-19T18:51:26Z</time>
      </trkpt>
      <trkpt lat="48.86016" lon="2.4094">
        <ele>73.599998474121</ele>
        <time>2015-10-19T18:51:31Z</time>
      </trkpt>
      <trkpt lat="48.85995" lon="2.40945">
        <ele>72.800003051758</ele>
        <time>2015-10-19T18:51:35Z</time>
      </trkpt>
      <trkpt lat="48.85975" lon="2.40951">
        <ele>69.599998474121</ele>
        <time>2015-10-19T18:51:39Z</time>
      </trkpt>
      <trkpt lat="48.85954" lon="2.40955">
        <ele>67.400001525879</ele>
        <time>2015-10-19T18:51:43Z</time>
      </trkpt>
      <trkpt lat="48.85933" lon="2.40964">
        <ele>66.199996948242</ele>
        <time>2015-10-19T18:51:47Z</time>
      </trkpt>
      <trkpt lat="48.8591" lon="2.40974">
        <ele>64.800003051758</ele>
        <time>2015-10-19T18:51:51Z</time>
      </trkpt>
      <trkpt lat="48.85892" lon="2.40986">
        <ele>63.20000076294</ele>
        <time>2015-10-19T18:51:54Z</time>
      </trkpt>
      <trkpt lat="48.85874" lon="2.40995">
        <ele>62.20000076294</ele>
        <time>2015-10-19T18:51:57Z</time>
      </trkpt>
      <trkpt lat="48.8587" lon="2.40988">
        <ele>62</ele>
        <time>2015-10-19T18:51:58Z</time>
      </trkpt>
      <trkpt lat="48.85849" lon="2.40984">
        <ele>61.20000076294</ele>
        <time>2015-10-19T18:52:02Z</time>
      </trkpt>
      <trkpt lat="48.85826" lon="2.4099">
        <ele>60</ele>
        <time>2015-10-19T18:52:06Z</time>
      </trkpt>
      <trkpt lat="48.85804" lon="2.40999">
        <ele>58.79999923706</ele>
        <time>2015-10-19T18:52:10Z</time>
      </trkpt>
      <trkpt lat="48.85782" lon="2.41">
        <ele>58</ele>
        <time>2015-10-19T18:52:14Z</time>
      </trkpt>
      <trkpt lat="48.85764" lon="2.41005">
        <ele>57</ele>
        <time>2015-10-19T18:52:17Z</time>
      </trkpt>
      <trkpt lat="48.85745" lon="2.41009">
        <ele>55.79999923706</ele>
        <time>2015-10-19T18:52:20Z</time>
      </trkpt>
      <trkpt lat="48.85727" lon="2.41016">
        <ele>55.20000076294</ele>
        <time>2015-10-19T18:52:23Z</time>
      </trkpt>
      <trkpt lat="48.85709" lon="2.4102">
        <ele>54.20000076294</ele>
        <time>2015-10-19T18:52:26Z</time>
      </trkpt>
      <trkpt lat="48.85691" lon="2.41029">
        <ele>54.400001525879</ele>
        <time>2015-10-19T18:52:29Z</time>
      </trkpt>
      <trkpt lat="48.85673" lon="2.41033">
        <ele>53.599998474121</ele>
        <time>2015-10-19T18:52:32Z</time>
      </trkpt>
      <trkpt lat="48.85654" lon="2.41037">
        <ele>53</ele>
        <time>2015-10-19T18:52:35Z</time>
      </trkpt>
      <trkpt lat="48.85635" lon="2.41039">
        <ele>52</ele>
        <time>2015-10-19T18:52:38Z</time>
      </trkpt>
      <trkpt lat="48.85614" lon="2.41042">
        <ele>50.79999923706</ele>
        <time>2015-10-19T18:52:42Z</time>
      </trkpt>
      <trkpt lat="48.85591" lon="2.41046">
        <ele>50</ele>
        <time>2015-10-19T18:52:46Z</time>
      </trkpt>
      <trkpt lat="48.85569" lon="2.4105">
        <ele>49</ele>
        <time>2015-10-19T18:52:50Z</time>
      </trkpt>
      <trkpt lat="48.85559" lon="2.41053">
        <ele>48.400001525879</ele>
        <time>2015-10-19T18:52:52Z</time>
      </trkpt>
      <trkpt lat="48.85551" lon="2.41055">
        <ele>48.599998474121</ele>
        <time>2015-10-19T18:52:54Z</time>
      </trkpt>
      <trkpt lat="48.85531" lon="2.41058">
        <ele>48</ele>
        <time>2015-10-19T18:52:58Z</time>
      </trkpt>
      <trkpt lat="48.85511" lon="2.41062">
        <ele>46.599998474121</ele>
        <time>2015-10-19T18:53:02Z</time>
      </trkpt>
      <trkpt lat="48.85488" lon="2.41066">
        <ele>45.79999923706</ele>
        <time>2015-10-19T18:53:06Z</time>
      </trkpt>
      <trkpt lat="48.8547" lon="2.41069">
        <ele>45</ele>
        <time>2015-10-19T18:53:09Z</time>
      </trkpt>
      <trkpt lat="48.85445" lon="2.4107">
        <ele>44.20000076294</ele>
        <time>2015-10-19T18:53:13Z</time>
      </trkpt>
      <trkpt lat="48.85426" lon="2.41074">
        <ele>43.400001525879</ele>
        <time>2015-10-19T18:53:16Z</time>
      </trkpt>
      <trkpt lat="48.85407" lon="2.41079">
        <ele>42.79999923706</ele>
        <time>2015-10-19T18:53:19Z</time>
      </trkpt>
      <trkpt lat="48.85389" lon="2.41082">
        <ele>42.20000076294</ele>
        <time>2015-10-19T18:53:22Z</time>
      </trkpt>
      <trkpt lat="48.85367" lon="2.41085">
        <ele>41</ele>
        <time>2015-10-19T18:53:26Z</time>
      </trkpt>
      <trkpt lat="48.85346" lon="2.41089">
        <ele>40.400001525879</ele>
        <time>2015-10-19T18:53:30Z</time>
      </trkpt>
      <trkpt lat="48.85324" lon="2.41086">
        <ele>40.20000076294</ele>
        <time>2015-10-19T18:53:35Z</time>
      </trkpt>
      <trkpt lat="48.85303" lon="2.4109">
        <ele>42</ele>
        <time>2015-10-19T18:53:39Z</time>
      </trkpt>
      <trkpt lat="48.85284" lon="2.4109">
        <ele>42.20000076294</ele>
        <time>2015-10-19T18:53:43Z</time>
      </trkpt>
      <trkpt lat="48.85265" lon="2.41091">
        <ele>42.20000076294</ele>
        <time>2015-10-19T18:53:47Z</time>
      </trkpt>
      <trkpt lat="48.85243" lon="2.41093">
        <ele>41.79999923706</ele>
        <time>2015-10-19T18:53:51Z</time>
      </trkpt>
      <trkpt lat="48.8522" lon="2.41096">
        <ele>41.599998474121</ele>
        <time>2015-10-19T18:53:55Z</time>
      </trkpt>
      <trkpt lat="48.85202" lon="2.41097">
        <ele>41.20000076294</ele>
        <time>2015-10-19T18:53:58Z</time>
      </trkpt>
      <trkpt lat="48.85182" lon="2.411">
        <ele>40.599998474121</ele>
        <time>2015-10-19T18:54:01Z</time>
      </trkpt>
      <trkpt lat="48.85163" lon="2.41102">
        <ele>40</ele>
        <time>2015-10-19T18:54:04Z</time>
      </trkpt>
      <trkpt lat="48.85144" lon="2.41105">
        <ele>39.400001525879</ele>
        <time>2015-10-19T18:54:07Z</time>
      </trkpt>
      <trkpt lat="48.85126" lon="2.41108">
        <ele>38.79999923706</ele>
        <time>2015-10-19T18:54:10Z</time>
      </trkpt>
      <trkpt lat="48.85107" lon="2.41111">
        <ele>39.20000076294</ele>
        <time>2015-10-19T18:54:13Z</time>
      </trkpt>
      <trkpt lat="48.85084" lon="2.4112">
        <ele>40.599998474121</ele>
        <time>2015-10-19T18:54:17Z</time>
      </trkpt>
      <trkpt lat="48.85079" lon="2.4112">
        <ele>41</ele>
        <time>2015-10-19T18:54:18Z</time>
      </trkpt>
      <trkpt lat="48.85055" lon="2.41126">
        <ele>42</ele>
        <time>2015-10-19T18:54:22Z</time>
      </trkpt>
      <trkpt lat="48.85032" lon="2.41133">
        <ele>43</ele>
        <time>2015-10-19T18:54:26Z</time>
      </trkpt>
      <trkpt lat="48.85008" lon="2.41139">
        <ele>43.400001525879</ele>
        <time>2015-10-19T18:54:30Z</time>
      </trkpt>
      <trkpt lat="48.84985" lon="2.41146">
        <ele>44</ele>
        <time>2015-10-19T18:54:34Z</time>
      </trkpt>
      <trkpt lat="48.84964" lon="2.41151">
        <ele>45.400001525879</ele>
        <time>2015-10-19T18:54:38Z</time>
      </trkpt>
      <trkpt lat="48.84942" lon="2.41151">
        <ele>46.20000076294</ele>
        <time>2015-10-19T18:54:42Z</time>
      </trkpt>
      <trkpt lat="48.8492" lon="2.41154">
        <ele>46.599998474121</ele>
        <time>2015-10-19T18:54:46Z</time>
      </trkpt>
      <trkpt lat="48.84915" lon="2.41154">
        <ele>46.599998474121</ele>
        <time>2015-10-19T18:54:47Z</time>
      </trkpt>
      <trkpt lat="48.84892" lon="2.41149">
        <ele>43.79999923706</ele>
        <time>2015-10-19T18:54:52Z</time>
      </trkpt>
      <trkpt lat="48.84887" lon="2.41149">
        <ele>43.20000076294</ele>
        <time>2015-10-19T18:54:53Z</time>
      </trkpt>
      <trkpt lat="48.84867" lon="2.41151">
        <ele>41.20000076294</ele>
        <time>2015-10-19T18:54:57Z</time>
      </trkpt>
      <trkpt lat="48.84844" lon="2.41155">
        <ele>39.400001525879</ele>
        <time>2015-10-19T18:55:01Z</time>
      </trkpt>
      <trkpt lat="48.84823" lon="2.41154">
        <ele>37.599998474121</ele>
        <time>2015-10-19T18:55:05Z</time>
      </trkpt>
      <trkpt lat="48.848" lon="2.41157">
        <ele>36.599998474121</ele>
        <time>2015-10-19T18:55:09Z</time>
      </trkpt>
      <trkpt lat="48.84778" lon="2.41161">
        <ele>36.20000076294</ele>
        <time>2015-10-19T18:55:13Z</time>
      </trkpt>
      <trkpt lat="48.84759" lon="2.41164">
        <ele>35.599998474121</ele>
        <time>2015-10-19T18:55:17Z</time>
      </trkpt>
      <trkpt lat="48.84747" lon="2.41173">
        <ele>35.400001525879</ele>
        <time>2015-10-19T18:55:19Z</time>
      </trkpt>
      <trkpt lat="48.84732" lon="2.41162">
        <ele>35.79999923706</ele>
        <time>2015-10-19T18:55:23Z</time>
      </trkpt>
      <trkpt lat="48.84729" lon="2.4112">
        <ele>37</ele>
        <time>2015-10-19T18:55:28Z</time>
      </trkpt>
      <trkpt lat="48.84735" lon="2.41086">
        <ele>40</ele>
        <time>2015-10-19T18:55:33Z</time>
      </trkpt>
      <trkpt lat="48.84736" lon="2.41081">
        <ele>41</ele>
        <time>2015-10-19T18:55:34Z</time>
      </trkpt>
      <trkpt lat="48.84738" lon="2.41073">
        <ele>43.20000076294</ele>
        <time>2015-10-19T18:55:40Z</time>
      </trkpt>
      <trkpt lat="48.84743" lon="2.41064">
        <ele>53.20000076294</ele>
        <time>2015-10-19T18:57:07Z</time>
      </trkpt>
      <trkpt lat="48.84743" lon="2.41056">
        <ele>61.20000076294</ele>
        <time>2015-10-19T18:58:00Z</time>
      </trkpt>
      <trkpt lat="48.8473" lon="2.41064">
        <ele>62.79999923706</ele>
        <time>2015-10-19T18:58:33Z</time>
      </trkpt>
      <trkpt lat="48.84718" lon="2.41066">
        <ele>54.20000076294</ele>
        <time>2015-10-19T18:59:16Z</time>
      </trkpt>
      <trkpt lat="48.84708" lon="2.4106">
        <ele>53.20000076294</ele>
        <time>2015-10-19T18:59:22Z</time>
      </trkpt>
      <trkpt lat="48.84696" lon="2.4106">
        <ele>52.79999923706</ele>
        <time>2015-10-19T18:59:31Z</time>
      </trkpt>
      <trkpt lat="48.84691" lon="2.41083">
        <ele>51.79999923706</ele>
        <time>2015-10-19T18:59:47Z</time>
      </trkpt>
      <trkpt lat="48.84687" lon="2.411">
        <ele>51.400001525879</ele>
        <time>2015-10-19T18:59:52Z</time>
      </trkpt>
      <trkpt lat="48.84685" lon="2.41115">
        <ele>51.20000076294</ele>
        <time>2015-10-19T18:59:57Z</time>
      </trkpt>
      <trkpt lat="48.84687" lon="2.41145">
        <ele>51.79999923706</ele>
        <time>2015-10-19T19:00:03Z</time>
      </trkpt>
      <trkpt lat="48.8469" lon="2.41173">
        <ele>51.20000076294</ele>
        <time>2015-10-19T19:00:08Z</time>
      </trkpt>
      <trkpt lat="48.8469" lon="2.41204">
        <ele>51.599998474121</ele>
        <time>2015-10-19T19:00:13Z</time>
      </trkpt>
      <trkpt lat="48.84689" lon="2.41237">
        <ele>52.400001525879</ele>
        <time>2015-10-19T19:00:18Z</time>
      </trkpt>
      <trkpt lat="48.84686" lon="2.41267">
        <ele>52.79999923706</ele>
        <time>2015-10-19T19:00:22Z</time>
      </trkpt>
      <trkpt lat="48.84689" lon="2.41299">
        <ele>51.599998474121</ele>
        <time>2015-10-19T19:00:26Z</time>
      </trkpt>
      <trkpt lat="48.84686" lon="2.41328">
        <ele>51.400001525879</ele>
        <time>2015-10-19T19:00:30Z</time>
      </trkpt>
      <trkpt lat="48.84684" lon="2.41346">
        <ele>51.79999923706</ele>
        <time>2015-10-19T19:00:33Z</time>
      </trkpt>
      <trkpt lat="48.84676" lon="2.4137">
        <ele>52</ele>
        <time>2015-10-19T19:00:38Z</time>
      </trkpt>
      <trkpt lat="48.84671" lon="2.4138">
        <ele>52.20000076294</ele>
        <time>2015-10-19T19:00:41Z</time>
      </trkpt>
      <trkpt lat="48.84658" lon="2.414">
        <ele>51.20000076294</ele>
        <time>2015-10-19T19:00:46Z</time>
      </trkpt>
      <trkpt lat="48.84647" lon="2.41428">
        <ele>49.79999923706</ele>
        <time>2015-10-19T19:00:51Z</time>
      </trkpt>
      <trkpt lat="48.84641" lon="2.41458">
        <ele>48.400001525879</ele>
        <time>2015-10-19T19:00:56Z</time>
      </trkpt>
      <trkpt lat="48.84643" lon="2.41489">
        <ele>46.599998474121</ele>
        <time>2015-10-19T19:01:03Z</time>
      </trkpt>
      <trkpt lat="48.84652" lon="2.41514">
        <ele>45</ele>
        <time>2015-10-19T19:01:09Z</time>
      </trkpt>
      <trkpt lat="48.84659" lon="2.41543">
        <ele>45.599998474121</ele>
        <time>2015-10-19T19:01:14Z</time>
      </trkpt>
      <trkpt lat="48.84659" lon="2.41574">
        <ele>45.599998474121</ele>
        <time>2015-10-19T19:01:18Z</time>
      </trkpt>
      <trkpt lat="48.84659" lon="2.41606">
        <ele>45.79999923706</ele>
        <time>2015-10-19T19:01:22Z</time>
      </trkpt>
      <trkpt lat="48.84658" lon="2.41636">
        <ele>48.79999923706</ele>
        <time>2015-10-19T19:01:26Z</time>
      </trkpt>
      <trkpt lat="48.84655" lon="2.41666">
        <ele>51.400001525879</ele>
        <time>2015-10-19T19:01:30Z</time>
      </trkpt>
      <trkpt lat="48.84652" lon="2.41697">
        <ele>53.79999923706</ele>
        <time>2015-10-19T19:01:34Z</time>
      </trkpt>
      <trkpt lat="48.8465" lon="2.41728">
        <ele>56</ele>
        <time>2015-10-19T19:01:38Z</time>
      </trkpt>
      <trkpt lat="48.84646" lon="2.41758">
        <ele>59.20000076294</ele>
        <time>2015-10-19T19:01:42Z</time>
      </trkpt>
      <trkpt lat="48.84645" lon="2.4178">
        <ele>61</ele>
        <time>2015-10-19T19:01:45Z</time>
      </trkpt>
      <trkpt lat="48.84645" lon="2.41811">
        <ele>63</ele>
        <time>2015-10-19T19:01:49Z</time>
      </trkpt>
      <trkpt lat="48.84643" lon="2.41844">
        <ele>65.599998474121</ele>
        <time>2015-10-19T19:01:53Z</time>
      </trkpt>
      <trkpt lat="48.84639" lon="2.41877">
        <ele>67.400001525879</ele>
        <time>2015-10-19T19:01:57Z</time>
      </trkpt>
      <trkpt lat="48.84636" lon="2.41909">
        <ele>70</ele>
        <time>2015-10-19T19:02:01Z</time>
      </trkpt>
      <trkpt lat="48.84635" lon="2.41935">
        <ele>74.400001525879</ele>
        <time>2015-10-19T19:02:05Z</time>
      </trkpt>
      <trkpt lat="48.84632" lon="2.41962">
        <ele>71.400001525879</ele>
        <time>2015-10-19T19:02:10Z</time>
      </trkpt>
      <trkpt lat="48.84638" lon="2.41975">
        <ele>71.599998474121</ele>
        <time>2015-10-19T19:02:15Z</time>
      </trkpt>
      <trkpt lat="48.84652" lon="2.41996">
        <ele>77.800003051758</ele>
        <time>2015-10-19T19:02:22Z</time>
      </trkpt>
      <trkpt lat="48.84662" lon="2.42021">
        <ele>80.199996948242</ele>
        <time>2015-10-19T19:02:28Z</time>
      </trkpt>
      <trkpt lat="48.84671" lon="2.42046">
        <ele>85</ele>
        <time>2015-10-19T19:02:36Z</time>
      </trkpt>
      <trkpt lat="48.84678" lon="2.42072">
        <ele>87.400001525879</ele>
        <time>2015-10-19T19:02:43Z</time>
      </trkpt>
      <trkpt lat="48.84688" lon="2.42096">
        <ele>88.599998474121</ele>
        <time>2015-10-19T19:02:48Z</time>
      </trkpt>
      <trkpt lat="48.84697" lon="2.42126">
        <ele>89</ele>
        <time>2015-10-19T19:02:53Z</time>
      </trkpt>
      <trkpt lat="48.84709" lon="2.42154">
        <ele>91</ele>
        <time>2015-10-19T19:02:58Z</time>
      </trkpt>
      <trkpt lat="48.84716" lon="2.42186">
        <ele>91.199996948242</ele>
        <time>2015-10-19T19:03:03Z</time>
      </trkpt>
      <trkpt lat="48.84725" lon="2.42211">
        <ele>91.400001525879</ele>
        <time>2015-10-19T19:03:07Z</time>
      </trkpt>
      <trkpt lat="48.84734" lon="2.42242">
        <ele>93.800003051758</ele>
        <time>2015-10-19T19:03:12Z</time>
      </trkpt>
      <trkpt lat="48.84744" lon="2.42267">
        <ele>94.800003051758</ele>
        <time>2015-10-19T19:03:16Z</time>
      </trkpt>
      <trkpt lat="48.84753" lon="2.42292">
        <ele>96.400001525879</ele>
        <time>2015-10-19T19:03:20Z</time>
      </trkpt>
      <trkpt lat="48.84762" lon="2.4232">
        <ele>98.400001525879</ele>
        <time>2015-10-19T19:03:24Z</time>
      </trkpt>
      <trkpt lat="48.84773" lon="2.42346">
        <ele>99</ele>
        <time>2015-10-19T19:03:27Z</time>
      </trkpt>
      <trkpt lat="48.84785" lon="2.42375">
        <ele>98.599998474121</ele>
        <time>2015-10-19T19:03:31Z</time>
      </trkpt>
      <trkpt lat="48.84787" lon="2.42381">
        <ele>98.599998474121</ele>
        <time>2015-10-19T19:03:32Z</time>
      </trkpt>
      <trkpt lat="48.84796" lon="2.42412">
        <ele>98.800003051758</ele>
        <time>2015-10-19T19:03:36Z</time>
      </trkpt>
      <trkpt lat="48.848" lon="2.42426">
        <ele>99.199996948242</ele>
        <time>2015-10-19T19:03:38Z</time>
      </trkpt>
      <trkpt lat="48.84805" lon="2.42439">
        <ele>99.400001525879</ele>
        <time>2015-10-19T19:03:40Z</time>
      </trkpt>
      <trkpt lat="48.84815" lon="2.42463">
        <ele>100</ele>
        <time>2015-10-19T19:03:44Z</time>
      </trkpt>
      <trkpt lat="48.84827" lon="2.42485">
        <ele>93.599998474121</ele>
        <time>2015-10-19T19:03:47Z</time>
      </trkpt>
      <trkpt lat="48.84835" lon="2.42509">
        <ele>89.599998474121</ele>
        <time>2015-10-19T19:03:50Z</time>
      </trkpt>
      <trkpt lat="48.84843" lon="2.42534">
        <ele>84.400001525879</ele>
        <time>2015-10-19T19:03:53Z</time>
      </trkpt>
      <trkpt lat="48.84854" lon="2.42562">
        <ele>82.199996948242</ele>
        <time>2015-10-19T19:03:57Z</time>
      </trkpt>
      <trkpt lat="48.84865" lon="2.42589">
        <ele>81</ele>
        <time>2015-10-19T19:04:01Z</time>
      </trkpt>
      <trkpt lat="48.84873" lon="2.42615">
        <ele>80.199996948242</ele>
        <time>2015-10-19T19:04:05Z</time>
      </trkpt>
      <trkpt lat="48.84882" lon="2.42636">
        <ele>79.800003051758</ele>
        <time>2015-10-19T19:04:09Z</time>
      </trkpt>
      <trkpt lat="48.84886" lon="2.42644">
        <ele>80</ele>
        <time>2015-10-19T19:04:11Z</time>
      </trkpt>
      <trkpt lat="48.84889" lon="2.42654">
        <ele>81</ele>
        <time>2015-10-19T19:04:13Z</time>
      </trkpt>
      <trkpt lat="48.84889" lon="2.4267">
        <ele>82.400001525879</ele>
        <time>2015-10-19T19:04:16Z</time>
      </trkpt>
      <trkpt lat="48.84888" lon="2.42695">
        <ele>82.800003051758</ele>
        <time>2015-10-19T19:04:21Z</time>
      </trkpt>
      <trkpt lat="48.84889" lon="2.42725">
        <ele>84.199996948242</ele>
        <time>2015-10-19T19:04:26Z</time>
      </trkpt>
      <trkpt lat="48.84888" lon="2.42754">
        <ele>85.400001525879</ele>
        <time>2015-10-19T19:04:30Z</time>
      </trkpt>
      <trkpt lat="48.84888" lon="2.42781">
        <ele>87</ele>
        <time>2015-10-19T19:04:34Z</time>
      </trkpt>
      <trkpt lat="48.84887" lon="2.42814">
        <ele>89.199996948242</ele>
        <time>2015-10-19T19:04:39Z</time>
      </trkpt>
      <trkpt lat="48.84886" lon="2.42848">
        <ele>91.199996948242</ele>
        <time>2015-10-19T19:04:44Z</time>
      </trkpt>
      <trkpt lat="48.84885" lon="2.42879">
        <ele>93.199996948242</ele>
        <time>2015-10-19T19:04:49Z</time>
      </trkpt>
      <trkpt lat="48.84885" lon="2.42898">
        <ele>94.599998474121</ele>
        <time>2015-10-19T19:04:52Z</time>
      </trkpt>
      <trkpt lat="48.84882" lon="2.4293">
        <ele>96.800003051758</ele>
        <time>2015-10-19T19:04:57Z</time>
      </trkpt>
      <trkpt lat="48.8488" lon="2.42962">
        <ele>99</ele>
        <time>2015-10-19T19:05:02Z</time>
      </trkpt>
      <trkpt lat="48.84879" lon="2.4299">
        <ele>101.19999694824</ele>
        <time>2015-10-19T19:05:06Z</time>
      </trkpt>
      <trkpt lat="48.84879" lon="2.42997">
        <ele>101.59999847412</ele>
        <time>2015-10-19T19:05:07Z</time>
      </trkpt>
      <trkpt lat="48.84878" lon="2.43026">
        <ele>103.19999694824</ele>
        <time>2015-10-19T19:05:11Z</time>
      </trkpt>
      <trkpt lat="48.84877" lon="2.43055">
        <ele>104.59999847412</ele>
        <time>2015-10-19T19:05:15Z</time>
      </trkpt>
      <trkpt lat="48.84876" lon="2.43086">
        <ele>101.80000305176</ele>
        <time>2015-10-19T19:05:19Z</time>
      </trkpt>
      <trkpt lat="48.84876" lon="2.43116">
        <ele>102</ele>
        <time>2015-10-19T19:05:23Z</time>
      </trkpt>
      <trkpt lat="48.84876" lon="2.43144">
        <ele>103.59999847412</ele>
        <time>2015-10-19T19:05:27Z</time>
      </trkpt>
      <trkpt lat="48.84875" lon="2.43176">
        <ele>107.19999694824</ele>
        <time>2015-10-19T19:05:32Z</time>
      </trkpt>
      <trkpt lat="48.84872" lon="2.43206">
        <ele>111</ele>
        <time>2015-10-19T19:05:38Z</time>
      </trkpt>
      <trkpt lat="48.84871" lon="2.43212">
        <ele>112</ele>
        <time>2015-10-19T19:05:40Z</time>
      </trkpt>
      <trkpt lat="48.84871" lon="2.43217">
        <ele>112.80000305176</ele>
        <time>2015-10-19T19:05:42Z</time>
      </trkpt>
      <trkpt lat="48.84871" lon="2.43234">
        <ele>111</ele>
        <time>2015-10-19T19:05:46Z</time>
      </trkpt>
      <trkpt lat="48.84871" lon="2.43245">
        <ele>111</ele>
        <time>2015-10-19T19:05:48Z</time>
      </trkpt>
      <trkpt lat="48.84869" lon="2.43276">
        <ele>111.59999847412</ele>
        <time>2015-10-19T19:05:53Z</time>
      </trkpt>
      <trkpt lat="48.84866" lon="2.43307">
        <ele>112.80000305176</ele>
        <time>2015-10-19T19:05:58Z</time>
      </trkpt>
      <trkpt lat="48.84865" lon="2.43334">
        <ele>114</ele>
        <time>2015-10-19T19:06:02Z</time>
      </trkpt>
      <trkpt lat="48.84865" lon="2.43362">
        <ele>115</ele>
        <time>2015-10-19T19:06:06Z</time>
      </trkpt>
      <trkpt lat="48.84866" lon="2.43393">
        <ele>116.19999694824</ele>
        <time>2015-10-19T19:06:10Z</time>
      </trkpt>
      <trkpt lat="48.84867" lon="2.43423">
        <ele>117.40000152588</ele>
        <time>2015-10-19T19:06:14Z</time>
      </trkpt>
      <trkpt lat="48.84865" lon="2.43451">
        <ele>119</ele>
        <time>2015-10-19T19:06:18Z</time>
      </trkpt>
      <trkpt lat="48.84864" lon="2.43458">
        <ele>119.19999694824</ele>
        <time>2015-10-19T19:06:19Z</time>
      </trkpt>
      <trkpt lat="48.84862" lon="2.43471">
        <ele>120</ele>
        <time>2015-10-19T19:06:21Z</time>
      </trkpt>
      <trkpt lat="48.84861" lon="2.43501">
        <ele>121.80000305176</ele>
        <time>2015-10-19T19:06:25Z</time>
      </trkpt>
      <trkpt lat="48.8486" lon="2.43532">
        <ele>123.40000152588</ele>
        <time>2015-10-19T19:06:29Z</time>
      </trkpt>
      <trkpt lat="48.84859" lon="2.43565">
        <ele>125.40000152588</ele>
        <time>2015-10-19T19:06:33Z</time>
      </trkpt>
      <trkpt lat="48.84856" lon="2.43598">
        <ele>127.40000152588</ele>
        <time>2015-10-19T19:06:37Z</time>
      </trkpt>
      <trkpt lat="48.84855" lon="2.43629">
        <ele>129.60000610352</ele>
        <time>2015-10-19T19:06:41Z</time>
      </trkpt>
      <trkpt lat="48.84852" lon="2.4366">
        <ele>132</ele>
        <time>2015-10-19T19:06:46Z</time>
      </trkpt>
      <trkpt lat="48.84849" lon="2.43672">
        <ele>133.19999694824</ele>
        <time>2015-10-19T19:06:49Z</time>
      </trkpt>
      <trkpt lat="48.84846" lon="2.43678">
        <ele>134.39999389648</ele>
        <time>2015-10-19T19:06:52Z</time>
      </trkpt>
      <trkpt lat="48.84842" lon="2.43688">
        <ele>135.80000305176</ele>
        <time>2015-10-19T19:06:56Z</time>
      </trkpt>
      <trkpt lat="48.8484" lon="2.43706">
        <ele>137.19999694824</ele>
        <time>2015-10-19T19:07:00Z</time>
      </trkpt>
      <trkpt lat="48.84838" lon="2.4374">
        <ele>135.60000610352</ele>
        <time>2015-10-19T19:07:05Z</time>
      </trkpt>
      <trkpt lat="48.84836" lon="2.43771">
        <ele>131.39999389648</ele>
        <time>2015-10-19T19:07:09Z</time>
      </trkpt>
      <trkpt lat="48.84832" lon="2.43801">
        <ele>132.80000305176</ele>
        <time>2015-10-19T19:07:13Z</time>
      </trkpt>
      <trkpt lat="48.84827" lon="2.43833">
        <ele>133.80000305176</ele>
        <time>2015-10-19T19:07:17Z</time>
      </trkpt>
      <trkpt lat="48.84823" lon="2.43865">
        <ele>133.80000305176</ele>
        <time>2015-10-19T19:07:21Z</time>
      </trkpt>
      <trkpt lat="48.84818" lon="2.43897">
        <ele>133.19999694824</ele>
        <time>2015-10-19T19:07:25Z</time>
      </trkpt>
      <trkpt lat="48.84814" lon="2.43928">
        <ele>133.19999694824</ele>
        <time>2015-10-19T19:07:29Z</time>
      </trkpt>
      <trkpt lat="48.84811" lon="2.43956">
        <ele>133.60000610352</ele>
        <time>2015-10-19T19:07:33Z</time>
      </trkpt>
      <trkpt lat="48.84811" lon="2.43981">
        <ele>134.19999694824</ele>
        <time>2015-10-19T19:07:37Z</time>
      </trkpt>
      <trkpt lat="48.84795" lon="2.43991">
        <ele>136.19999694824</ele>
        <time>2015-10-19T19:07:43Z</time>
      </trkpt>
      <trkpt lat="48.8479" lon="2.43991">
        <ele>136.60000610352</ele>
        <time>2015-10-19T19:07:44Z</time>
      </trkpt>
      <trkpt lat="48.84778" lon="2.43993">
        <ele>137.80000305176</ele>
        <time>2015-10-19T19:07:47Z</time>
      </trkpt>
      <trkpt lat="48.8477" lon="2.43993">
        <ele>138.39999389648</ele>
        <time>2015-10-19T19:07:49Z</time>
      </trkpt>
      <trkpt lat="48.84759" lon="2.43993">
        <ele>139.19999694824</ele>
        <time>2015-10-19T19:07:52Z</time>
      </trkpt>
      <trkpt lat="48.8474" lon="2.43998">
        <ele>142.60000610352</ele>
        <time>2015-10-19T19:07:58Z</time>
      </trkpt>
      <trkpt lat="48.84732" lon="2.44019">
        <ele>143</ele>
        <time>2015-10-19T19:08:04Z</time>
      </trkpt>
      <trkpt lat="48.84728" lon="2.4405">
        <ele>142.39999389648</ele>
        <time>2015-10-19T19:08:09Z</time>
      </trkpt>
      <trkpt lat="48.84723" lon="2.44081">
        <ele>140.80000305176</ele>
        <time>2015-10-19T19:08:14Z</time>
      </trkpt>
      <trkpt lat="48.8472" lon="2.44112">
        <ele>140.80000305176</ele>
        <time>2015-10-19T19:08:19Z</time>
      </trkpt>
      <trkpt lat="48.84717" lon="2.44141">
        <ele>140.60000610352</ele>
        <time>2015-10-19T19:08:24Z</time>
      </trkpt>
      <trkpt lat="48.84716" lon="2.44173">
        <ele>139.60000610352</ele>
        <time>2015-10-19T19:08:30Z</time>
      </trkpt>
      <trkpt lat="48.84715" lon="2.442">
        <ele>139.39999389648</ele>
        <time>2015-10-19T19:08:34Z</time>
      </trkpt>
      <trkpt lat="48.84713" lon="2.44233">
        <ele>138.39999389648</ele>
        <time>2015-10-19T19:08:39Z</time>
      </trkpt>
      <trkpt lat="48.8471" lon="2.44266">
        <ele>138.19999694824</ele>
        <time>2015-10-19T19:08:44Z</time>
      </trkpt>
      <trkpt lat="48.84711" lon="2.44279">
        <ele>138.80000305176</ele>
        <time>2015-10-19T19:08:46Z</time>
      </trkpt>
      <trkpt lat="48.8471" lon="2.44304">
        <ele>139.19999694824</ele>
        <time>2015-10-19T19:08:50Z</time>
      </trkpt>
      <trkpt lat="48.84707" lon="2.44324">
        <ele>140.39999389648</ele>
        <time>2015-10-19T19:08:53Z</time>
      </trkpt>
      <trkpt lat="48.8471" lon="2.44359">
        <ele>138.39999389648</ele>
        <time>2015-10-19T19:08:58Z</time>
      </trkpt>
      <trkpt lat="48.84712" lon="2.44394">
        <ele>131.60000610352</ele>
        <time>2015-10-19T19:09:02Z</time>
      </trkpt>
      <trkpt lat="48.84712" lon="2.44402">
        <ele>130.60000610352</ele>
        <time>2015-10-19T19:09:03Z</time>
      </trkpt>
      <trkpt lat="48.84711" lon="2.44418">
        <ele>128.39999389648</ele>
        <time>2015-10-19T19:09:05Z</time>
      </trkpt>
      <trkpt lat="48.8471" lon="2.44452">
        <ele>123.40000152588</ele>
        <time>2015-10-19T19:09:09Z</time>
      </trkpt>
      <trkpt lat="48.84709" lon="2.44485">
        <ele>118.19999694824</ele>
        <time>2015-10-19T19:09:13Z</time>
      </trkpt>
      <trkpt lat="48.84706" lon="2.44519">
        <ele>111.80000305176</ele>
        <time>2015-10-19T19:09:17Z</time>
      </trkpt>
      <trkpt lat="48.84704" lon="2.44553">
        <ele>107.80000305176</ele>
        <time>2015-10-19T19:09:21Z</time>
      </trkpt>
      <trkpt lat="48.84701" lon="2.44583">
        <ele>105.19999694824</ele>
        <time>2015-10-19T19:09:25Z</time>
      </trkpt>
      <trkpt lat="48.84699" lon="2.44614">
        <ele>104</ele>
        <time>2015-10-19T19:09:29Z</time>
      </trkpt>
      <trkpt lat="48.84697" lon="2.44644">
        <ele>103.19999694824</ele>
        <time>2015-10-19T19:09:33Z</time>
      </trkpt>
      <trkpt lat="48.84696" lon="2.44671">
        <ele>100.59999847412</ele>
        <time>2015-10-19T19:09:37Z</time>
      </trkpt>
      <trkpt lat="48.84692" lon="2.44704">
        <ele>99.800003051758</ele>
        <time>2015-10-19T19:09:42Z</time>
      </trkpt>
      <trkpt lat="48.8469" lon="2.44737">
        <ele>98.400001525879</ele>
        <time>2015-10-19T19:09:47Z</time>
      </trkpt>
      <trkpt lat="48.84688" lon="2.44764">
        <ele>99</ele>
        <time>2015-10-19T19:09:51Z</time>
      </trkpt>
      <trkpt lat="48.84687" lon="2.44778">
        <ele>98.199996948242</ele>
        <time>2015-10-19T19:09:53Z</time>
      </trkpt>
      <trkpt lat="48.84686" lon="2.44811">
        <ele>96.199996948242</ele>
        <time>2015-10-19T19:09:58Z</time>
      </trkpt>
      <trkpt lat="48.84685" lon="2.44824">
        <ele>95.800003051758</ele>
        <time>2015-10-19T19:10:00Z</time>
      </trkpt>
      <trkpt lat="48.84683" lon="2.44857">
        <ele>94</ele>
        <time>2015-10-19T19:10:05Z</time>
      </trkpt>
      <trkpt lat="48.84682" lon="2.44887">
        <ele>94</ele>
        <time>2015-10-19T19:10:09Z</time>
      </trkpt>
      <trkpt lat="48.84679" lon="2.44917">
        <ele>93.599998474121</ele>
        <time>2015-10-19T19:10:13Z</time>
      </trkpt>
      <trkpt lat="48.84675" lon="2.44946">
        <ele>92.599998474121</ele>
        <time>2015-10-19T19:10:17Z</time>
      </trkpt>
      <trkpt lat="48.84672" lon="2.44967">
        <ele>92</ele>
        <time>2015-10-19T19:10:20Z</time>
      </trkpt>
      <trkpt lat="48.84666" lon="2.44996">
        <ele>90.800003051758</ele>
        <time>2015-10-19T19:10:24Z</time>
      </trkpt>
      <trkpt lat="48.84661" lon="2.45024">
        <ele>90.199996948242</ele>
        <time>2015-10-19T19:10:28Z</time>
      </trkpt>
      <trkpt lat="48.84657" lon="2.45055">
        <ele>90.400001525879</ele>
        <time>2015-10-19T19:10:33Z</time>
      </trkpt>
      <trkpt lat="48.84654" lon="2.45076">
        <ele>90</ele>
        <time>2015-10-19T19:10:37Z</time>
      </trkpt>
      <trkpt lat="48.84654" lon="2.45109">
        <ele>82.800003051758</ele>
        <time>2015-10-19T19:10:43Z</time>
      </trkpt>
      <trkpt lat="48.84654" lon="2.45119">
        <ele>81</ele>
        <time>2015-10-19T19:10:45Z</time>
      </trkpt>
      <trkpt lat="48.84653" lon="2.4513">
        <ele>74.800003051758</ele>
        <time>2015-10-19T19:10:49Z</time>
      </trkpt>
      <trkpt lat="48.84648" lon="2.45142">
        <ele>64.599998474121</ele>
        <time>2015-10-19T19:11:19Z</time>
      </trkpt>
      <trkpt lat="48.84664" lon="2.4516">
        <ele>65.199996948242</ele>
        <time>2015-10-19T19:11:27Z</time>
      </trkpt>
      <trkpt lat="48.84682" lon="2.45169">
        <ele>66</ele>
        <time>2015-10-19T19:11:33Z</time>
      </trkpt>
      <trkpt lat="48.84693" lon="2.45177">
        <ele>65.400001525879</ele>
        <time>2015-10-19T19:11:37Z</time>
      </trkpt>
      <trkpt lat="48.8469" lon="2.45194">
        <ele>66.800003051758</ele>
        <time>2015-10-19T19:11:45Z</time>
      </trkpt>
      <trkpt lat="48.84685" lon="2.45217">
        <ele>69</ele>
        <time>2015-10-19T19:11:53Z</time>
      </trkpt>
      <trkpt lat="48.8468" lon="2.45247">
        <ele>70.599998474121</ele>
        <time>2015-10-19T19:12:00Z</time>
      </trkpt>
      <trkpt lat="48.8468" lon="2.45275">
        <ele>72</ele>
        <time>2015-10-19T19:12:05Z</time>
      </trkpt>
      <trkpt lat="48.84683" lon="2.45306">
        <ele>72.599998474121</ele>
        <time>2015-10-19T19:12:11Z</time>
      </trkpt>
      <trkpt lat="48.84683" lon="2.45335">
        <ele>75.599998474121</ele>
        <time>2015-10-19T19:12:16Z</time>
      </trkpt>
      <trkpt lat="48.8468" lon="2.45363">
        <ele>76.800003051758</ele>
        <time>2015-10-19T19:12:20Z</time>
      </trkpt>
      <trkpt lat="48.84676" lon="2.45393">
        <ele>79.800003051758</ele>
        <time>2015-10-19T19:12:25Z</time>
      </trkpt>
      <trkpt lat="48.84669" lon="2.45422">
        <ele>84</ele>
        <time>2015-10-19T19:12:31Z</time>
      </trkpt>
      <trkpt lat="48.84667" lon="2.4545">
        <ele>88.400001525879</ele>
        <time>2015-10-19T19:12:36Z</time>
      </trkpt>
      <trkpt lat="48.84662" lon="2.4548">
        <ele>92.199996948242</ele>
        <time>2015-10-19T19:12:41Z</time>
      </trkpt>
      <trkpt lat="48.84657" lon="2.45506">
        <ele>96.199996948242</ele>
        <time>2015-10-19T19:12:45Z</time>
      </trkpt>
      <trkpt lat="48.8465" lon="2.45535">
        <ele>100</ele>
        <time>2015-10-19T19:12:50Z</time>
      </trkpt>
      <trkpt lat="48.8465" lon="2.45565">
        <ele>89.800003051758</ele>
        <time>2015-10-19T19:12:54Z</time>
      </trkpt>
      <trkpt lat="48.84634" lon="2.45589">
        <ele>89.199996948242</ele>
        <time>2015-10-19T19:12:59Z</time>
      </trkpt>
      <trkpt lat="48.84625" lon="2.45603">
        <ele>89.800003051758</ele>
        <time>2015-10-19T19:13:02Z</time>
      </trkpt>
      <trkpt lat="48.84613" lon="2.45626">
        <ele>92.199996948242</ele>
        <time>2015-10-19T19:13:07Z</time>
      </trkpt>
      <trkpt lat="48.84601" lon="2.45648">
        <ele>94.599998474121</ele>
        <time>2015-10-19T19:13:12Z</time>
      </trkpt>
      <trkpt lat="48.8459" lon="2.45672">
        <ele>98</ele>
        <time>2015-10-19T19:13:18Z</time>
      </trkpt>
      <trkpt lat="48.84583" lon="2.45683">
        <ele>102.40000152588</ele>
        <time>2015-10-19T19:13:25Z</time>
      </trkpt>
      <trkpt lat="48.84584" lon="2.45706">
        <ele>109</ele>
        <time>2015-10-19T19:13:45Z</time>
      </trkpt>
      <trkpt lat="48.84572" lon="2.45721">
        <ele>110.59999847412</ele>
        <time>2015-10-19T19:13:55Z</time>
      </trkpt>
      <trkpt lat="48.84574" lon="2.45721">
        <ele>111.40000152588</ele>
        <time>2015-10-19T19:13:59Z</time>
      </trkpt>
      <trkpt lat="48.84597" lon="2.45708">
        <ele>109.59999847412</ele>
        <time>2015-10-19T19:14:11Z</time>
      </trkpt>
      <trkpt lat="48.846" lon="2.45728">
        <ele>108.19999694824</ele>
        <time>2015-10-19T19:14:49Z</time>
      </trkpt>
      <trkpt lat="48.84591" lon="2.45751">
        <ele>109.40000152588</ele>
        <time>2015-10-19T19:14:54Z</time>
      </trkpt>
      <trkpt lat="48.84579" lon="2.45776">
        <ele>110.80000305176</ele>
        <time>2015-10-19T19:14:59Z</time>
      </trkpt>
      <trkpt lat="48.84567" lon="2.45797">
        <ele>111.59999847412</ele>
        <time>2015-10-19T19:15:03Z</time>
      </trkpt>
      <trkpt lat="48.84555" lon="2.45825">
        <ele>111.19999694824</ele>
        <time>2015-10-19T19:15:08Z</time>
      </trkpt>
      <trkpt lat="48.84545" lon="2.45851">
        <ele>111.40000152588</ele>
        <time>2015-10-19T19:15:13Z</time>
      </trkpt>
      <trkpt lat="48.84531" lon="2.45871">
        <ele>109.59999847412</ele>
        <time>2015-10-19T19:15:17Z</time>
      </trkpt>
      <trkpt lat="48.84522" lon="2.45898">
        <ele>107.19999694824</ele>
        <time>2015-10-19T19:15:23Z</time>
      </trkpt>
      <trkpt lat="48.84517" lon="2.45931">
        <ele>105.40000152588</ele>
        <time>2015-10-19T19:15:29Z</time>
      </trkpt>
      <trkpt lat="48.84513" lon="2.45957">
        <ele>103.19999694824</ele>
        <time>2015-10-19T19:15:34Z</time>
      </trkpt>
      <trkpt lat="48.84508" lon="2.45985">
        <ele>101.40000152588</ele>
        <time>2015-10-19T19:15:40Z</time>
      </trkpt>
      <trkpt lat="48.84503" lon="2.46016">
        <ele>98.199996948242</ele>
        <time>2015-10-19T19:15:46Z</time>
      </trkpt>
      <trkpt lat="48.84493" lon="2.46043">
        <ele>96.599998474121</ele>
        <time>2015-10-19T19:15:52Z</time>
      </trkpt>
      <trkpt lat="48.84482" lon="2.46066">
        <ele>93.599998474121</ele>
        <time>2015-10-19T19:15:57Z</time>
      </trkpt>
      <trkpt lat="48.84475" lon="2.46092">
        <ele>90.599998474121</ele>
        <time>2015-10-19T19:16:02Z</time>
      </trkpt>
      <trkpt lat="48.84468" lon="2.4612">
        <ele>90.800003051758</ele>
        <time>2015-10-19T19:16:07Z</time>
      </trkpt>
      <trkpt lat="48.84463" lon="2.46147">
        <ele>90.199996948242</ele>
        <time>2015-10-19T19:16:12Z</time>
      </trkpt>
      <trkpt lat="48.84458" lon="2.46175">
        <ele>90.599998474121</ele>
        <time>2015-10-19T19:16:17Z</time>
      </trkpt>
      <trkpt lat="48.84452" lon="2.46202">
        <ele>89.800003051758</ele>
        <time>2015-10-19T19:16:22Z</time>
      </trkpt>
      <trkpt lat="48.84447" lon="2.46234">
        <ele>90.599998474121</ele>
        <time>2015-10-19T19:16:28Z</time>
      </trkpt>
      <trkpt lat="48.84444" lon="2.46263">
        <ele>87.800003051758</ele>
        <time>2015-10-19T19:16:33Z</time>
      </trkpt>
      <trkpt lat="48.84439" lon="2.46292">
        <ele>89.199996948242</ele>
        <time>2015-10-19T19:16:38Z</time>
      </trkpt>
      <trkpt lat="48.84433" lon="2.46321">
        <ele>91.199996948242</ele>
        <time>2015-10-19T19:16:43Z</time>
      </trkpt>
      <trkpt lat="48.84427" lon="2.46352">
        <ele>93.199996948242</ele>
        <time>2015-10-19T19:16:48Z</time>
      </trkpt>
      <trkpt lat="48.84419" lon="2.4638">
        <ele>96</ele>
        <time>2015-10-19T19:16:53Z</time>
      </trkpt>
      <trkpt lat="48.84413" lon="2.46411">
        <ele>92.199996948242</ele>
        <time>2015-10-19T19:16:58Z</time>
      </trkpt>
      <trkpt lat="48.84406" lon="2.46442">
        <ele>91.199996948242</ele>
        <time>2015-10-19T19:17:03Z</time>
      </trkpt>
      <trkpt lat="48.84399" lon="2.46473">
        <ele>91</ele>
        <time>2015-10-19T19:17:08Z</time>
      </trkpt>
      <trkpt lat="48.84392" lon="2.46504">
        <ele>91.199996948242</ele>
        <time>2015-10-19T19:17:13Z</time>
      </trkpt>
      <trkpt lat="48.84385" lon="2.46533">
        <ele>91</ele>
        <time>2015-10-19T19:17:18Z</time>
      </trkpt>
      <trkpt lat="48.84379" lon="2.46561">
        <ele>91.199996948242</ele>
        <time>2015-10-19T19:17:23Z</time>
      </trkpt>
      <trkpt lat="48.84377" lon="2.4657">
        <ele>91</ele>
        <time>2015-10-19T19:17:25Z</time>
      </trkpt>
      <trkpt lat="48.84375" lon="2.4658">
        <ele>90.599998474121</ele>
        <time>2015-10-19T19:17:27Z</time>
      </trkpt>
      <trkpt lat="48.8436" lon="2.46582">
        <ele>84.800003051758</ele>
        <time>2015-10-19T19:17:32Z</time>
      </trkpt>
      <trkpt lat="48.84342" lon="2.46572">
        <ele>72.800003051758</ele>
        <time>2015-10-19T19:17:38Z</time>
      </trkpt>
      <trkpt lat="48.8434" lon="2.46574">
        <ele>71.199996948242</ele>
        <time>2015-10-19T19:17:39Z</time>
      </trkpt>
      <trkpt lat="48.84326" lon="2.46597">
        <ele>68.400001525879</ele>
        <time>2015-10-19T19:17:45Z</time>
      </trkpt>
      <trkpt lat="48.84314" lon="2.46621">
        <ele>67.800003051758</ele>
        <time>2015-10-19T19:17:52Z</time>
      </trkpt>
      <trkpt lat="48.84301" lon="2.4664">
        <ele>67.400001525879</ele>
        <time>2015-10-19T19:17:57Z</time>
      </trkpt>
      <trkpt lat="48.84286" lon="2.46663">
        <ele>67.199996948242</ele>
        <time>2015-10-19T19:18:02Z</time>
      </trkpt>
      <trkpt lat="48.84271" lon="2.46684">
        <ele>67.400001525879</ele>
        <time>2015-10-19T19:18:07Z</time>
      </trkpt>
      <trkpt lat="48.84254" lon="2.46704">
        <ele>68.800003051758</ele>
        <time>2015-10-19T19:18:12Z</time>
      </trkpt>
      <trkpt lat="48.84236" lon="2.46724">
        <ele>73.800003051758</ele>
        <time>2015-10-19T19:18:17Z</time>
      </trkpt>
      <trkpt lat="48.84221" lon="2.4674">
        <ele>76.599998474121</ele>
        <time>2015-10-19T19:18:22Z</time>
      </trkpt>
      <trkpt lat="48.84206" lon="2.46758">
        <ele>79.599998474121</ele>
        <time>2015-10-19T19:18:27Z</time>
      </trkpt>
      <trkpt lat="48.84188" lon="2.46779">
        <ele>82</ele>
        <time>2015-10-19T19:18:32Z</time>
      </trkpt>
      <trkpt lat="48.84172" lon="2.46794">
        <ele>83.800003051758</ele>
        <time>2015-10-19T19:18:36Z</time>
      </trkpt>
      <trkpt lat="48.84156" lon="2.46809">
        <ele>84.800003051758</ele>
        <time>2015-10-19T19:18:40Z</time>
      </trkpt>
      <trkpt lat="48.8414" lon="2.46824">
        <ele>85.400001525879</ele>
        <time>2015-10-19T19:18:44Z</time>
      </trkpt>
      <trkpt lat="48.84122" lon="2.46839">
        <ele>86.199996948242</ele>
        <time>2015-10-19T19:18:48Z</time>
      </trkpt>
      <trkpt lat="48.84103" lon="2.46854">
        <ele>86.800003051758</ele>
        <time>2015-10-19T19:18:53Z</time>
      </trkpt>
      <trkpt lat="48.84096" lon="2.46858">
        <ele>86.599998474121</ele>
        <time>2015-10-19T19:18:55Z</time>
      </trkpt>
      <trkpt lat="48.84082" lon="2.46869">
        <ele>87</ele>
        <time>2015-10-19T19:18:59Z</time>
      </trkpt>
      <trkpt lat="48.84063" lon="2.46884">
        <ele>86.400001525879</ele>
        <time>2015-10-19T19:19:03Z</time>
      </trkpt>
      <trkpt lat="48.84045" lon="2.469">
        <ele>86.199996948242</ele>
        <time>2015-10-19T19:19:07Z</time>
      </trkpt>
      <trkpt lat="48.84028" lon="2.46916">
        <ele>86.400001525879</ele>
        <time>2015-10-19T19:19:11Z</time>
      </trkpt>
      <trkpt lat="48.84015" lon="2.46928">
        <ele>86.599998474121</ele>
        <time>2015-10-19T19:19:14Z</time>
      </trkpt>
      <trkpt lat="48.83999" lon="2.46943">
        <ele>86.800003051758</ele>
        <time>2015-10-19T19:19:18Z</time>
      </trkpt>
      <trkpt lat="48.83982" lon="2.46963">
        <ele>80.199996948242</ele>
        <time>2015-10-19T19:19:22Z</time>
      </trkpt>
      <trkpt lat="48.83965" lon="2.46979">
        <ele>79.800003051758</ele>
        <time>2015-10-19T19:19:26Z</time>
      </trkpt>
      <trkpt lat="48.8395" lon="2.46995">
        <ele>76.400001525879</ele>
        <time>2015-10-19T19:19:30Z</time>
      </trkpt>
      <trkpt lat="48.83931" lon="2.47012">
        <ele>76.800003051758</ele>
        <time>2015-10-19T19:19:35Z</time>
      </trkpt>
      <trkpt lat="48.83911" lon="2.47027">
        <ele>77.400001525879</ele>
        <time>2015-10-19T19:19:40Z</time>
      </trkpt>
      <trkpt lat="48.83895" lon="2.4704">
        <ele>78.199996948242</ele>
        <time>2015-10-19T19:19:44Z</time>
      </trkpt>
      <trkpt lat="48.83876" lon="2.47057">
        <ele>77.800003051758</ele>
        <time>2015-10-19T19:19:49Z</time>
      </trkpt>
      <trkpt lat="48.83862" lon="2.4707">
        <ele>78</ele>
        <time>2015-10-19T19:19:53Z</time>
      </trkpt>
      <trkpt lat="48.83843" lon="2.47089">
        <ele>78.199996948242</ele>
        <time>2015-10-19T19:19:57Z</time>
      </trkpt>
      <trkpt lat="48.83825" lon="2.47106">
        <ele>78.199996948242</ele>
        <time>2015-10-19T19:20:01Z</time>
      </trkpt>
      <trkpt lat="48.83807" lon="2.47124">
        <ele>79</ele>
        <time>2015-10-19T19:20:06Z</time>
      </trkpt>
      <trkpt lat="48.83803" lon="2.47127">
        <ele>79.199996948242</ele>
        <time>2015-10-19T19:20:07Z</time>
      </trkpt>
      <trkpt lat="48.83783" lon="2.47143">
        <ele>78</ele>
        <time>2015-10-19T19:20:12Z</time>
      </trkpt>
      <trkpt lat="48.83776" lon="2.47149">
        <ele>77.400001525879</ele>
        <time>2015-10-19T19:20:14Z</time>
      </trkpt>
      <trkpt lat="48.83759" lon="2.47166">
        <ele>73.599998474121</ele>
        <time>2015-10-19T19:20:19Z</time>
      </trkpt>
      <trkpt lat="48.83756" lon="2.47169">
        <ele>73.400001525879</ele>
        <time>2015-10-19T19:20:20Z</time>
      </trkpt>
      <trkpt lat="48.83739" lon="2.47181">
        <ele>74.599998474121</ele>
        <time>2015-10-19T19:20:25Z</time>
      </trkpt>
      <trkpt lat="48.83736" lon="2.47184">
        <ele>74.599998474121</ele>
        <time>2015-10-19T19:20:26Z</time>
      </trkpt>
      <trkpt lat="48.83719" lon="2.47199">
        <ele>75.199996948242</ele>
        <time>2015-10-19T19:20:31Z</time>
      </trkpt>
      <trkpt lat="48.83701" lon="2.47213">
        <ele>74.800003051758</ele>
        <time>2015-10-19T19:20:36Z</time>
      </trkpt>
      <trkpt lat="48.83683" lon="2.4723">
        <ele>75.800003051758</ele>
        <time>2015-10-19T19:20:41Z</time>
      </trkpt>
      <trkpt lat="48.83666" lon="2.47246">
        <ele>76.599998474121</ele>
        <time>2015-10-19T19:20:46Z</time>
      </trkpt>
      <trkpt lat="48.83648" lon="2.47259">
        <ele>78.199996948242</ele>
        <time>2015-10-19T19:20:51Z</time>
      </trkpt>
      <trkpt lat="48.83631" lon="2.4727">
        <ele>79.800003051758</ele>
        <time>2015-10-19T19:20:56Z</time>
      </trkpt>
      <trkpt lat="48.83621" lon="2.47278">
        <ele>81</ele>
        <time>2015-10-19T19:20:59Z</time>
      </trkpt>
      <trkpt lat="48.83609" lon="2.4729">
        <ele>79.199996948242</ele>
        <time>2015-10-19T19:21:03Z</time>
      </trkpt>
      <trkpt lat="48.83595" lon="2.47305">
        <ele>80.400001525879</ele>
        <time>2015-10-19T19:21:08Z</time>
      </trkpt>
      <trkpt lat="48.83589" lon="2.47309">
        <ele>80.800003051758</ele>
        <time>2015-10-19T19:21:10Z</time>
      </trkpt>
      <trkpt lat="48.83573" lon="2.47326">
        <ele>78.800003051758</ele>
        <time>2015-10-19T19:21:19Z</time>
      </trkpt>
      <trkpt lat="48.83564" lon="2.47339">
        <ele>76.199996948242</ele>
        <time>2015-10-19T19:21:25Z</time>
      </trkpt>
      <trkpt lat="48.8356" lon="2.47367">
        <ele>76.199996948242</ele>
        <time>2015-10-19T19:21:36Z</time>
      </trkpt>
      <trkpt lat="48.83555" lon="2.47361">
        <ele>76.599998474121</ele>
        <time>2015-10-19T19:21:42Z</time>
      </trkpt>
      <trkpt lat="48.83536" lon="2.47349">
        <ele>77.400001525879</ele>
        <time>2015-10-19T19:21:48Z</time>
      </trkpt>
      <trkpt lat="48.83515" lon="2.47341">
        <ele>76.800003051758</ele>
        <time>2015-10-19T19:21:54Z</time>
      </trkpt>
      <trkpt lat="48.83496" lon="2.47337">
        <ele>76.199996948242</ele>
        <time>2015-10-19T19:21:59Z</time>
      </trkpt>
      <trkpt lat="48.83475" lon="2.47341">
        <ele>76.199996948242</ele>
        <time>2015-10-19T19:22:05Z</time>
      </trkpt>
      <trkpt lat="48.83457" lon="2.47348">
        <ele>77.199996948242</ele>
        <time>2015-10-19T19:22:10Z</time>
      </trkpt>
      <trkpt lat="48.83438" lon="2.47358">
        <ele>79.400001525879</ele>
        <time>2015-10-19T19:22:16Z</time>
      </trkpt>
      <trkpt lat="48.83419" lon="2.47368">
        <ele>78</ele>
        <time>2015-10-19T19:22:21Z</time>
      </trkpt>
      <trkpt lat="48.83402" lon="2.47382">
        <ele>75</ele>
        <time>2015-10-19T19:22:28Z</time>
      </trkpt>
      <trkpt lat="48.83385" lon="2.47402">
        <ele>72.800003051758</ele>
        <time>2015-10-19T19:22:33Z</time>
      </trkpt>
      <trkpt lat="48.8337" lon="2.47425">
        <ele>71.599998474121</ele>
        <time>2015-10-19T19:22:39Z</time>
      </trkpt>
      <trkpt lat="48.83358" lon="2.47448">
        <ele>71</ele>
        <time>2015-10-19T19:22:45Z</time>
      </trkpt>
      <trkpt lat="48.83346" lon="2.47471">
        <ele>67</ele>
        <time>2015-10-19T19:22:50Z</time>
      </trkpt>
      <trkpt lat="48.83338" lon="2.475">
        <ele>56.599998474121</ele>
        <time>2015-10-19T19:22:55Z</time>
      </trkpt>
      <trkpt lat="48.83332" lon="2.47531">
        <ele>51.599998474121</ele>
        <time>2015-10-19T19:23:02Z</time>
      </trkpt>
      <trkpt lat="48.8332" lon="2.4756">
        <ele>48.400001525879</ele>
        <time>2015-10-19T19:23:07Z</time>
      </trkpt>
      <trkpt lat="48.83314" lon="2.47586">
        <ele>43.79999923706</ele>
        <time>2015-10-19T19:23:11Z</time>
      </trkpt>
      <trkpt lat="48.83312" lon="2.47614">
        <ele>39.79999923706</ele>
        <time>2015-10-19T19:23:15Z</time>
      </trkpt>
      <trkpt lat="48.83311" lon="2.47648">
        <ele>36.79999923706</ele>
        <time>2015-10-19T19:23:20Z</time>
      </trkpt>
      <trkpt lat="48.83308" lon="2.47678">
        <ele>36.599998474121</ele>
        <time>2015-10-19T19:23:25Z</time>
      </trkpt>
      <trkpt lat="48.83289" lon="2.47693">
        <ele>34.79999923706</ele>
        <time>2015-10-19T19:23:30Z</time>
      </trkpt>
      <trkpt lat="48.83268" lon="2.47693">
        <ele>33.400001525879</ele>
        <time>2015-10-19T19:23:35Z</time>
      </trkpt>
      <trkpt lat="48.83249" lon="2.4769">
        <ele>32.599998474121</ele>
        <time>2015-10-19T19:23:41Z</time>
      </trkpt>
      <trkpt lat="48.83243" lon="2.47692">
        <ele>31</ele>
        <time>2015-10-19T19:23:44Z</time>
      </trkpt>
      <trkpt lat="48.83252" lon="2.47701">
        <ele>32.79999923706</ele>
        <time>2015-10-19T19:24:24Z</time>
      </trkpt>
      <trkpt lat="48.83244" lon="2.47687">
        <ele>35</ele>
        <time>2015-10-19T19:25:20Z</time>
      </trkpt>
      <trkpt lat="48.8323" lon="2.4767">
        <ele>34</ele>
        <time>2015-10-19T19:25:31Z</time>
      </trkpt>
      <trkpt lat="48.83214" lon="2.47653">
        <ele>32.599998474121</ele>
        <time>2015-10-19T19:25:37Z</time>
      </trkpt>
      <trkpt lat="48.83199" lon="2.4764">
        <ele>31</ele>
        <time>2015-10-19T19:25:42Z</time>
      </trkpt>
      <trkpt lat="48.83178" lon="2.47625">
        <ele>30.39999961853</ele>
        <time>2015-10-19T19:25:47Z</time>
      </trkpt>
      <trkpt lat="48.83174" lon="2.47621">
        <ele>30.39999961853</ele>
        <time>2015-10-19T19:25:48Z</time>
      </trkpt>
      <trkpt lat="48.83158" lon="2.47605">
        <ele>29.39999961853</ele>
        <time>2015-10-19T19:25:52Z</time>
      </trkpt>
      <trkpt lat="48.83142" lon="2.47589">
        <ele>27.60000038147</ele>
        <time>2015-10-19T19:25:56Z</time>
      </trkpt>
      <trkpt lat="48.8313" lon="2.47567">
        <ele>27.39999961853</ele>
        <time>2015-10-19T19:26:00Z</time>
      </trkpt>
      <trkpt lat="48.83118" lon="2.47541">
        <ele>27</ele>
        <time>2015-10-19T19:26:05Z</time>
      </trkpt>
      <trkpt lat="48.83106" lon="2.47516">
        <ele>26.799999237061</ele>
        <time>2015-10-19T19:26:09Z</time>
      </trkpt>
      <trkpt lat="48.83104" lon="2.47508">
        <ele>27</ele>
        <time>2015-10-19T19:26:10Z</time>
      </trkpt>
      <trkpt lat="48.83096" lon="2.47479">
        <ele>26.799999237061</ele>
        <time>2015-10-19T19:26:14Z</time>
      </trkpt>
      <trkpt lat="48.83087" lon="2.47455">
        <ele>26.60000038147</ele>
        <time>2015-10-19T19:26:18Z</time>
      </trkpt>
      <trkpt lat="48.83075" lon="2.47432">
        <ele>25.60000038147</ele>
        <time>2015-10-19T19:26:23Z</time>
      </trkpt>
      <trkpt lat="48.83071" lon="2.47422">
        <ele>25.60000038147</ele>
        <time>2015-10-19T19:26:25Z</time>
      </trkpt>
      <trkpt lat="48.83066" lon="2.47412">
        <ele>25.39999961853</ele>
        <time>2015-10-19T19:26:27Z</time>
      </trkpt>
      <trkpt lat="48.83056" lon="2.47384">
        <ele>25.200000762939</ele>
        <time>2015-10-19T19:26:32Z</time>
      </trkpt>
      <trkpt lat="48.83044" lon="2.47359">
        <ele>23.200000762939</ele>
        <time>2015-10-19T19:26:37Z</time>
      </trkpt>
      <trkpt lat="48.8304" lon="2.47348">
        <ele>22.799999237061</ele>
        <time>2015-10-19T19:26:39Z</time>
      </trkpt>
      <trkpt lat="48.83036" lon="2.47337">
        <ele>22.200000762939</ele>
        <time>2015-10-19T19:26:41Z</time>
      </trkpt>
      <trkpt lat="48.83033" lon="2.47326">
        <ele>22.60000038147</ele>
        <time>2015-10-19T19:26:43Z</time>
      </trkpt>
      <trkpt lat="48.83028" lon="2.4731">
        <ele>23</ele>
        <time>2015-10-19T19:26:46Z</time>
      </trkpt>
      <trkpt lat="48.83017" lon="2.47285">
        <ele>24.60000038147</ele>
        <time>2015-10-19T19:26:51Z</time>
      </trkpt>
      <trkpt lat="48.83015" lon="2.4728">
        <ele>24.799999237061</ele>
        <time>2015-10-19T19:26:52Z</time>
      </trkpt>
      <trkpt lat="48.83004" lon="2.47252">
        <ele>25.799999237061</ele>
        <time>2015-10-19T19:26:57Z</time>
      </trkpt>
      <trkpt lat="48.82994" lon="2.47224">
        <ele>27</ele>
        <time>2015-10-19T19:27:02Z</time>
      </trkpt>
      <trkpt lat="48.82981" lon="2.47198">
        <ele>27.60000038147</ele>
        <time>2015-10-19T19:27:07Z</time>
      </trkpt>
      <trkpt lat="48.82972" lon="2.47166">
        <ele>27.200000762939</ele>
        <time>2015-10-19T19:27:12Z</time>
      </trkpt>
      <trkpt lat="48.8297" lon="2.47161">
        <ele>27.200000762939</ele>
        <time>2015-10-19T19:27:13Z</time>
      </trkpt>
      <trkpt lat="48.8296" lon="2.47148">
        <ele>28</ele>
        <time>2015-10-19T19:27:16Z</time>
      </trkpt>
      <trkpt lat="48.8295" lon="2.47137">
        <ele>28.200000762939</ele>
        <time>2015-10-19T19:27:19Z</time>
      </trkpt>
      <trkpt lat="48.82932" lon="2.47117">
        <ele>29.200000762939</ele>
        <time>2015-10-19T19:27:24Z</time>
      </trkpt>
      <trkpt lat="48.82926" lon="2.47109">
        <ele>29.200000762939</ele>
        <time>2015-10-19T19:27:26Z</time>
      </trkpt>
      <trkpt lat="48.82911" lon="2.47087">
        <ele>29</ele>
        <time>2015-10-19T19:27:31Z</time>
      </trkpt>
      <trkpt lat="48.82909" lon="2.47083">
        <ele>29.200000762939</ele>
        <time>2015-10-19T19:27:32Z</time>
      </trkpt>
      <trkpt lat="48.82896" lon="2.47067">
        <ele>28.39999961853</ele>
        <time>2015-10-19T19:27:36Z</time>
      </trkpt>
      <trkpt lat="48.82887" lon="2.47052">
        <ele>28</ele>
        <time>2015-10-19T19:27:39Z</time>
      </trkpt>
      <trkpt lat="48.82872" lon="2.4703">
        <ele>26.60000038147</ele>
        <time>2015-10-19T19:27:44Z</time>
      </trkpt>
      <trkpt lat="48.8286" lon="2.47009">
        <ele>25.799999237061</ele>
        <time>2015-10-19T19:27:48Z</time>
      </trkpt>
      <trkpt lat="48.82849" lon="2.46996">
        <ele>25.200000762939</ele>
        <time>2015-10-19T19:27:51Z</time>
      </trkpt>
      <trkpt lat="48.8284" lon="2.46983">
        <ele>25</ele>
        <time>2015-10-19T19:27:54Z</time>
      </trkpt>
      <trkpt lat="48.82824" lon="2.46963">
        <ele>24.60000038147</ele>
        <time>2015-10-19T19:27:59Z</time>
      </trkpt>
      <trkpt lat="48.82821" lon="2.46959">
        <ele>24.39999961853</ele>
        <time>2015-10-19T19:28:00Z</time>
      </trkpt>
      <trkpt lat="48.82806" lon="2.46939">
        <ele>24</ele>
        <time>2015-10-19T19:28:05Z</time>
      </trkpt>
      <trkpt lat="48.828" lon="2.46932">
        <ele>24</ele>
        <time>2015-10-19T19:28:07Z</time>
      </trkpt>
      <trkpt lat="48.82789" lon="2.46922">
        <ele>23.799999237061</ele>
        <time>2015-10-19T19:28:11Z</time>
      </trkpt>
      <trkpt lat="48.82778" lon="2.46909">
        <ele>23.39999961853</ele>
        <time>2015-10-19T19:28:15Z</time>
      </trkpt>
      <trkpt lat="48.82765" lon="2.46893">
        <ele>23</ele>
        <time>2015-10-19T19:28:19Z</time>
      </trkpt>
      <trkpt lat="48.82749" lon="2.4687">
        <ele>22.799999237061</ele>
        <time>2015-10-19T19:28:24Z</time>
      </trkpt>
      <trkpt lat="48.82744" lon="2.46861">
        <ele>22.39999961853</ele>
        <time>2015-10-19T19:28:26Z</time>
      </trkpt>
      <trkpt lat="48.82731" lon="2.46843">
        <ele>21.799999237061</ele>
        <time>2015-10-19T19:28:31Z</time>
      </trkpt>
      <trkpt lat="48.82718" lon="2.46822">
        <ele>20.60000038147</ele>
        <time>2015-10-19T19:28:37Z</time>
      </trkpt>
      <trkpt lat="48.82689" lon="2.46797">
        <ele>20</ele>
        <time>2015-10-19T19:28:45Z</time>
      </trkpt>
      <trkpt lat="48.8267" lon="2.46792">
        <ele>21.200000762939</ele>
        <time>2015-10-19T19:28:49Z</time>
      </trkpt>
      <trkpt lat="48.82652" lon="2.46782">
        <ele>21.39999961853</ele>
        <time>2015-10-19T19:28:53Z</time>
      </trkpt>
      <trkpt lat="48.82635" lon="2.46775">
        <ele>22.60000038147</ele>
        <time>2015-10-19T19:28:57Z</time>
      </trkpt>
      <trkpt lat="48.82613" lon="2.46766">
        <ele>26.200000762939</ele>
        <time>2015-10-19T19:29:02Z</time>
      </trkpt>
      <trkpt lat="48.82592" lon="2.46758">
        <ele>28</ele>
        <time>2015-10-19T19:29:07Z</time>
      </trkpt>
      <trkpt lat="48.82572" lon="2.46752">
        <ele>27.39999961853</ele>
        <time>2015-10-19T19:29:12Z</time>
      </trkpt>
      <trkpt lat="48.8256" lon="2.46748">
        <ele>28.200000762939</ele>
        <time>2015-10-19T19:29:15Z</time>
      </trkpt>
      <trkpt lat="48.82539" lon="2.46745">
        <ele>28.799999237061</ele>
        <time>2015-10-19T19:29:20Z</time>
      </trkpt>
      <trkpt lat="48.82535" lon="2.46744">
        <ele>28.60000038147</ele>
        <time>2015-10-19T19:29:21Z</time>
      </trkpt>
      <trkpt lat="48.82522" lon="2.46741">
        <ele>28.39999961853</ele>
        <time>2015-10-19T19:29:24Z</time>
      </trkpt>
      <trkpt lat="48.82514" lon="2.46737">
        <ele>27.799999237061</ele>
        <time>2015-10-19T19:29:26Z</time>
      </trkpt>
      <trkpt lat="48.82496" lon="2.46731">
        <ele>26.39999961853</ele>
        <time>2015-10-19T19:29:30Z</time>
      </trkpt>
      <trkpt lat="48.82479" lon="2.46724">
        <ele>25.799999237061</ele>
        <time>2015-10-19T19:29:34Z</time>
      </trkpt>
      <trkpt lat="48.8246" lon="2.46713">
        <ele>25.200000762939</ele>
        <time>2015-10-19T19:29:39Z</time>
      </trkpt>
      <trkpt lat="48.82452" lon="2.46707">
        <ele>24.799999237061</ele>
        <time>2015-10-19T19:29:41Z</time>
      </trkpt>
      <trkpt lat="48.82432" lon="2.46694">
        <ele>24.200000762939</ele>
        <time>2015-10-19T19:29:46Z</time>
      </trkpt>
      <trkpt lat="48.82428" lon="2.46692">
        <ele>23.799999237061</ele>
        <time>2015-10-19T19:29:47Z</time>
      </trkpt>
      <trkpt lat="48.82412" lon="2.46684">
        <ele>23.200000762939</ele>
        <time>2015-10-19T19:29:51Z</time>
      </trkpt>
      <trkpt lat="48.82397" lon="2.46678">
        <ele>22.200000762939</ele>
        <time>2015-10-19T19:29:55Z</time>
      </trkpt>
      <trkpt lat="48.82379" lon="2.46672">
        <ele>23.200000762939</ele>
        <time>2015-10-19T19:29:59Z</time>
      </trkpt>
      <trkpt lat="48.82362" lon="2.46667">
        <ele>24.39999961853</ele>
        <time>2015-10-19T19:30:03Z</time>
      </trkpt>
      <trkpt lat="48.82347" lon="2.46666">
        <ele>24.200000762939</ele>
        <time>2015-10-19T19:30:06Z</time>
      </trkpt>
      <trkpt lat="48.82328" lon="2.46665">
        <ele>26.200000762939</ele>
        <time>2015-10-19T19:30:10Z</time>
      </trkpt>
      <trkpt lat="48.82308" lon="2.46664">
        <ele>28</ele>
        <time>2015-10-19T19:30:15Z</time>
      </trkpt>
      <trkpt lat="48.82288" lon="2.46669">
        <ele>30.39999961853</ele>
        <time>2015-10-19T19:30:20Z</time>
      </trkpt>
      <trkpt lat="48.82268" lon="2.46675">
        <ele>32.599998474121</ele>
        <time>2015-10-19T19:30:25Z</time>
      </trkpt>
      <trkpt lat="48.82251" lon="2.46681">
        <ele>33.599998474121</ele>
        <time>2015-10-19T19:30:29Z</time>
      </trkpt>
      <trkpt lat="48.82238" lon="2.46685">
        <ele>36.20000076294</ele>
        <time>2015-10-19T19:30:32Z</time>
      </trkpt>
      <trkpt lat="48.82225" lon="2.46689">
        <ele>38.400001525879</ele>
        <time>2015-10-19T19:30:35Z</time>
      </trkpt>
      <trkpt lat="48.82208" lon="2.46697">
        <ele>40.400001525879</ele>
        <time>2015-10-19T19:30:39Z</time>
      </trkpt>
      <trkpt lat="48.82186" lon="2.46704">
        <ele>43</ele>
        <time>2015-10-19T19:30:44Z</time>
      </trkpt>
      <trkpt lat="48.82165" lon="2.46708">
        <ele>41.599998474121</ele>
        <time>2015-10-19T19:30:48Z</time>
      </trkpt>
      <trkpt lat="48.82154" lon="2.46711">
        <ele>41.20000076294</ele>
        <time>2015-10-19T19:30:50Z</time>
      </trkpt>
      <trkpt lat="48.82134" lon="2.46718">
        <ele>42</ele>
        <time>2015-10-19T19:30:55Z</time>
      </trkpt>
      <trkpt lat="48.82114" lon="2.46726">
        <ele>40.79999923706</ele>
        <time>2015-10-19T19:31:00Z</time>
      </trkpt>
      <trkpt lat="48.8211" lon="2.46728">
        <ele>41.599998474121</ele>
        <time>2015-10-19T19:31:01Z</time>
      </trkpt>
      <trkpt lat="48.82106" lon="2.46729">
        <ele>42</ele>
        <time>2015-10-19T19:31:02Z</time>
      </trkpt>
      <trkpt lat="48.82089" lon="2.46731">
        <ele>43.599998474121</ele>
        <time>2015-10-19T19:31:06Z</time>
      </trkpt>
      <trkpt lat="48.82081" lon="2.46732">
        <ele>43.400001525879</ele>
        <time>2015-10-19T19:31:08Z</time>
      </trkpt>
      <trkpt lat="48.82063" lon="2.4673">
        <ele>41.79999923706</ele>
        <time>2015-10-19T19:31:15Z</time>
      </trkpt>
      <trkpt lat="48.82058" lon="2.4673">
        <ele>42.79999923706</ele>
        <time>2015-10-19T19:31:18Z</time>
      </trkpt>
      <trkpt lat="48.82039" lon="2.46731">
        <ele>45.20000076294</ele>
        <time>2015-10-19T19:31:28Z</time>
      </trkpt>
      <trkpt lat="48.82036" lon="2.46727">
        <ele>45.599998474121</ele>
        <time>2015-10-19T19:31:31Z</time>
      </trkpt>
      <trkpt lat="48.82036" lon="2.4672">
        <ele>43.79999923706</ele>
        <time>2015-10-19T19:32:51Z</time>
      </trkpt>
      <trkpt lat="48.8203" lon="2.46695">
        <ele>43</ele>
        <time>2015-10-19T19:33:18Z</time>
      </trkpt>
      <trkpt lat="48.8203" lon="2.46666">
        <ele>42.79999923706</ele>
        <time>2015-10-19T19:33:23Z</time>
      </trkpt>
      <trkpt lat="48.82029" lon="2.46639">
        <ele>42.599998474121</ele>
        <time>2015-10-19T19:33:27Z</time>
      </trkpt>
      <trkpt lat="48.82029" lon="2.46623">
        <ele>42.79999923706</ele>
        <time>2015-10-19T19:33:29Z</time>
      </trkpt>
      <trkpt lat="48.82026" lon="2.46599">
        <ele>43.20000076294</ele>
        <time>2015-10-19T19:33:32Z</time>
      </trkpt>
      <trkpt lat="48.8202" lon="2.46573">
        <ele>43.599998474121</ele>
        <time>2015-10-19T19:33:35Z</time>
      </trkpt>
      <trkpt lat="48.82018" lon="2.46564">
        <ele>43.79999923706</ele>
        <time>2015-10-19T19:33:36Z</time>
      </trkpt>
      <trkpt lat="48.82012" lon="2.46537">
        <ele>44.20000076294</ele>
        <time>2015-10-19T19:33:39Z</time>
      </trkpt>
      <trkpt lat="48.8201" lon="2.46528">
        <ele>44.599998474121</ele>
        <time>2015-10-19T19:33:40Z</time>
      </trkpt>
      <trkpt lat="48.82004" lon="2.46494">
        <ele>47.599998474121</ele>
        <time>2015-10-19T19:33:44Z</time>
      </trkpt>
      <trkpt lat="48.82003" lon="2.46486">
        <ele>48.599998474121</ele>
        <time>2015-10-19T19:33:45Z</time>
      </trkpt>
      <trkpt lat="48.81999" lon="2.46456">
        <ele>51.599998474121</ele>
        <time>2015-10-19T19:33:49Z</time>
      </trkpt>
      <trkpt lat="48.81994" lon="2.46441">
        <ele>53.20000076294</ele>
        <time>2015-10-19T19:33:54Z</time>
      </trkpt>
      <trkpt lat="48.81996" lon="2.46443">
        <ele>50.20000076294</ele>
        <time>2015-10-19T19:35:42Z</time>
      </trkpt>
      <trkpt lat="48.81979" lon="2.46451">
        <ele>49.79999923706</ele>
        <time>2015-10-19T19:36:03Z</time>
      </trkpt>
      <trkpt lat="48.81963" lon="2.46465">
        <ele>50.400001525879</ele>
        <time>2015-10-19T19:36:10Z</time>
      </trkpt>
      <trkpt lat="48.81948" lon="2.46487">
        <ele>51.400001525879</ele>
        <time>2015-10-19T19:36:16Z</time>
      </trkpt>
      <trkpt lat="48.81933" lon="2.46506">
        <ele>52.599998474121</ele>
        <time>2015-10-19T19:36:21Z</time>
      </trkpt>
      <trkpt lat="48.81918" lon="2.46525">
        <ele>54.79999923706</ele>
        <time>2015-10-19T19:36:26Z</time>
      </trkpt>
      <trkpt lat="48.81902" lon="2.46548">
        <ele>57.20000076294</ele>
        <time>2015-10-19T19:36:31Z</time>
      </trkpt>
      <trkpt lat="48.81887" lon="2.46567">
        <ele>59.79999923706</ele>
        <time>2015-10-19T19:36:35Z</time>
      </trkpt>
      <trkpt lat="48.8187" lon="2.46588">
        <ele>63.400001525879</ele>
        <time>2015-10-19T19:36:40Z</time>
      </trkpt>
      <trkpt lat="48.81856" lon="2.46612">
        <ele>66.400001525879</ele>
        <time>2015-10-19T19:36:45Z</time>
      </trkpt>
      <trkpt lat="48.8184" lon="2.46629">
        <ele>70.199996948242</ele>
        <time>2015-10-19T19:36:49Z</time>
      </trkpt>
      <trkpt lat="48.81824" lon="2.46645">
        <ele>73.199996948242</ele>
        <time>2015-10-19T19:36:53Z</time>
      </trkpt>
      <trkpt lat="48.81807" lon="2.46661">
        <ele>75.400001525879</ele>
        <time>2015-10-19T19:36:57Z</time>
      </trkpt>
      <trkpt lat="48.8179" lon="2.46676">
        <ele>78</ele>
        <time>2015-10-19T19:37:01Z</time>
      </trkpt>
      <trkpt lat="48.81775" lon="2.46692">
        <ele>80.800003051758</ele>
        <time>2015-10-19T19:37:05Z</time>
      </trkpt>
      <trkpt lat="48.81766" lon="2.46704">
        <ele>82.599998474121</ele>
        <time>2015-10-19T19:37:08Z</time>
      </trkpt>
      <trkpt lat="48.81749" lon="2.46711">
        <ele>87.800003051758</ele>
        <time>2015-10-19T19:37:14Z</time>
      </trkpt>
      <trkpt lat="48.81746" lon="2.4671">
        <ele>88</ele>
        <time>2015-10-19T19:37:15Z</time>
      </trkpt>
      <trkpt lat="48.8174" lon="2.46708">
        <ele>88.800003051758</ele>
        <time>2015-10-19T19:37:17Z</time>
      </trkpt>
      <trkpt lat="48.81726" lon="2.46698">
        <ele>88.599998474121</ele>
        <time>2015-10-19T19:37:22Z</time>
      </trkpt>
      <trkpt lat="48.8171" lon="2.46681">
        <ele>88.400001525879</ele>
        <time>2015-10-19T19:37:27Z</time>
      </trkpt>
      <trkpt lat="48.81695" lon="2.46664">
        <ele>87.400001525879</ele>
        <time>2015-10-19T19:37:31Z</time>
      </trkpt>
      <trkpt lat="48.81678" lon="2.46648">
        <ele>86</ele>
        <time>2015-10-19T19:37:35Z</time>
      </trkpt>
      <trkpt lat="48.81664" lon="2.46622">
        <ele>84</ele>
        <time>2015-10-19T19:37:39Z</time>
      </trkpt>
      <trkpt lat="48.81648" lon="2.46598">
        <ele>85</ele>
        <time>2015-10-19T19:37:43Z</time>
      </trkpt>
      <trkpt lat="48.81632" lon="2.46577">
        <ele>86.800003051758</ele>
        <time>2015-10-19T19:37:47Z</time>
      </trkpt>
      <trkpt lat="48.81627" lon="2.46572">
        <ele>87</ele>
        <time>2015-10-19T19:37:48Z</time>
      </trkpt>
      <trkpt lat="48.81609" lon="2.46549">
        <ele>88</ele>
        <time>2015-10-19T19:37:52Z</time>
      </trkpt>
      <trkpt lat="48.81592" lon="2.46523">
        <ele>88.800003051758</ele>
        <time>2015-10-19T19:37:56Z</time>
      </trkpt>
      <trkpt lat="48.81575" lon="2.46498">
        <ele>89.400001525879</ele>
        <time>2015-10-19T19:38:00Z</time>
      </trkpt>
      <trkpt lat="48.81562" lon="2.46478">
        <ele>89.599998474121</ele>
        <time>2015-10-19T19:38:03Z</time>
      </trkpt>
      <trkpt lat="48.81548" lon="2.4646">
        <ele>89.800003051758</ele>
        <time>2015-10-19T19:38:06Z</time>
      </trkpt>
      <trkpt lat="48.81531" lon="2.46435">
        <ele>89.400001525879</ele>
        <time>2015-10-19T19:38:10Z</time>
      </trkpt>
      <trkpt lat="48.81519" lon="2.46415">
        <ele>89.599998474121</ele>
        <time>2015-10-19T19:38:13Z</time>
      </trkpt>
      <trkpt lat="48.81504" lon="2.46386">
        <ele>89.800003051758</ele>
        <time>2015-10-19T19:38:17Z</time>
      </trkpt>
      <trkpt lat="48.81496" lon="2.46374">
        <ele>89.400001525879</ele>
        <time>2015-10-19T19:38:19Z</time>
      </trkpt>
      <trkpt lat="48.81495" lon="2.46349">
        <ele>84.800003051758</ele>
        <time>2015-10-19T19:38:21Z</time>
      </trkpt>
      <trkpt lat="48.81492" lon="2.46316">
        <ele>74.800003051758</ele>
        <time>2015-10-19T19:38:26Z</time>
      </trkpt>
      <trkpt lat="48.81493" lon="2.46312">
        <ele>73.400001525879</ele>
        <time>2015-10-19T19:38:27Z</time>
      </trkpt>
      <trkpt lat="48.81495" lon="2.46304">
        <ele>70.800003051758</ele>
        <time>2015-10-19T19:38:30Z</time>
      </trkpt>
      <trkpt lat="48.81491" lon="2.46293">
        <ele>64.800003051758</ele>
        <time>2015-10-19T19:38:38Z</time>
      </trkpt>
      <trkpt lat="48.8149" lon="2.46291">
        <ele>64.400001525879</ele>
        <time>2015-10-19T19:38:39Z</time>
      </trkpt>
      <trkpt lat="48.81474" lon="2.46276">
        <ele>62.79999923706</ele>
        <time>2015-10-19T19:38:45Z</time>
      </trkpt>
      <trkpt lat="48.81456" lon="2.4626">
        <ele>61.79999923706</ele>
        <time>2015-10-19T19:38:50Z</time>
      </trkpt>
      <trkpt lat="48.81452" lon="2.46232">
        <ele>60.79999923706</ele>
        <time>2015-10-19T19:38:55Z</time>
      </trkpt>
      <trkpt lat="48.81464" lon="2.46207">
        <ele>59.20000076294</ele>
        <time>2015-10-19T19:38:58Z</time>
      </trkpt>
      <trkpt lat="48.81477" lon="2.46183">
        <ele>56.400001525879</ele>
        <time>2015-10-19T19:39:02Z</time>
      </trkpt>
      <trkpt lat="48.8148" lon="2.46178">
        <ele>55.79999923706</ele>
        <time>2015-10-19T19:39:03Z</time>
      </trkpt>
      <trkpt lat="48.81494" lon="2.46152">
        <ele>53.20000076294</ele>
        <time>2015-10-19T19:39:08Z</time>
      </trkpt>
      <trkpt lat="48.81503" lon="2.46142">
        <ele>52.400001525879</ele>
        <time>2015-10-19T19:39:11Z</time>
      </trkpt>
      <trkpt lat="48.8151" lon="2.46129">
        <ele>51.79999923706</ele>
        <time>2015-10-19T19:39:14Z</time>
      </trkpt>
      <trkpt lat="48.81521" lon="2.46115">
        <ele>50.79999923706</ele>
        <time>2015-10-19T19:39:19Z</time>
      </trkpt>
      <trkpt lat="48.81522" lon="2.46115">
        <ele>50.400001525879</ele>
        <time>2015-10-19T19:39:20Z</time>
      </trkpt>
      <trkpt lat="48.81538" lon="2.46099">
        <ele>48.79999923706</ele>
        <time>2015-10-19T19:39:32Z</time>
      </trkpt>
      <trkpt lat="48.81553" lon="2.46078">
        <ele>49.400001525879</ele>
        <time>2015-10-19T19:39:37Z</time>
      </trkpt>
      <trkpt lat="48.81567" lon="2.46053">
        <ele>50.79999923706</ele>
        <time>2015-10-19T19:39:42Z</time>
      </trkpt>
      <trkpt lat="48.81577" lon="2.4603">
        <ele>52.400001525879</ele>
        <time>2015-10-19T19:39:46Z</time>
      </trkpt>
      <trkpt lat="48.81586" lon="2.46005">
        <ele>52</ele>
        <time>2015-10-19T19:39:50Z</time>
      </trkpt>
      <trkpt lat="48.81594" lon="2.45976">
        <ele>49.400001525879</ele>
        <time>2015-10-19T19:39:54Z</time>
      </trkpt>
      <trkpt lat="48.816" lon="2.45955">
        <ele>49</ele>
        <time>2015-10-19T19:39:57Z</time>
      </trkpt>
      <trkpt lat="48.81606" lon="2.45927">
        <ele>49.400001525879</ele>
        <time>2015-10-19T19:40:01Z</time>
      </trkpt>
      <trkpt lat="48.81608" lon="2.4592">
        <ele>49.400001525879</ele>
        <time>2015-10-19T19:40:02Z</time>
      </trkpt>
      <trkpt lat="48.81615" lon="2.45889">
        <ele>49.400001525879</ele>
        <time>2015-10-19T19:40:06Z</time>
      </trkpt>
      <trkpt lat="48.81622" lon="2.45861">
        <ele>49.20000076294</ele>
        <time>2015-10-19T19:40:10Z</time>
      </trkpt>
      <trkpt lat="48.81623" lon="2.4584">
        <ele>47.400001525879</ele>
        <time>2015-10-19T19:40:14Z</time>
      </trkpt>
      <trkpt lat="48.81626" lon="2.45826">
        <ele>47.599998474121</ele>
        <time>2015-10-19T19:40:17Z</time>
      </trkpt>
      <trkpt lat="48.8163" lon="2.45804">
        <ele>48.20000076294</ele>
        <time>2015-10-19T19:40:21Z</time>
      </trkpt>
      <trkpt lat="48.81636" lon="2.45779">
        <ele>50</ele>
        <time>2015-10-19T19:40:25Z</time>
      </trkpt>
      <trkpt lat="48.8164" lon="2.45766">
        <ele>51.20000076294</ele>
        <time>2015-10-19T19:40:27Z</time>
      </trkpt>
      <trkpt lat="48.81648" lon="2.45736">
        <ele>52.20000076294</ele>
        <time>2015-10-19T19:40:31Z</time>
      </trkpt>
      <trkpt lat="48.81654" lon="2.45707">
        <ele>49.79999923706</ele>
        <time>2015-10-19T19:40:35Z</time>
      </trkpt>
      <trkpt lat="48.81657" lon="2.45694">
        <ele>49.20000076294</ele>
        <time>2015-10-19T19:40:37Z</time>
      </trkpt>
      <trkpt lat="48.81663" lon="2.45677">
        <ele>49</ele>
        <time>2015-10-19T19:40:40Z</time>
      </trkpt>
      <trkpt lat="48.81666" lon="2.4566">
        <ele>50.79999923706</ele>
        <time>2015-10-19T19:40:43Z</time>
      </trkpt>
      <trkpt lat="48.81671" lon="2.45637">
        <ele>53</ele>
        <time>2015-10-19T19:40:47Z</time>
      </trkpt>
      <trkpt lat="48.81675" lon="2.45606">
        <ele>43.20000076294</ele>
        <time>2015-10-19T19:40:52Z</time>
      </trkpt>
      <trkpt lat="48.81681" lon="2.45574">
        <ele>41.20000076294</ele>
        <time>2015-10-19T19:40:57Z</time>
      </trkpt>
      <trkpt lat="48.81686" lon="2.45555">
        <ele>40.599998474121</ele>
        <time>2015-10-19T19:41:00Z</time>
      </trkpt>
      <trkpt lat="48.81693" lon="2.45529">
        <ele>39.400001525879</ele>
        <time>2015-10-19T19:41:04Z</time>
      </trkpt>
      <trkpt lat="48.81694" lon="2.45522">
        <ele>39</ele>
        <time>2015-10-19T19:41:05Z</time>
      </trkpt>
      <trkpt lat="48.81699" lon="2.45494">
        <ele>36.400001525879</ele>
        <time>2015-10-19T19:41:09Z</time>
      </trkpt>
      <trkpt lat="48.81703" lon="2.45465">
        <ele>34.20000076294</ele>
        <time>2015-10-19T19:41:15Z</time>
      </trkpt>
      <trkpt lat="48.81703" lon="2.45456">
        <ele>33.20000076294</ele>
        <time>2015-10-19T19:41:18Z</time>
      </trkpt>
      <trkpt lat="48.81695" lon="2.454">
        <ele>30.200000762939</ele>
        <time>2015-10-19T19:41:28Z</time>
      </trkpt>
      <trkpt lat="48.81703" lon="2.45372">
        <ele>29.39999961853</ele>
        <time>2015-10-19T19:41:31Z</time>
      </trkpt>
      <trkpt lat="48.81716" lon="2.45331">
        <ele>28</ele>
        <time>2015-10-19T19:41:35Z</time>
      </trkpt>
      <trkpt lat="48.81726" lon="2.45311">
        <ele>26.60000038147</ele>
        <time>2015-10-19T19:41:40Z</time>
      </trkpt>
      <trkpt lat="48.81731" lon="2.45315">
        <ele>25.60000038147</ele>
        <time>2015-10-19T19:41:44Z</time>
      </trkpt>
      <trkpt lat="48.81736" lon="2.45322">
        <ele>25.39999961853</ele>
        <time>2015-10-19T19:41:48Z</time>
      </trkpt>
      <trkpt lat="48.81741" lon="2.45334">
        <ele>25.39999961853</ele>
        <time>2015-10-19T19:41:55Z</time>
      </trkpt>
      <trkpt lat="48.81754" lon="2.45319">
        <ele>24.39999961853</ele>
        <time>2015-10-19T19:42:18Z</time>
      </trkpt>
      <trkpt lat="48.81764" lon="2.45293">
        <ele>24</ele>
        <time>2015-10-19T19:42:26Z</time>
      </trkpt>
      <trkpt lat="48.81771" lon="2.45264">
        <ele>22.39999961853</ele>
        <time>2015-10-19T19:42:35Z</time>
      </trkpt>
      <trkpt lat="48.81778" lon="2.45238">
        <ele>22.799999237061</ele>
        <time>2015-10-19T19:42:43Z</time>
      </trkpt>
      <trkpt lat="48.81786" lon="2.4521">
        <ele>23.39999961853</ele>
        <time>2015-10-19T19:42:51Z</time>
      </trkpt>
      <trkpt lat="48.81791" lon="2.45182">
        <ele>25</ele>
        <time>2015-10-19T19:42:58Z</time>
      </trkpt>
      <trkpt lat="48.81797" lon="2.45156">
        <ele>27.200000762939</ele>
        <time>2015-10-19T19:43:05Z</time>
      </trkpt>
      <trkpt lat="48.81804" lon="2.4513">
        <ele>30</ele>
        <time>2015-10-19T19:43:12Z</time>
      </trkpt>
      <trkpt lat="48.81812" lon="2.45103">
        <ele>33.599998474121</ele>
        <time>2015-10-19T19:43:19Z</time>
      </trkpt>
      <trkpt lat="48.81817" lon="2.45075">
        <ele>38.599998474121</ele>
        <time>2015-10-19T19:43:27Z</time>
      </trkpt>
      <trkpt lat="48.8182" lon="2.45047">
        <ele>41.79999923706</ele>
        <time>2015-10-19T19:43:37Z</time>
      </trkpt>
      <trkpt lat="48.81825" lon="2.4503">
        <ele>44.400001525879</ele>
        <time>2015-10-19T19:43:46Z</time>
      </trkpt>
      <trkpt lat="48.81829" lon="2.45015">
        <ele>42.79999923706</ele>
        <time>2015-10-19T19:44:43Z</time>
      </trkpt>
      <trkpt lat="48.81833" lon="2.44987">
        <ele>42.400001525879</ele>
        <time>2015-10-19T19:44:55Z</time>
      </trkpt>
      <trkpt lat="48.81834" lon="2.44956">
        <ele>42.599998474121</ele>
        <time>2015-10-19T19:45:05Z</time>
      </trkpt>
      <trkpt lat="48.81837" lon="2.44928">
        <ele>43</ele>
        <time>2015-10-19T19:45:14Z</time>
      </trkpt>
      <trkpt lat="48.81841" lon="2.449">
        <ele>43.599998474121</ele>
        <time>2015-10-19T19:45:22Z</time>
      </trkpt>
      <trkpt lat="48.81842" lon="2.44873">
        <ele>45</ele>
        <time>2015-10-19T19:45:33Z</time>
      </trkpt>
      <trkpt lat="48.81844" lon="2.44842">
        <ele>46.20000076294</ele>
        <time>2015-10-19T19:45:43Z</time>
      </trkpt>
      <trkpt lat="48.81845" lon="2.44814">
        <ele>47.20000076294</ele>
        <time>2015-10-19T19:45:52Z</time>
      </trkpt>
      <trkpt lat="48.81847" lon="2.44785">
        <ele>47.79999923706</ele>
        <time>2015-10-19T19:46:02Z</time>
      </trkpt>
      <trkpt lat="48.81849" lon="2.44757">
        <ele>50.599998474121</ele>
        <time>2015-10-19T19:46:10Z</time>
      </trkpt>
      <trkpt lat="48.81851" lon="2.44728">
        <ele>53.20000076294</ele>
        <time>2015-10-19T19:46:18Z</time>
      </trkpt>
      <trkpt lat="48.81852" lon="2.447">
        <ele>55.79999923706</ele>
        <time>2015-10-19T19:46:26Z</time>
      </trkpt>
      <trkpt lat="48.81854" lon="2.4467">
        <ele>59.20000076294</ele>
        <time>2015-10-19T19:46:35Z</time>
      </trkpt>
      <trkpt lat="48.81859" lon="2.44643">
        <ele>63.400001525879</ele>
        <time>2015-10-19T19:46:45Z</time>
      </trkpt>
      <trkpt lat="48.81862" lon="2.44615">
        <ele>64.800003051758</ele>
        <time>2015-10-19T19:46:55Z</time>
      </trkpt>
      <trkpt lat="48.81869" lon="2.44588">
        <ele>65.400001525879</ele>
        <time>2015-10-19T19:47:05Z</time>
      </trkpt>
      <trkpt lat="48.81866" lon="2.44578">
        <ele>63.79999923706</ele>
        <time>2015-10-19T19:47:13Z</time>
      </trkpt>
      <trkpt lat="48.8187" lon="2.44558">
        <ele>60.79999923706</ele>
        <time>2015-10-19T19:47:43Z</time>
      </trkpt>
      <trkpt lat="48.81869" lon="2.44529">
        <ele>60</ele>
        <time>2015-10-19T19:47:50Z</time>
      </trkpt>
      <trkpt lat="48.81867" lon="2.44502">
        <ele>60</ele>
        <time>2015-10-19T19:47:57Z</time>
      </trkpt>
      <trkpt lat="48.81866" lon="2.44472">
        <ele>60.400001525879</ele>
        <time>2015-10-19T19:48:04Z</time>
      </trkpt>
      <trkpt lat="48.81867" lon="2.44439">
        <ele>61.599998474121</ele>
        <time>2015-10-19T19:48:09Z</time>
      </trkpt>
      <trkpt lat="48.81867" lon="2.44407">
        <ele>61.400001525879</ele>
        <time>2015-10-19T19:48:14Z</time>
      </trkpt>
      <trkpt lat="48.81867" lon="2.44375">
        <ele>61.79999923706</ele>
        <time>2015-10-19T19:48:19Z</time>
      </trkpt>
      <trkpt lat="48.81867" lon="2.44346">
        <ele>62</ele>
        <time>2015-10-19T19:48:24Z</time>
      </trkpt>
      <trkpt lat="48.81864" lon="2.44315">
        <ele>61.400001525879</ele>
        <time>2015-10-19T19:48:30Z</time>
      </trkpt>
      <trkpt lat="48.81865" lon="2.44311">
        <ele>61.400001525879</ele>
        <time>2015-10-19T19:48:31Z</time>
      </trkpt>
      <trkpt lat="48.81876" lon="2.44318">
        <ele>60.79999923706</ele>
        <time>2015-10-19T19:48:39Z</time>
      </trkpt>
      <trkpt lat="48.8189" lon="2.4434">
        <ele>59</ele>
        <time>2015-10-19T19:48:46Z</time>
      </trkpt>
      <trkpt lat="48.81902" lon="2.44361">
        <ele>57.599998474121</ele>
        <time>2015-10-19T19:48:52Z</time>
      </trkpt>
      <trkpt lat="48.81916" lon="2.44381">
        <ele>59.599998474121</ele>
        <time>2015-10-19T19:48:59Z</time>
      </trkpt>
      <trkpt lat="48.81929" lon="2.44398">
        <ele>59.599998474121</ele>
        <time>2015-10-19T19:49:05Z</time>
      </trkpt>
      <trkpt lat="48.81945" lon="2.44414">
        <ele>62.400001525879</ele>
        <time>2015-10-19T19:49:11Z</time>
      </trkpt>
      <trkpt lat="48.81962" lon="2.44431">
        <ele>65.599998474121</ele>
        <time>2015-10-19T19:49:17Z</time>
      </trkpt>
      <trkpt lat="48.81979" lon="2.44448">
        <ele>69.199996948242</ele>
        <time>2015-10-19T19:49:23Z</time>
      </trkpt>
      <trkpt lat="48.81995" lon="2.44467">
        <ele>73.199996948242</ele>
        <time>2015-10-19T19:49:28Z</time>
      </trkpt>
      <trkpt lat="48.82013" lon="2.44486">
        <ele>74.199996948242</ele>
        <time>2015-10-19T19:49:33Z</time>
      </trkpt>
      <trkpt lat="48.82028" lon="2.44501">
        <ele>73.800003051758</ele>
        <time>2015-10-19T19:49:37Z</time>
      </trkpt>
      <trkpt lat="48.82047" lon="2.44517">
        <ele>75.199996948242</ele>
        <time>2015-10-19T19:49:43Z</time>
      </trkpt>
      <trkpt lat="48.82066" lon="2.44533">
        <ele>73.400001525879</ele>
        <time>2015-10-19T19:49:49Z</time>
      </trkpt>
      <trkpt lat="48.82086" lon="2.44547">
        <ele>71.400001525879</ele>
        <time>2015-10-19T19:49:55Z</time>
      </trkpt>
      <trkpt lat="48.82103" lon="2.44558">
        <ele>68.599998474121</ele>
        <time>2015-10-19T19:50:00Z</time>
      </trkpt>
      <trkpt lat="48.82121" lon="2.44568">
        <ele>66.599998474121</ele>
        <time>2015-10-19T19:50:05Z</time>
      </trkpt>
      <trkpt lat="48.8214" lon="2.44574">
        <ele>65.199996948242</ele>
        <time>2015-10-19T19:50:11Z</time>
      </trkpt>
      <trkpt lat="48.8216" lon="2.44582">
        <ele>62.599998474121</ele>
        <time>2015-10-19T19:50:17Z</time>
      </trkpt>
      <trkpt lat="48.82178" lon="2.44586">
        <ele>60.79999923706</ele>
        <time>2015-10-19T19:50:22Z</time>
      </trkpt>
      <trkpt lat="48.822" lon="2.44586">
        <ele>61.400001525879</ele>
        <time>2015-10-19T19:50:28Z</time>
      </trkpt>
      <trkpt lat="48.82219" lon="2.44586">
        <ele>62.20000076294</ele>
        <time>2015-10-19T19:50:33Z</time>
      </trkpt>
      <trkpt lat="48.8224" lon="2.44586">
        <ele>63.20000076294</ele>
        <time>2015-10-19T19:50:39Z</time>
      </trkpt>
      <trkpt lat="48.82262" lon="2.44587">
        <ele>63.20000076294</ele>
        <time>2015-10-19T19:50:45Z</time>
      </trkpt>
      <trkpt lat="48.8228" lon="2.4459">
        <ele>70.400001525879</ele>
        <time>2015-10-19T19:50:50Z</time>
      </trkpt>
      <trkpt lat="48.82299" lon="2.44598">
        <ele>61</ele>
        <time>2015-10-19T19:50:54Z</time>
      </trkpt>
      <trkpt lat="48.82319" lon="2.44603">
        <ele>58.20000076294</ele>
        <time>2015-10-19T19:50:59Z</time>
      </trkpt>
      <trkpt lat="48.8234" lon="2.44605">
        <ele>56.79999923706</ele>
        <time>2015-10-19T19:51:05Z</time>
      </trkpt>
      <trkpt lat="48.82361" lon="2.44606">
        <ele>55.79999923706</ele>
        <time>2015-10-19T19:51:10Z</time>
      </trkpt>
      <trkpt lat="48.82381" lon="2.44609">
        <ele>52.400001525879</ele>
        <time>2015-10-19T19:51:15Z</time>
      </trkpt>
      <trkpt lat="48.824" lon="2.4461">
        <ele>51.20000076294</ele>
        <time>2015-10-19T19:51:20Z</time>
      </trkpt>
      <trkpt lat="48.82419" lon="2.44612">
        <ele>51.20000076294</ele>
        <time>2015-10-19T19:51:24Z</time>
      </trkpt>
      <trkpt lat="48.82439" lon="2.44615">
        <ele>49</ele>
        <time>2015-10-19T19:51:29Z</time>
      </trkpt>
      <trkpt lat="48.8246" lon="2.44615">
        <ele>50.20000076294</ele>
        <time>2015-10-19T19:51:35Z</time>
      </trkpt>
      <trkpt lat="48.8248" lon="2.44611">
        <ele>53.20000076294</ele>
        <time>2015-10-19T19:51:40Z</time>
      </trkpt>
      <trkpt lat="48.825" lon="2.44613">
        <ele>45.599998474121</ele>
        <time>2015-10-19T19:51:44Z</time>
      </trkpt>
      <trkpt lat="48.82519" lon="2.44614">
        <ele>44</ele>
        <time>2015-10-19T19:51:49Z</time>
      </trkpt>
      <trkpt lat="48.82539" lon="2.44614">
        <ele>45.79999923706</ele>
        <time>2015-10-19T19:51:55Z</time>
      </trkpt>
      <trkpt lat="48.82557" lon="2.44616">
        <ele>49.400001525879</ele>
        <time>2015-10-19T19:52:00Z</time>
      </trkpt>
      <trkpt lat="48.82578" lon="2.44616">
        <ele>49.79999923706</ele>
        <time>2015-10-19T19:52:05Z</time>
      </trkpt>
      <trkpt lat="48.82598" lon="2.44616">
        <ele>50.20000076294</ele>
        <time>2015-10-19T19:52:10Z</time>
      </trkpt>
      <trkpt lat="48.82617" lon="2.44614">
        <ele>55.20000076294</ele>
        <time>2015-10-19T19:52:15Z</time>
      </trkpt>
      <trkpt lat="48.82634" lon="2.44611">
        <ele>58</ele>
        <time>2015-10-19T19:52:20Z</time>
      </trkpt>
      <trkpt lat="48.82654" lon="2.44612">
        <ele>62.400001525879</ele>
        <time>2015-10-19T19:52:25Z</time>
      </trkpt>
      <trkpt lat="48.82673" lon="2.44613">
        <ele>64.199996948242</ele>
        <time>2015-10-19T19:52:30Z</time>
      </trkpt>
      <trkpt lat="48.82692" lon="2.44616">
        <ele>65.199996948242</ele>
        <time>2015-10-19T19:52:35Z</time>
      </trkpt>
      <trkpt lat="48.82712" lon="2.44621">
        <ele>66.800003051758</ele>
        <time>2015-10-19T19:52:40Z</time>
      </trkpt>
      <trkpt lat="48.82731" lon="2.44634">
        <ele>58</ele>
        <time>2015-10-19T19:52:44Z</time>
      </trkpt>
      <trkpt lat="48.82749" lon="2.44649">
        <ele>50.400001525879</ele>
        <time>2015-10-19T19:53:00Z</time>
      </trkpt>
      <trkpt lat="48.82748" lon="2.44661">
        <ele>51</ele>
        <time>2015-10-19T19:53:31Z</time>
      </trkpt>
      <trkpt lat="48.82745" lon="2.44689">
        <ele>51</ele>
        <time>2015-10-19T19:53:37Z</time>
      </trkpt>
      <trkpt lat="48.82744" lon="2.44718">
        <ele>51.400001525879</ele>
        <time>2015-10-19T19:53:42Z</time>
      </trkpt>
      <trkpt lat="48.82741" lon="2.44749">
        <ele>51.400001525879</ele>
        <time>2015-10-19T19:53:47Z</time>
      </trkpt>
      <trkpt lat="48.82739" lon="2.44782">
        <ele>52</ele>
        <time>2015-10-19T19:53:52Z</time>
      </trkpt>
      <trkpt lat="48.82737" lon="2.4481">
        <ele>51</ele>
        <time>2015-10-19T19:53:56Z</time>
      </trkpt>
      <trkpt lat="48.82734" lon="2.4484">
        <ele>50.599998474121</ele>
        <time>2015-10-19T19:54:00Z</time>
      </trkpt>
      <trkpt lat="48.82731" lon="2.44871">
        <ele>48.400001525879</ele>
        <time>2015-10-19T19:54:04Z</time>
      </trkpt>
      <trkpt lat="48.8273" lon="2.44907">
        <ele>46.400001525879</ele>
        <time>2015-10-19T19:54:08Z</time>
      </trkpt>
      <trkpt lat="48.8273" lon="2.44942">
        <ele>44.400001525879</ele>
        <time>2015-10-19T19:54:12Z</time>
      </trkpt>
      <trkpt lat="48.82729" lon="2.4496">
        <ele>43.400001525879</ele>
        <time>2015-10-19T19:54:14Z</time>
      </trkpt>
      <trkpt lat="48.82727" lon="2.44988">
        <ele>42.599998474121</ele>
        <time>2015-10-19T19:54:17Z</time>
      </trkpt>
      <trkpt lat="48.82726" lon="2.45016">
        <ele>41.400001525879</ele>
        <time>2015-10-19T19:54:20Z</time>
      </trkpt>
      <trkpt lat="48.82726" lon="2.45042">
        <ele>40.400001525879</ele>
        <time>2015-10-19T19:54:23Z</time>
      </trkpt>
      <trkpt lat="48.82723" lon="2.45076">
        <ele>41</ele>
        <time>2015-10-19T19:54:27Z</time>
      </trkpt>
      <trkpt lat="48.82721" lon="2.4511">
        <ele>40.79999923706</ele>
        <time>2015-10-19T19:54:31Z</time>
      </trkpt>
      <trkpt lat="48.82721" lon="2.45144">
        <ele>41.400001525879</ele>
        <time>2015-10-19T19:54:35Z</time>
      </trkpt>
      <trkpt lat="48.82718" lon="2.45177">
        <ele>41.400001525879</ele>
        <time>2015-10-19T19:54:39Z</time>
      </trkpt>
      <trkpt lat="48.82718" lon="2.4521">
        <ele>42.400001525879</ele>
        <time>2015-10-19T19:54:43Z</time>
      </trkpt>
      <trkpt lat="48.82716" lon="2.45242">
        <ele>43.20000076294</ele>
        <time>2015-10-19T19:54:47Z</time>
      </trkpt>
      <trkpt lat="48.82715" lon="2.45274">
        <ele>45.400001525879</ele>
        <time>2015-10-19T19:54:51Z</time>
      </trkpt>
      <trkpt lat="48.82713" lon="2.45305">
        <ele>48.400001525879</ele>
        <time>2015-10-19T19:54:55Z</time>
      </trkpt>
      <trkpt lat="48.82712" lon="2.45312">
        <ele>48.79999923706</ele>
        <time>2015-10-19T19:54:56Z</time>
      </trkpt>
      <trkpt lat="48.82711" lon="2.4534">
        <ele>51</ele>
        <time>2015-10-19T19:55:00Z</time>
      </trkpt>
      <trkpt lat="48.8271" lon="2.45373">
        <ele>52.79999923706</ele>
        <time>2015-10-19T19:55:05Z</time>
      </trkpt>
      <trkpt lat="48.82709" lon="2.45379">
        <ele>53</ele>
        <time>2015-10-19T19:55:06Z</time>
      </trkpt>
      <trkpt lat="48.82707" lon="2.45405">
        <ele>53.400001525879</ele>
        <time>2015-10-19T19:55:11Z</time>
      </trkpt>
      <trkpt lat="48.827" lon="2.45424">
        <ele>55.20000076294</ele>
        <time>2015-10-19T19:55:17Z</time>
      </trkpt>
      <trkpt lat="48.82692" lon="2.45447">
        <ele>56.599998474121</ele>
        <time>2015-10-19T19:55:23Z</time>
      </trkpt>
      <trkpt lat="48.82693" lon="2.45463">
        <ele>57.20000076294</ele>
        <time>2015-10-19T19:55:29Z</time>
      </trkpt>
      <trkpt lat="48.82695" lon="2.45465">
        <ele>57</ele>
        <time>2015-10-19T19:55:30Z</time>
      </trkpt>
      <trkpt lat="48.82699" lon="2.45469">
        <ele>57</ele>
        <time>2015-10-19T19:55:32Z</time>
      </trkpt>
      <trkpt lat="48.82708" lon="2.45469">
        <ele>56.400001525879</ele>
        <time>2015-10-19T19:55:36Z</time>
      </trkpt>
      <trkpt lat="48.82723" lon="2.45451">
        <ele>56.79999923706</ele>
        <time>2015-10-19T19:55:47Z</time>
      </trkpt>
      <trkpt lat="48.82723" lon="2.45447">
        <ele>55.79999923706</ele>
        <time>2015-10-19T19:55:49Z</time>
      </trkpt>
      <trkpt lat="48.82723" lon="2.45441">
        <ele>54.20000076294</ele>
        <time>2015-10-19T19:55:53Z</time>
      </trkpt>
      <trkpt lat="48.82726" lon="2.45431">
        <ele>53</ele>
        <time>2015-10-19T19:56:02Z</time>
      </trkpt>
      <trkpt lat="48.82728" lon="2.45422">
        <ele>53</ele>
        <time>2015-10-19T19:56:09Z</time>
      </trkpt>
      <trkpt lat="48.82743" lon="2.45402">
        <ele>53.400001525879</ele>
        <time>2015-10-19T19:56:15Z</time>
      </trkpt>
      <trkpt lat="48.82759" lon="2.45382">
        <ele>53.599998474121</ele>
        <time>2015-10-19T19:56:20Z</time>
      </trkpt>
      <trkpt lat="48.82773" lon="2.45363">
        <ele>53.599998474121</ele>
        <time>2015-10-19T19:56:24Z</time>
      </trkpt>
      <trkpt lat="48.8279" lon="2.45341">
        <ele>52.79999923706</ele>
        <time>2015-10-19T19:56:29Z</time>
      </trkpt>
      <trkpt lat="48.82804" lon="2.45322">
        <ele>52.79999923706</ele>
        <time>2015-10-19T19:56:33Z</time>
      </trkpt>
      <trkpt lat="48.82818" lon="2.45304">
        <ele>51.79999923706</ele>
        <time>2015-10-19T19:56:37Z</time>
      </trkpt>
      <trkpt lat="48.82831" lon="2.45285">
        <ele>52.400001525879</ele>
        <time>2015-10-19T19:56:41Z</time>
      </trkpt>
      <trkpt lat="48.82844" lon="2.45265">
        <ele>53.20000076294</ele>
        <time>2015-10-19T19:56:45Z</time>
      </trkpt>
      <trkpt lat="48.82858" lon="2.45243">
        <ele>53.400001525879</ele>
        <time>2015-10-19T19:56:49Z</time>
      </trkpt>
      <trkpt lat="48.82873" lon="2.45224">
        <ele>52.79999923706</ele>
        <time>2015-10-19T19:56:53Z</time>
      </trkpt>
      <trkpt lat="48.82877" lon="2.45219">
        <ele>52.599998474121</ele>
        <time>2015-10-19T19:56:54Z</time>
      </trkpt>
      <trkpt lat="48.82891" lon="2.45198">
        <ele>51.599998474121</ele>
        <time>2015-10-19T19:56:58Z</time>
      </trkpt>
      <trkpt lat="48.82906" lon="2.45177">
        <ele>50.599998474121</ele>
        <time>2015-10-19T19:57:02Z</time>
      </trkpt>
      <trkpt lat="48.8292" lon="2.45158">
        <ele>49.400001525879</ele>
        <time>2015-10-19T19:57:06Z</time>
      </trkpt>
      <trkpt lat="48.82933" lon="2.45138">
        <ele>49</ele>
        <time>2015-10-19T19:57:10Z</time>
      </trkpt>
      <trkpt lat="48.82949" lon="2.4512">
        <ele>47.79999923706</ele>
        <time>2015-10-19T19:57:14Z</time>
      </trkpt>
      <trkpt lat="48.82964" lon="2.451">
        <ele>46.400001525879</ele>
        <time>2015-10-19T19:57:18Z</time>
      </trkpt>
      <trkpt lat="48.82975" lon="2.45086">
        <ele>44.400001525879</ele>
        <time>2015-10-19T19:57:21Z</time>
      </trkpt>
      <trkpt lat="48.8299" lon="2.45069">
        <ele>43</ele>
        <time>2015-10-19T19:57:25Z</time>
      </trkpt>
      <trkpt lat="48.83005" lon="2.45051">
        <ele>42.20000076294</ele>
        <time>2015-10-19T19:57:29Z</time>
      </trkpt>
      <trkpt lat="48.83019" lon="2.45033">
        <ele>40.79999923706</ele>
        <time>2015-10-19T19:57:33Z</time>
      </trkpt>
      <trkpt lat="48.83035" lon="2.45015">
        <ele>39.599998474121</ele>
        <time>2015-10-19T19:57:37Z</time>
      </trkpt>
      <trkpt lat="48.83051" lon="2.44998">
        <ele>38.599998474121</ele>
        <time>2015-10-19T19:57:41Z</time>
      </trkpt>
      <trkpt lat="48.83065" lon="2.44978">
        <ele>38.599998474121</ele>
        <time>2015-10-19T19:57:45Z</time>
      </trkpt>
      <trkpt lat="48.8308" lon="2.44959">
        <ele>38.79999923706</ele>
        <time>2015-10-19T19:57:49Z</time>
      </trkpt>
      <trkpt lat="48.83095" lon="2.44939">
        <ele>38.599998474121</ele>
        <time>2015-10-19T19:57:53Z</time>
      </trkpt>
      <trkpt lat="48.8311" lon="2.4492">
        <ele>38</ele>
        <time>2015-10-19T19:57:57Z</time>
      </trkpt>
      <trkpt lat="48.83124" lon="2.44901">
        <ele>38.20000076294</ele>
        <time>2015-10-19T19:58:01Z</time>
      </trkpt>
      <trkpt lat="48.83139" lon="2.44881">
        <ele>37.400001525879</ele>
        <time>2015-10-19T19:58:05Z</time>
      </trkpt>
      <trkpt lat="48.83155" lon="2.4486">
        <ele>36</ele>
        <time>2015-10-19T19:58:09Z</time>
      </trkpt>
      <trkpt lat="48.83171" lon="2.4484">
        <ele>35</ele>
        <time>2015-10-19T19:58:13Z</time>
      </trkpt>
      <trkpt lat="48.83187" lon="2.44819">
        <ele>34.20000076294</ele>
        <time>2015-10-19T19:58:17Z</time>
      </trkpt>
      <trkpt lat="48.83203" lon="2.44799">
        <ele>33</ele>
        <time>2015-10-19T19:58:21Z</time>
      </trkpt>
      <trkpt lat="48.83218" lon="2.44777">
        <ele>34.599998474121</ele>
        <time>2015-10-19T19:58:25Z</time>
      </trkpt>
      <trkpt lat="48.83233" lon="2.44754">
        <ele>37.20000076294</ele>
        <time>2015-10-19T19:58:29Z</time>
      </trkpt>
      <trkpt lat="48.83249" lon="2.44731">
        <ele>39.20000076294</ele>
        <time>2015-10-19T19:58:33Z</time>
      </trkpt>
      <trkpt lat="48.83265" lon="2.44707">
        <ele>39.79999923706</ele>
        <time>2015-10-19T19:58:37Z</time>
      </trkpt>
      <trkpt lat="48.83273" lon="2.44695">
        <ele>40.20000076294</ele>
        <time>2015-10-19T19:58:39Z</time>
      </trkpt>
      <trkpt lat="48.83288" lon="2.44669">
        <ele>40.400001525879</ele>
        <time>2015-10-19T19:58:43Z</time>
      </trkpt>
      <trkpt lat="48.83304" lon="2.44644">
        <ele>39.79999923706</ele>
        <time>2015-10-19T19:58:47Z</time>
      </trkpt>
      <trkpt lat="48.8332" lon="2.44618">
        <ele>40.20000076294</ele>
        <time>2015-10-19T19:58:51Z</time>
      </trkpt>
      <trkpt lat="48.83336" lon="2.44591">
        <ele>40</ele>
        <time>2015-10-19T19:58:55Z</time>
      </trkpt>
      <trkpt lat="48.83351" lon="2.44566">
        <ele>39.400001525879</ele>
        <time>2015-10-19T19:58:59Z</time>
      </trkpt>
      <trkpt lat="48.83366" lon="2.44544">
        <ele>39.20000076294</ele>
        <time>2015-10-19T19:59:03Z</time>
      </trkpt>
      <trkpt lat="48.83381" lon="2.44523">
        <ele>38.599998474121</ele>
        <time>2015-10-19T19:59:07Z</time>
      </trkpt>
      <trkpt lat="48.83396" lon="2.44502">
        <ele>39.400001525879</ele>
        <time>2015-10-19T19:59:11Z</time>
      </trkpt>
      <trkpt lat="48.83411" lon="2.44483">
        <ele>39</ele>
        <time>2015-10-19T19:59:15Z</time>
      </trkpt>
      <trkpt lat="48.83426" lon="2.44463">
        <ele>39</ele>
        <time>2015-10-19T19:59:19Z</time>
      </trkpt>
      <trkpt lat="48.83442" lon="2.44442">
        <ele>39</ele>
        <time>2015-10-19T19:59:23Z</time>
      </trkpt>
      <trkpt lat="48.83458" lon="2.44423">
        <ele>40</ele>
        <time>2015-10-19T19:59:27Z</time>
      </trkpt>
      <trkpt lat="48.83473" lon="2.44403">
        <ele>40.599998474121</ele>
        <time>2015-10-19T19:59:31Z</time>
      </trkpt>
      <trkpt lat="48.83489" lon="2.44383">
        <ele>40.400001525879</ele>
        <time>2015-10-19T19:59:35Z</time>
      </trkpt>
      <trkpt lat="48.83504" lon="2.44362">
        <ele>41.20000076294</ele>
        <time>2015-10-19T19:59:39Z</time>
      </trkpt>
      <trkpt lat="48.83519" lon="2.44342">
        <ele>42.20000076294</ele>
        <time>2015-10-19T19:59:43Z</time>
      </trkpt>
      <trkpt lat="48.83534" lon="2.44321">
        <ele>42.599998474121</ele>
        <time>2015-10-19T19:59:47Z</time>
      </trkpt>
      <trkpt lat="48.83549" lon="2.443">
        <ele>43</ele>
        <time>2015-10-19T19:59:51Z</time>
      </trkpt>
      <trkpt lat="48.83565" lon="2.4428">
        <ele>43</ele>
        <time>2015-10-19T19:59:55Z</time>
      </trkpt>
      <trkpt lat="48.83581" lon="2.44259">
        <ele>42.79999923706</ele>
        <time>2015-10-19T19:59:59Z</time>
      </trkpt>
      <trkpt lat="48.83597" lon="2.44236">
        <ele>43.599998474121</ele>
        <time>2015-10-19T20:00:03Z</time>
      </trkpt>
      <trkpt lat="48.83613" lon="2.44214">
        <ele>43.79999923706</ele>
        <time>2015-10-19T20:00:07Z</time>
      </trkpt>
      <trkpt lat="48.83629" lon="2.44194">
        <ele>42.599998474121</ele>
        <time>2015-10-19T20:00:11Z</time>
      </trkpt>
      <trkpt lat="48.83645" lon="2.44173">
        <ele>40.79999923706</ele>
        <time>2015-10-19T20:00:15Z</time>
      </trkpt>
      <trkpt lat="48.8366" lon="2.44153">
        <ele>39.400001525879</ele>
        <time>2015-10-19T20:00:19Z</time>
      </trkpt>
      <trkpt lat="48.83675" lon="2.44134">
        <ele>38.400001525879</ele>
        <time>2015-10-19T20:00:23Z</time>
      </trkpt>
      <trkpt lat="48.83691" lon="2.44115">
        <ele>38.599998474121</ele>
        <time>2015-10-19T20:00:27Z</time>
      </trkpt>
      <trkpt lat="48.83706" lon="2.44096">
        <ele>37.599998474121</ele>
        <time>2015-10-19T20:00:31Z</time>
      </trkpt>
      <trkpt lat="48.83721" lon="2.44076">
        <ele>36.400001525879</ele>
        <time>2015-10-19T20:00:35Z</time>
      </trkpt>
      <trkpt lat="48.83732" lon="2.44062">
        <ele>35.79999923706</ele>
        <time>2015-10-19T20:00:38Z</time>
      </trkpt>
      <trkpt lat="48.83748" lon="2.44039">
        <ele>34.400001525879</ele>
        <time>2015-10-19T20:00:43Z</time>
      </trkpt>
      <trkpt lat="48.83764" lon="2.44017">
        <ele>32.79999923706</ele>
        <time>2015-10-19T20:00:48Z</time>
      </trkpt>
      <trkpt lat="48.83779" lon="2.43994">
        <ele>33.20000076294</ele>
        <time>2015-10-19T20:00:53Z</time>
      </trkpt>
      <trkpt lat="48.83796" lon="2.43971">
        <ele>33.400001525879</ele>
        <time>2015-10-19T20:00:58Z</time>
      </trkpt>
      <trkpt lat="48.83802" lon="2.43962">
        <ele>33.599998474121</ele>
        <time>2015-10-19T20:01:00Z</time>
      </trkpt>
      <trkpt lat="48.83812" lon="2.43949">
        <ele>33.79999923706</ele>
        <time>2015-10-19T20:01:03Z</time>
      </trkpt>
      <trkpt lat="48.83824" lon="2.43933">
        <ele>34.599998474121</ele>
        <time>2015-10-19T20:01:07Z</time>
      </trkpt>
      <trkpt lat="48.83839" lon="2.43911">
        <ele>35</ele>
        <time>2015-10-19T20:01:12Z</time>
      </trkpt>
      <trkpt lat="48.83854" lon="2.43891">
        <ele>34.20000076294</ele>
        <time>2015-10-19T20:01:17Z</time>
      </trkpt>
      <trkpt lat="48.83866" lon="2.43875">
        <ele>34</ele>
        <time>2015-10-19T20:01:21Z</time>
      </trkpt>
      <trkpt lat="48.83882" lon="2.43856">
        <ele>33.79999923706</ele>
        <time>2015-10-19T20:01:26Z</time>
      </trkpt>
      <trkpt lat="48.83888" lon="2.43847">
        <ele>34</ele>
        <time>2015-10-19T20:01:28Z</time>
      </trkpt>
      <trkpt lat="48.83903" lon="2.43826">
        <ele>33.599998474121</ele>
        <time>2015-10-19T20:01:33Z</time>
      </trkpt>
      <trkpt lat="48.83918" lon="2.43805">
        <ele>33.400001525879</ele>
        <time>2015-10-19T20:01:38Z</time>
      </trkpt>
      <trkpt lat="48.83933" lon="2.43785">
        <ele>33.599998474121</ele>
        <time>2015-10-19T20:01:43Z</time>
      </trkpt>
      <trkpt lat="48.83948" lon="2.43765">
        <ele>33.599998474121</ele>
        <time>2015-10-19T20:01:48Z</time>
      </trkpt>
      <trkpt lat="48.83963" lon="2.43745">
        <ele>34.599998474121</ele>
        <time>2015-10-19T20:01:53Z</time>
      </trkpt>
      <trkpt lat="48.8397" lon="2.43734">
        <ele>35.79999923706</ele>
        <time>2015-10-19T20:01:56Z</time>
      </trkpt>
      <trkpt lat="48.8398" lon="2.4372">
        <ele>36</ele>
        <time>2015-10-19T20:02:00Z</time>
      </trkpt>
      <trkpt lat="48.83986" lon="2.43713">
        <ele>35.599998474121</ele>
        <time>2015-10-19T20:02:02Z</time>
      </trkpt>
      <trkpt lat="48.83996" lon="2.43702">
        <ele>35.400001525879</ele>
        <time>2015-10-19T20:02:06Z</time>
      </trkpt>
      <trkpt lat="48.84002" lon="2.43693">
        <ele>35.400001525879</ele>
        <time>2015-10-19T20:02:09Z</time>
      </trkpt>
      <trkpt lat="48.84011" lon="2.4368">
        <ele>36</ele>
        <time>2015-10-19T20:02:15Z</time>
      </trkpt>
      <trkpt lat="48.84013" lon="2.43674">
        <ele>36.20000076294</ele>
        <time>2015-10-19T20:02:18Z</time>
      </trkpt>
      <trkpt lat="48.84015" lon="2.43675">
        <ele>37.400001525879</ele>
        <time>2015-10-19T20:02:22Z</time>
      </trkpt>
      <trkpt lat="48.84021" lon="2.43664">
        <ele>41.400001525879</ele>
        <time>2015-10-19T20:03:33Z</time>
      </trkpt>
      <trkpt lat="48.84041" lon="2.43657">
        <ele>41.79999923706</ele>
        <time>2015-10-19T20:03:49Z</time>
      </trkpt>
      <trkpt lat="48.84058" lon="2.43639">
        <ele>43</ele>
        <time>2015-10-19T20:03:56Z</time>
      </trkpt>
      <trkpt lat="48.8407" lon="2.43618">
        <ele>42.599998474121</ele>
        <time>2015-10-19T20:04:02Z</time>
      </trkpt>
      <trkpt lat="48.84076" lon="2.43589">
        <ele>42.400001525879</ele>
        <time>2015-10-19T20:04:08Z</time>
      </trkpt>
      <trkpt lat="48.84079" lon="2.4356">
        <ele>42.599998474121</ele>
        <time>2015-10-19T20:04:13Z</time>
      </trkpt>
      <trkpt lat="48.84082" lon="2.43529">
        <ele>42.599998474121</ele>
        <time>2015-10-19T20:04:18Z</time>
      </trkpt>
      <trkpt lat="48.84084" lon="2.43495">
        <ele>42.20000076294</ele>
        <time>2015-10-19T20:04:23Z</time>
      </trkpt>
      <trkpt lat="48.84086" lon="2.43467">
        <ele>42</ele>
        <time>2015-10-19T20:04:27Z</time>
      </trkpt>
      <trkpt lat="48.84089" lon="2.43436">
        <ele>41.400001525879</ele>
        <time>2015-10-19T20:04:31Z</time>
      </trkpt>
      <trkpt lat="48.84091" lon="2.43404">
        <ele>41.20000076294</ele>
        <time>2015-10-19T20:04:35Z</time>
      </trkpt>
      <trkpt lat="48.84093" lon="2.43373">
        <ele>41</ele>
        <time>2015-10-19T20:04:39Z</time>
      </trkpt>
      <trkpt lat="48.84094" lon="2.43366">
        <ele>40.79999923706</ele>
        <time>2015-10-19T20:04:40Z</time>
      </trkpt>
      <trkpt lat="48.84105" lon="2.43339">
        <ele>40.599998474121</ele>
        <time>2015-10-19T20:04:45Z</time>
      </trkpt>
      <trkpt lat="48.84109" lon="2.43327">
        <ele>40.400001525879</ele>
        <time>2015-10-19T20:04:47Z</time>
      </trkpt>
      <trkpt lat="48.84111" lon="2.43322">
        <ele>40.20000076294</ele>
        <time>2015-10-19T20:04:48Z</time>
      </trkpt>
      <trkpt lat="48.84117" lon="2.43291">
        <ele>39.79999923706</ele>
        <time>2015-10-19T20:04:53Z</time>
      </trkpt>
      <trkpt lat="48.84118" lon="2.43281">
        <ele>40.400001525879</ele>
        <time>2015-10-19T20:04:55Z</time>
      </trkpt>
      <trkpt lat="48.84121" lon="2.4325">
        <ele>39.79999923706</ele>
        <time>2015-10-19T20:05:01Z</time>
      </trkpt>
      <trkpt lat="48.84123" lon="2.43235">
        <ele>39.400001525879</ele>
        <time>2015-10-19T20:05:04Z</time>
      </trkpt>
      <trkpt lat="48.84124" lon="2.43226">
        <ele>39.79999923706</ele>
        <time>2015-10-19T20:05:06Z</time>
      </trkpt>
      <trkpt lat="48.84126" lon="2.43203">
        <ele>40</ele>
        <time>2015-10-19T20:05:11Z</time>
      </trkpt>
      <trkpt lat="48.84128" lon="2.43171">
        <ele>41.400001525879</ele>
        <time>2015-10-19T20:05:17Z</time>
      </trkpt>
      <trkpt lat="48.8413" lon="2.43142">
        <ele>42.79999923706</ele>
        <time>2015-10-19T20:05:22Z</time>
      </trkpt>
      <trkpt lat="48.8413" lon="2.4311">
        <ele>43.400001525879</ele>
        <time>2015-10-19T20:05:27Z</time>
      </trkpt>
      <trkpt lat="48.84133" lon="2.43078">
        <ele>44.20000076294</ele>
        <time>2015-10-19T20:05:32Z</time>
      </trkpt>
      <trkpt lat="48.84136" lon="2.43045">
        <ele>44.400001525879</ele>
        <time>2015-10-19T20:05:37Z</time>
      </trkpt>
      <trkpt lat="48.84137" lon="2.43018">
        <ele>45.400001525879</ele>
        <time>2015-10-19T20:05:41Z</time>
      </trkpt>
      <trkpt lat="48.84141" lon="2.42988">
        <ele>45.400001525879</ele>
        <time>2015-10-19T20:05:45Z</time>
      </trkpt>
      <trkpt lat="48.84148" lon="2.42953">
        <ele>45.599998474121</ele>
        <time>2015-10-19T20:05:49Z</time>
      </trkpt>
      <trkpt lat="48.84151" lon="2.42921">
        <ele>46.20000076294</ele>
        <time>2015-10-19T20:05:53Z</time>
      </trkpt>
      <trkpt lat="48.84152" lon="2.42889">
        <ele>46.79999923706</ele>
        <time>2015-10-19T20:05:57Z</time>
      </trkpt>
      <trkpt lat="48.84155" lon="2.42859">
        <ele>47</ele>
        <time>2015-10-19T20:06:01Z</time>
      </trkpt>
      <trkpt lat="48.84158" lon="2.42832">
        <ele>47.79999923706</ele>
        <time>2015-10-19T20:06:05Z</time>
      </trkpt>
      <trkpt lat="48.84159" lon="2.42814">
        <ele>48.599998474121</ele>
        <time>2015-10-19T20:06:09Z</time>
      </trkpt>
      <trkpt lat="48.84162" lon="2.42788">
        <ele>49.599998474121</ele>
        <time>2015-10-19T20:06:14Z</time>
      </trkpt>
      <trkpt lat="48.84165" lon="2.42762">
        <ele>50.599998474121</ele>
        <time>2015-10-19T20:06:18Z</time>
      </trkpt>
      <trkpt lat="48.84166" lon="2.42748">
        <ele>51.20000076294</ele>
        <time>2015-10-19T20:06:20Z</time>
      </trkpt>
      <trkpt lat="48.84169" lon="2.42728">
        <ele>52.20000076294</ele>
        <time>2015-10-19T20:06:23Z</time>
      </trkpt>
      <trkpt lat="48.84171" lon="2.42701">
        <ele>54.400001525879</ele>
        <time>2015-10-19T20:06:27Z</time>
      </trkpt>
      <trkpt lat="48.84171" lon="2.42693">
        <ele>54.599998474121</ele>
        <time>2015-10-19T20:06:28Z</time>
      </trkpt>
      <trkpt lat="48.84173" lon="2.42659">
        <ele>56.400001525879</ele>
        <time>2015-10-19T20:06:32Z</time>
      </trkpt>
      <trkpt lat="48.84175" lon="2.42634">
        <ele>57.79999923706</ele>
        <time>2015-10-19T20:06:35Z</time>
      </trkpt>
      <trkpt lat="48.84179" lon="2.42604">
        <ele>59.400001525879</ele>
        <time>2015-10-19T20:06:39Z</time>
      </trkpt>
      <trkpt lat="48.84182" lon="2.42573">
        <ele>61.599998474121</ele>
        <time>2015-10-19T20:06:44Z</time>
      </trkpt>
      <trkpt lat="48.84185" lon="2.42548">
        <ele>61</ele>
        <time>2015-10-19T20:06:48Z</time>
      </trkpt>
      <trkpt lat="48.84187" lon="2.42529">
        <ele>59.20000076294</ele>
        <time>2015-10-19T20:06:51Z</time>
      </trkpt>
      <trkpt lat="48.84189" lon="2.42496">
        <ele>57.400001525879</ele>
        <time>2015-10-19T20:06:56Z</time>
      </trkpt>
      <trkpt lat="48.84192" lon="2.42475">
        <ele>55.599998474121</ele>
        <time>2015-10-19T20:06:59Z</time>
      </trkpt>
      <trkpt lat="48.84198" lon="2.42447">
        <ele>53</ele>
        <time>2015-10-19T20:07:03Z</time>
      </trkpt>
      <trkpt lat="48.84199" lon="2.4244">
        <ele>52.20000076294</ele>
        <time>2015-10-19T20:07:04Z</time>
      </trkpt>
      <trkpt lat="48.84207" lon="2.42415">
        <ele>51</ele>
        <time>2015-10-19T20:07:08Z</time>
      </trkpt>
      <trkpt lat="48.84213" lon="2.42404">
        <ele>50.20000076294</ele>
        <time>2015-10-19T20:07:10Z</time>
      </trkpt>
      <trkpt lat="48.84226" lon="2.42388">
        <ele>47</ele>
        <time>2015-10-19T20:07:13Z</time>
      </trkpt>
      <trkpt lat="48.84242" lon="2.42369">
        <ele>44.599998474121</ele>
        <time>2015-10-19T20:07:17Z</time>
      </trkpt>
      <trkpt lat="48.84251" lon="2.4236">
        <ele>44.400001525879</ele>
        <time>2015-10-19T20:07:19Z</time>
      </trkpt>
      <trkpt lat="48.84268" lon="2.42344">
        <ele>42.79999923706</ele>
        <time>2015-10-19T20:07:24Z</time>
      </trkpt>
      <trkpt lat="48.84283" lon="2.42328">
        <ele>43</ele>
        <time>2015-10-19T20:07:29Z</time>
      </trkpt>
      <trkpt lat="48.8429" lon="2.42303">
        <ele>44.20000076294</ele>
        <time>2015-10-19T20:07:36Z</time>
      </trkpt>
      <trkpt lat="48.8429" lon="2.423">
        <ele>44.20000076294</ele>
        <time>2015-10-19T20:07:37Z</time>
      </trkpt>
      <trkpt lat="48.84292" lon="2.42298">
        <ele>44.20000076294</ele>
        <time>2015-10-19T20:07:38Z</time>
      </trkpt>
      <trkpt lat="48.84304" lon="2.42273">
        <ele>43.599998474121</ele>
        <time>2015-10-19T20:07:44Z</time>
      </trkpt>
      <trkpt lat="48.84312" lon="2.42248">
        <ele>42.400001525879</ele>
        <time>2015-10-19T20:07:50Z</time>
      </trkpt>
      <trkpt lat="48.8432" lon="2.42223">
        <ele>42.79999923706</ele>
        <time>2015-10-19T20:07:56Z</time>
      </trkpt>
      <trkpt lat="48.84326" lon="2.42193">
        <ele>44</ele>
        <time>2015-10-19T20:08:03Z</time>
      </trkpt>
      <trkpt lat="48.84329" lon="2.42165">
        <ele>45.20000076294</ele>
        <time>2015-10-19T20:08:09Z</time>
      </trkpt>
      <trkpt lat="48.8433" lon="2.42135">
        <ele>46.20000076294</ele>
        <time>2015-10-19T20:08:15Z</time>
      </trkpt>
      <trkpt lat="48.84334" lon="2.42108">
        <ele>46.79999923706</ele>
        <time>2015-10-19T20:08:21Z</time>
      </trkpt>
      <trkpt lat="48.84337" lon="2.42079">
        <ele>47.79999923706</ele>
        <time>2015-10-19T20:08:27Z</time>
      </trkpt>
      <trkpt lat="48.8434" lon="2.42048">
        <ele>49.599998474121</ele>
        <time>2015-10-19T20:08:33Z</time>
      </trkpt>
      <trkpt lat="48.84343" lon="2.42016">
        <ele>51.79999923706</ele>
        <time>2015-10-19T20:08:39Z</time>
      </trkpt>
      <trkpt lat="48.8435" lon="2.41994">
        <ele>51</ele>
        <time>2015-10-19T20:08:44Z</time>
      </trkpt>
      <trkpt lat="48.8435" lon="2.41966">
        <ele>48</ele>
        <time>2015-10-19T20:08:57Z</time>
      </trkpt>
      <trkpt lat="48.84353" lon="2.41945">
        <ele>48</ele>
        <time>2015-10-19T20:09:00Z</time>
      </trkpt>
      <trkpt lat="48.84355" lon="2.41916">
        <ele>47.599998474121</ele>
        <time>2015-10-19T20:09:04Z</time>
      </trkpt>
      <trkpt lat="48.8436" lon="2.41889">
        <ele>47.599998474121</ele>
        <time>2015-10-19T20:09:08Z</time>
      </trkpt>
      <trkpt lat="48.84363" lon="2.41869">
        <ele>47.599998474121</ele>
        <time>2015-10-19T20:09:11Z</time>
      </trkpt>
      <trkpt lat="48.84371" lon="2.41841">
        <ele>46.599998474121</ele>
        <time>2015-10-19T20:09:15Z</time>
      </trkpt>
      <trkpt lat="48.84371" lon="2.4181">
        <ele>45</ele>
        <time>2015-10-19T20:09:20Z</time>
      </trkpt>
      <trkpt lat="48.84374" lon="2.41781">
        <ele>45.20000076294</ele>
        <time>2015-10-19T20:09:26Z</time>
      </trkpt>
      <trkpt lat="48.84375" lon="2.41778">
        <ele>45.400001525879</ele>
        <time>2015-10-19T20:09:27Z</time>
      </trkpt>
      <trkpt lat="48.84374" lon="2.41748">
        <ele>44</ele>
        <time>2015-10-19T20:09:44Z</time>
      </trkpt>
      <trkpt lat="48.84374" lon="2.41717">
        <ele>44.79999923706</ele>
        <time>2015-10-19T20:09:50Z</time>
      </trkpt>
      <trkpt lat="48.84378" lon="2.41687">
        <ele>47.20000076294</ele>
        <time>2015-10-19T20:09:55Z</time>
      </trkpt>
      <trkpt lat="48.84381" lon="2.41657">
        <ele>50</ele>
        <time>2015-10-19T20:10:00Z</time>
      </trkpt>
      <trkpt lat="48.84384" lon="2.41626">
        <ele>53.79999923706</ele>
        <time>2015-10-19T20:10:05Z</time>
      </trkpt>
      <trkpt lat="48.8439" lon="2.41594">
        <ele>57.79999923706</ele>
        <time>2015-10-19T20:10:10Z</time>
      </trkpt>
      <trkpt lat="48.84394" lon="2.41565">
        <ele>62.79999923706</ele>
        <time>2015-10-19T20:10:15Z</time>
      </trkpt>
      <trkpt lat="48.844" lon="2.41533">
        <ele>68.199996948242</ele>
        <time>2015-10-19T20:10:20Z</time>
      </trkpt>
      <trkpt lat="48.84404" lon="2.41501">
        <ele>70.599998474121</ele>
        <time>2015-10-19T20:10:25Z</time>
      </trkpt>
      <trkpt lat="48.84399" lon="2.41467">
        <ele>62.20000076294</ele>
        <time>2015-10-19T20:10:30Z</time>
      </trkpt>
      <trkpt lat="48.84401" lon="2.4144">
        <ele>59.79999923706</ele>
        <time>2015-10-19T20:10:34Z</time>
      </trkpt>
      <trkpt lat="48.84401" lon="2.41433">
        <ele>59</ele>
        <time>2015-10-19T20:10:35Z</time>
      </trkpt>
      <trkpt lat="48.84401" lon="2.414">
        <ele>55.599998474121</ele>
        <time>2015-10-19T20:10:40Z</time>
      </trkpt>
      <trkpt lat="48.84404" lon="2.41368">
        <ele>53.400001525879</ele>
        <time>2015-10-19T20:10:45Z</time>
      </trkpt>
      <trkpt lat="48.84407" lon="2.41336">
        <ele>51.599998474121</ele>
        <time>2015-10-19T20:10:50Z</time>
      </trkpt>
      <trkpt lat="48.84408" lon="2.41323">
        <ele>50.79999923706</ele>
        <time>2015-10-19T20:10:52Z</time>
      </trkpt>
      <trkpt lat="48.8441" lon="2.41294">
        <ele>49.599998474121</ele>
        <time>2015-10-19T20:10:57Z</time>
      </trkpt>
      <trkpt lat="48.84409" lon="2.41276">
        <ele>48.599998474121</ele>
        <time>2015-10-19T20:11:00Z</time>
      </trkpt>
      <trkpt lat="48.8441" lon="2.41271">
        <ele>48.400001525879</ele>
        <time>2015-10-19T20:11:01Z</time>
      </trkpt>
      <trkpt lat="48.8441" lon="2.41254">
        <ele>47.599998474121</ele>
        <time>2015-10-19T20:11:04Z</time>
      </trkpt>
      <trkpt lat="48.84413" lon="2.41231">
        <ele>47.599998474121</ele>
        <time>2015-10-19T20:11:08Z</time>
      </trkpt>
      <trkpt lat="48.84416" lon="2.41202">
        <ele>47.79999923706</ele>
        <time>2015-10-19T20:11:13Z</time>
      </trkpt>
      <trkpt lat="48.84419" lon="2.41172">
        <ele>48.20000076294</ele>
        <time>2015-10-19T20:11:18Z</time>
      </trkpt>
      <trkpt lat="48.84421" lon="2.41142">
        <ele>48</ele>
        <time>2015-10-19T20:11:23Z</time>
      </trkpt>
      <trkpt lat="48.84424" lon="2.41114">
        <ele>49.599998474121</ele>
        <time>2015-10-19T20:11:28Z</time>
      </trkpt>
      <trkpt lat="48.84428" lon="2.41086">
        <ele>51</ele>
        <time>2015-10-19T20:11:33Z</time>
      </trkpt>
      <trkpt lat="48.84433" lon="2.4106">
        <ele>51.400001525879</ele>
        <time>2015-10-19T20:11:40Z</time>
      </trkpt>
      <trkpt lat="48.84433" lon="2.41058">
        <ele>51</ele>
        <time>2015-10-19T20:11:41Z</time>
      </trkpt>
      <trkpt lat="48.84433" lon="2.41042">
        <ele>49.20000076294</ele>
        <time>2015-10-19T20:11:46Z</time>
      </trkpt>
      <trkpt lat="48.84433" lon="2.41033">
        <ele>48.599998474121</ele>
        <time>2015-10-19T20:11:50Z</time>
      </trkpt>
      <trkpt lat="48.84435" lon="2.41019">
        <ele>48.599998474121</ele>
        <time>2015-10-19T20:11:55Z</time>
      </trkpt>
      <trkpt lat="48.84444" lon="2.40994">
        <ele>49</ele>
        <time>2015-10-19T20:12:02Z</time>
      </trkpt>
      <trkpt lat="48.84448" lon="2.40966">
        <ele>50</ele>
        <time>2015-10-19T20:12:08Z</time>
      </trkpt>
      <trkpt lat="48.84454" lon="2.40937">
        <ele>50.599998474121</ele>
        <time>2015-10-19T20:12:14Z</time>
      </trkpt>
      <trkpt lat="48.84453" lon="2.40905">
        <ele>49.599998474121</ele>
        <time>2015-10-19T20:12:20Z</time>
      </trkpt>
      <trkpt lat="48.84457" lon="2.40878">
        <ele>50</ele>
        <time>2015-10-19T20:12:25Z</time>
      </trkpt>
      <trkpt lat="48.84462" lon="2.40849">
        <ele>51.20000076294</ele>
        <time>2015-10-19T20:12:30Z</time>
      </trkpt>
      <trkpt lat="48.84463" lon="2.40819">
        <ele>50.79999923706</ele>
        <time>2015-10-19T20:12:35Z</time>
      </trkpt>
      <trkpt lat="48.84466" lon="2.40792">
        <ele>51.20000076294</ele>
        <time>2015-10-19T20:12:39Z</time>
      </trkpt>
      <trkpt lat="48.8447" lon="2.40759">
        <ele>51.599998474121</ele>
        <time>2015-10-19T20:12:44Z</time>
      </trkpt>
      <trkpt lat="48.84474" lon="2.40731">
        <ele>52</ele>
        <time>2015-10-19T20:12:48Z</time>
      </trkpt>
      <trkpt lat="48.84478" lon="2.40702">
        <ele>53</ele>
        <time>2015-10-19T20:12:52Z</time>
      </trkpt>
      <trkpt lat="48.84481" lon="2.40673">
        <ele>53.599998474121</ele>
        <time>2015-10-19T20:12:56Z</time>
      </trkpt>
      <trkpt lat="48.84483" lon="2.40646">
        <ele>54</ele>
        <time>2015-10-19T20:13:00Z</time>
      </trkpt>
      <trkpt lat="48.84481" lon="2.40619">
        <ele>56.20000076294</ele>
        <time>2015-10-19T20:13:05Z</time>
      </trkpt>
      <trkpt lat="48.84483" lon="2.40592">
        <ele>55</ele>
        <time>2015-10-19T20:13:09Z</time>
      </trkpt>
      <trkpt lat="48.84483" lon="2.40559">
        <ele>53.599998474121</ele>
        <time>2015-10-19T20:13:14Z</time>
      </trkpt>
      <trkpt lat="48.84484" lon="2.40527">
        <ele>54.20000076294</ele>
        <time>2015-10-19T20:13:19Z</time>
      </trkpt>
      <trkpt lat="48.84483" lon="2.40507">
        <ele>55.599998474121</ele>
        <time>2015-10-19T20:13:23Z</time>
      </trkpt>
      <trkpt lat="48.84487" lon="2.40479">
        <ele>57.20000076294</ele>
        <time>2015-10-19T20:13:28Z</time>
      </trkpt>
      <trkpt lat="48.8449" lon="2.40451">
        <ele>59</ele>
        <time>2015-10-19T20:13:33Z</time>
      </trkpt>
      <trkpt lat="48.84492" lon="2.40423">
        <ele>60.400001525879</ele>
        <time>2015-10-19T20:13:38Z</time>
      </trkpt>
      <trkpt lat="48.84496" lon="2.40394">
        <ele>61</ele>
        <time>2015-10-19T20:13:43Z</time>
      </trkpt>
      <trkpt lat="48.84499" lon="2.40367">
        <ele>63</ele>
        <time>2015-10-19T20:13:48Z</time>
      </trkpt>
      <trkpt lat="48.84504" lon="2.40339">
        <ele>66.199996948242</ele>
        <time>2015-10-19T20:13:53Z</time>
      </trkpt>
      <trkpt lat="48.84509" lon="2.40311">
        <ele>68.400001525879</ele>
        <time>2015-10-19T20:13:58Z</time>
      </trkpt>
      <trkpt lat="48.84514" lon="2.4028">
        <ele>68.800003051758</ele>
        <time>2015-10-19T20:14:04Z</time>
      </trkpt>
      <trkpt lat="48.8452" lon="2.40252">
        <ele>64.800003051758</ele>
        <time>2015-10-19T20:14:11Z</time>
      </trkpt>
      <trkpt lat="48.8452" lon="2.40225">
        <ele>64.400001525879</ele>
        <time>2015-10-19T20:14:20Z</time>
      </trkpt>
      <trkpt lat="48.84513" lon="2.40201">
        <ele>64</ele>
        <time>2015-10-19T20:14:31Z</time>
      </trkpt>
      <trkpt lat="48.8451" lon="2.40175">
        <ele>66</ele>
        <time>2015-10-19T20:14:38Z</time>
      </trkpt>
      <trkpt lat="48.84516" lon="2.40145">
        <ele>66.800003051758</ele>
        <time>2015-10-19T20:14:43Z</time>
      </trkpt>
      <trkpt lat="48.84523" lon="2.40114">
        <ele>66.599998474121</ele>
        <time>2015-10-19T20:14:48Z</time>
      </trkpt>
      <trkpt lat="48.84528" lon="2.40084">
        <ele>66.199996948242</ele>
        <time>2015-10-19T20:14:53Z</time>
      </trkpt>
      <trkpt lat="48.84529" lon="2.40051">
        <ele>64.800003051758</ele>
        <time>2015-10-19T20:14:58Z</time>
      </trkpt>
      <trkpt lat="48.84529" lon="2.40018">
        <ele>63.599998474121</ele>
        <time>2015-10-19T20:15:03Z</time>
      </trkpt>
      <trkpt lat="48.8453" lon="2.39986">
        <ele>62</ele>
        <time>2015-10-19T20:15:08Z</time>
      </trkpt>
      <trkpt lat="48.84533" lon="2.39953">
        <ele>62</ele>
        <time>2015-10-19T20:15:13Z</time>
      </trkpt>
      <trkpt lat="48.84537" lon="2.39919">
        <ele>60.79999923706</ele>
        <time>2015-10-19T20:15:18Z</time>
      </trkpt>
      <trkpt lat="48.84541" lon="2.39892">
        <ele>61</ele>
        <time>2015-10-19T20:15:22Z</time>
      </trkpt>
      <trkpt lat="48.84544" lon="2.39862">
        <ele>61.400001525879</ele>
        <time>2015-10-19T20:15:27Z</time>
      </trkpt>
      <trkpt lat="48.84547" lon="2.39832">
        <ele>61.20000076294</ele>
        <time>2015-10-19T20:15:32Z</time>
      </trkpt>
      <trkpt lat="48.84549" lon="2.39802">
        <ele>63.400001525879</ele>
        <time>2015-10-19T20:15:37Z</time>
      </trkpt>
      <trkpt lat="48.84556" lon="2.39771">
        <ele>65.599998474121</ele>
        <time>2015-10-19T20:15:42Z</time>
      </trkpt>
      <trkpt lat="48.84559" lon="2.3974">
        <ele>67.800003051758</ele>
        <time>2015-10-19T20:15:47Z</time>
      </trkpt>
      <trkpt lat="48.84564" lon="2.39712">
        <ele>69.199996948242</ele>
        <time>2015-10-19T20:15:51Z</time>
      </trkpt>
      <trkpt lat="48.84568" lon="2.39678">
        <ele>70.599998474121</ele>
        <time>2015-10-19T20:15:56Z</time>
      </trkpt>
      <trkpt lat="48.8457" lon="2.39646">
        <ele>69.400001525879</ele>
        <time>2015-10-19T20:16:00Z</time>
      </trkpt>
      <trkpt lat="48.84565" lon="2.39616">
        <ele>63.79999923706</ele>
        <time>2015-10-19T20:16:04Z</time>
      </trkpt>
      <trkpt lat="48.84561" lon="2.39587">
        <ele>58.599998474121</ele>
        <time>2015-10-19T20:16:08Z</time>
      </trkpt>
      <trkpt lat="48.84562" lon="2.39579">
        <ele>58.20000076294</ele>
        <time>2015-10-19T20:16:09Z</time>
      </trkpt>
      <trkpt lat="48.84564" lon="2.39551">
        <ele>56.400001525879</ele>
        <time>2015-10-19T20:16:13Z</time>
      </trkpt>
      <trkpt lat="48.84566" lon="2.39537">
        <ele>55.599998474121</ele>
        <time>2015-10-19T20:16:16Z</time>
      </trkpt>
      <trkpt lat="48.84576" lon="2.39514">
        <ele>54.400001525879</ele>
        <time>2015-10-19T20:16:23Z</time>
      </trkpt>
      <trkpt lat="48.84579" lon="2.39511">
        <ele>53.599998474121</ele>
        <time>2015-10-19T20:16:25Z</time>
      </trkpt>
      <trkpt lat="48.84585" lon="2.395">
        <ele>53</ele>
        <time>2015-10-19T20:16:29Z</time>
      </trkpt>
      <trkpt lat="48.8459" lon="2.39493">
        <ele>52.599998474121</ele>
        <time>2015-10-19T20:16:32Z</time>
      </trkpt>
      <trkpt lat="48.84608" lon="2.39477">
        <ele>54.20000076294</ele>
        <time>2015-10-19T20:16:39Z</time>
      </trkpt>
      <trkpt lat="48.84622" lon="2.39457">
        <ele>55</ele>
        <time>2015-10-19T20:16:45Z</time>
      </trkpt>
      <trkpt lat="48.84638" lon="2.39443">
        <ele>55.79999923706</ele>
        <time>2015-10-19T20:16:50Z</time>
      </trkpt>
      <trkpt lat="48.84653" lon="2.39427">
        <ele>56.79999923706</ele>
        <time>2015-10-19T20:16:55Z</time>
      </trkpt>
      <trkpt lat="48.84667" lon="2.39409">
        <ele>57.599998474121</ele>
        <time>2015-10-19T20:17:00Z</time>
      </trkpt>
      <trkpt lat="48.84684" lon="2.39392">
        <ele>57.79999923706</ele>
        <time>2015-10-19T20:17:05Z</time>
      </trkpt>
      <trkpt lat="48.847" lon="2.39372">
        <ele>57.79999923706</ele>
        <time>2015-10-19T20:17:10Z</time>
      </trkpt>
      <trkpt lat="48.84715" lon="2.39351">
        <ele>56.599998474121</ele>
        <time>2015-10-19T20:17:15Z</time>
      </trkpt>
      <trkpt lat="48.84734" lon="2.39334">
        <ele>55.400001525879</ele>
        <time>2015-10-19T20:17:20Z</time>
      </trkpt>
      <trkpt lat="48.8475" lon="2.39319">
        <ele>54.400001525879</ele>
        <time>2015-10-19T20:17:24Z</time>
      </trkpt>
      <trkpt lat="48.84768" lon="2.39299">
        <ele>53</ele>
        <time>2015-10-19T20:17:29Z</time>
      </trkpt>
      <trkpt lat="48.84785" lon="2.39283">
        <ele>54.400001525879</ele>
        <time>2015-10-19T20:17:35Z</time>
      </trkpt>
      <trkpt lat="48.84801" lon="2.39267">
        <ele>52.599998474121</ele>
        <time>2015-10-19T20:17:40Z</time>
      </trkpt>
      <trkpt lat="48.84816" lon="2.39254">
        <ele>51.79999923706</ele>
        <time>2015-10-19T20:17:45Z</time>
      </trkpt>
      <trkpt lat="48.84832" lon="2.3924">
        <ele>50.79999923706</ele>
        <time>2015-10-19T20:17:50Z</time>
      </trkpt>
      <trkpt lat="48.84848" lon="2.39222">
        <ele>49.599998474121</ele>
        <time>2015-10-19T20:17:55Z</time>
      </trkpt>
      <trkpt lat="48.84866" lon="2.39208">
        <ele>48.599998474121</ele>
        <time>2015-10-19T20:18:00Z</time>
      </trkpt>
      <trkpt lat="48.84885" lon="2.39191">
        <ele>47.20000076294</ele>
        <time>2015-10-19T20:18:05Z</time>
      </trkpt>
      <trkpt lat="48.84895" lon="2.39163">
        <ele>45.599998474121</ele>
        <time>2015-10-19T20:18:10Z</time>
      </trkpt>
      <trkpt lat="48.84902" lon="2.39131">
        <ele>42</ele>
        <time>2015-10-19T20:18:15Z</time>
      </trkpt>
      <trkpt lat="48.84907" lon="2.39102">
        <ele>39.400001525879</ele>
        <time>2015-10-19T20:18:19Z</time>
      </trkpt>
      <trkpt lat="48.84913" lon="2.39072">
        <ele>38.20000076294</ele>
        <time>2015-10-19T20:18:23Z</time>
      </trkpt>
      <trkpt lat="48.84919" lon="2.39042">
        <ele>36.599998474121</ele>
        <time>2015-10-19T20:18:27Z</time>
      </trkpt>
      <trkpt lat="48.84927" lon="2.3901">
        <ele>35.400001525879</ele>
        <time>2015-10-19T20:18:31Z</time>
      </trkpt>
      <trkpt lat="48.84934" lon="2.38979">
        <ele>34.400001525879</ele>
        <time>2015-10-19T20:18:35Z</time>
      </trkpt>
      <trkpt lat="48.84938" lon="2.38947">
        <ele>32.599998474121</ele>
        <time>2015-10-19T20:18:39Z</time>
      </trkpt>
      <trkpt lat="48.84945" lon="2.38925">
        <ele>32</ele>
        <time>2015-10-19T20:18:42Z</time>
      </trkpt>
      <trkpt lat="48.8495" lon="2.38902">
        <ele>31.39999961853</ele>
        <time>2015-10-19T20:18:45Z</time>
      </trkpt>
      <trkpt lat="48.84958" lon="2.38872">
        <ele>30.799999237061</ele>
        <time>2015-10-19T20:18:49Z</time>
      </trkpt>
      <trkpt lat="48.84962" lon="2.38849">
        <ele>29.799999237061</ele>
        <time>2015-10-19T20:18:52Z</time>
      </trkpt>
      <trkpt lat="48.84966" lon="2.38816">
        <ele>28.39999961853</ele>
        <time>2015-10-19T20:18:56Z</time>
      </trkpt>
      <trkpt lat="48.84971" lon="2.38784">
        <ele>27.39999961853</ele>
        <time>2015-10-19T20:19:00Z</time>
      </trkpt>
      <trkpt lat="48.84976" lon="2.38761">
        <ele>26.60000038147</ele>
        <time>2015-10-19T20:19:03Z</time>
      </trkpt>
      <trkpt lat="48.84982" lon="2.38728">
        <ele>25.39999961853</ele>
        <time>2015-10-19T20:19:07Z</time>
      </trkpt>
      <trkpt lat="48.84986" lon="2.38694">
        <ele>23.39999961853</ele>
        <time>2015-10-19T20:19:11Z</time>
      </trkpt>
      <trkpt lat="48.84992" lon="2.38662">
        <ele>21.799999237061</ele>
        <time>2015-10-19T20:19:15Z</time>
      </trkpt>
      <trkpt lat="48.84998" lon="2.3863">
        <ele>21.39999961853</ele>
        <time>2015-10-19T20:19:19Z</time>
      </trkpt>
      <trkpt lat="48.85" lon="2.38596">
        <ele>20.39999961853</ele>
        <time>2015-10-19T20:19:23Z</time>
      </trkpt>
      <trkpt lat="48.85005" lon="2.38563">
        <ele>19</ele>
        <time>2015-10-19T20:19:27Z</time>
      </trkpt>
      <trkpt lat="48.85011" lon="2.38534">
        <ele>18.799999237061</ele>
        <time>2015-10-19T20:19:31Z</time>
      </trkpt>
      <trkpt lat="48.85019" lon="2.38504">
        <ele>19.799999237061</ele>
        <time>2015-10-19T20:19:35Z</time>
      </trkpt>
      <trkpt lat="48.8502" lon="2.38496">
        <ele>19.60000038147</ele>
        <time>2015-10-19T20:19:36Z</time>
      </trkpt>
      <trkpt lat="48.85026" lon="2.3847">
        <ele>20</ele>
        <time>2015-10-19T20:19:40Z</time>
      </trkpt>
      <trkpt lat="48.85028" lon="2.38445">
        <ele>19.799999237061</ele>
        <time>2015-10-19T20:19:44Z</time>
      </trkpt>
      <trkpt lat="48.85032" lon="2.38414">
        <ele>19.799999237061</ele>
        <time>2015-10-19T20:19:49Z</time>
      </trkpt>
      <trkpt lat="48.85035" lon="2.38387">
        <ele>19.60000038147</ele>
        <time>2015-10-19T20:19:53Z</time>
      </trkpt>
      <trkpt lat="48.85037" lon="2.38353">
        <ele>20</ele>
        <time>2015-10-19T20:19:58Z</time>
      </trkpt>
      <trkpt lat="48.85036" lon="2.38347">
        <ele>20</ele>
        <time>2015-10-19T20:19:59Z</time>
      </trkpt>
      <trkpt lat="48.85034" lon="2.38319">
        <ele>19.200000762939</ele>
        <time>2015-10-19T20:20:03Z</time>
      </trkpt>
      <trkpt lat="48.85035" lon="2.38311">
        <ele>19</ele>
        <time>2015-10-19T20:20:04Z</time>
      </trkpt>
      <trkpt lat="48.85039" lon="2.3828">
        <ele>21.39999961853</ele>
        <time>2015-10-19T20:20:08Z</time>
      </trkpt>
      <trkpt lat="48.8504" lon="2.38251">
        <ele>23</ele>
        <time>2015-10-19T20:20:12Z</time>
      </trkpt>
      <trkpt lat="48.85041" lon="2.3822">
        <ele>26</ele>
        <time>2015-10-19T20:20:16Z</time>
      </trkpt>
      <trkpt lat="48.85044" lon="2.38192">
        <ele>29.39999961853</ele>
        <time>2015-10-19T20:20:20Z</time>
      </trkpt>
      <trkpt lat="48.85048" lon="2.38178">
        <ele>30.60000038147</ele>
        <time>2015-10-19T20:20:22Z</time>
      </trkpt>
      <trkpt lat="48.85055" lon="2.38149">
        <ele>30.39999961853</ele>
        <time>2015-10-19T20:20:26Z</time>
      </trkpt>
      <trkpt lat="48.85057" lon="2.38135">
        <ele>30.799999237061</ele>
        <time>2015-10-19T20:20:28Z</time>
      </trkpt>
      <trkpt lat="48.85057" lon="2.38121">
        <ele>31.60000038147</ele>
        <time>2015-10-19T20:20:30Z</time>
      </trkpt>
      <trkpt lat="48.85058" lon="2.38089">
        <ele>33.79999923706</ele>
        <time>2015-10-19T20:20:35Z</time>
      </trkpt>
      <trkpt lat="48.85061" lon="2.38061">
        <ele>35.79999923706</ele>
        <time>2015-10-19T20:20:39Z</time>
      </trkpt>
      <trkpt lat="48.85063" lon="2.38046">
        <ele>36.599998474121</ele>
        <time>2015-10-19T20:20:41Z</time>
      </trkpt>
      <trkpt lat="48.85065" lon="2.38017">
        <ele>38.599998474121</ele>
        <time>2015-10-19T20:20:45Z</time>
      </trkpt>
      <trkpt lat="48.8507" lon="2.37988">
        <ele>40.599998474121</ele>
        <time>2015-10-19T20:20:49Z</time>
      </trkpt>
      <trkpt lat="48.85072" lon="2.37981">
        <ele>41</ele>
        <time>2015-10-19T20:20:50Z</time>
      </trkpt>
      <trkpt lat="48.85076" lon="2.3796">
        <ele>41.400001525879</ele>
        <time>2015-10-19T20:20:53Z</time>
      </trkpt>
      <trkpt lat="48.85078" lon="2.37931">
        <ele>40.79999923706</ele>
        <time>2015-10-19T20:20:57Z</time>
      </trkpt>
      <trkpt lat="48.85084" lon="2.37902">
        <ele>41</ele>
        <time>2015-10-19T20:21:01Z</time>
      </trkpt>
      <trkpt lat="48.85087" lon="2.37887">
        <ele>41.20000076294</ele>
        <time>2015-10-19T20:21:03Z</time>
      </trkpt>
      <trkpt lat="48.85082" lon="2.37866">
        <ele>35</ele>
        <time>2015-10-19T20:21:06Z</time>
      </trkpt>
      <trkpt lat="48.85088" lon="2.3784">
        <ele>32</ele>
        <time>2015-10-19T20:21:10Z</time>
      </trkpt>
      <trkpt lat="48.85097" lon="2.3781">
        <ele>30.60000038147</ele>
        <time>2015-10-19T20:21:14Z</time>
      </trkpt>
      <trkpt lat="48.85103" lon="2.37778">
        <ele>29</ele>
        <time>2015-10-19T20:21:18Z</time>
      </trkpt>
      <trkpt lat="48.85106" lon="2.37763">
        <ele>28.39999961853</ele>
        <time>2015-10-19T20:21:20Z</time>
      </trkpt>
      <trkpt lat="48.85112" lon="2.37735">
        <ele>27.60000038147</ele>
        <time>2015-10-19T20:21:24Z</time>
      </trkpt>
      <trkpt lat="48.85123" lon="2.37707">
        <ele>26</ele>
        <time>2015-10-19T20:21:28Z</time>
      </trkpt>
      <trkpt lat="48.85134" lon="2.37677">
        <ele>24.39999961853</ele>
        <time>2015-10-19T20:21:32Z</time>
      </trkpt>
      <trkpt lat="48.85139" lon="2.37654">
        <ele>24.200000762939</ele>
        <time>2015-10-19T20:21:35Z</time>
      </trkpt>
      <trkpt lat="48.8514" lon="2.37622">
        <ele>23.39999961853</ele>
        <time>2015-10-19T20:21:39Z</time>
      </trkpt>
      <trkpt lat="48.85141" lon="2.37616">
        <ele>22.799999237061</ele>
        <time>2015-10-19T20:21:40Z</time>
      </trkpt>
      <trkpt lat="48.85145" lon="2.37605">
        <ele>23</ele>
        <time>2015-10-19T20:21:42Z</time>
      </trkpt>
      <trkpt lat="48.85153" lon="2.37577">
        <ele>22.60000038147</ele>
        <time>2015-10-19T20:21:47Z</time>
      </trkpt>
      <trkpt lat="48.85159" lon="2.37568">
        <ele>22.200000762939</ele>
        <time>2015-10-19T20:21:49Z</time>
      </trkpt>
      <trkpt lat="48.85175" lon="2.37547">
        <ele>21.799999237061</ele>
        <time>2015-10-19T20:21:53Z</time>
      </trkpt>
      <trkpt lat="48.85184" lon="2.37514">
        <ele>21</ele>
        <time>2015-10-19T20:21:58Z</time>
      </trkpt>
      <trkpt lat="48.85192" lon="2.37487">
        <ele>19.799999237061</ele>
        <time>2015-10-19T20:22:02Z</time>
      </trkpt>
      <trkpt lat="48.85201" lon="2.3746">
        <ele>19.200000762939</ele>
        <time>2015-10-19T20:22:06Z</time>
      </trkpt>
      <trkpt lat="48.85205" lon="2.37438">
        <ele>18.799999237061</ele>
        <time>2015-10-19T20:22:09Z</time>
      </trkpt>
      <trkpt lat="48.85211" lon="2.37403">
        <ele>20</ele>
        <time>2015-10-19T20:22:14Z</time>
      </trkpt>
      <trkpt lat="48.85213" lon="2.37374">
        <ele>21.200000762939</ele>
        <time>2015-10-19T20:22:18Z</time>
      </trkpt>
      <trkpt lat="48.85216" lon="2.3736">
        <ele>21.799999237061</ele>
        <time>2015-10-19T20:22:20Z</time>
      </trkpt>
      <trkpt lat="48.85224" lon="2.37333">
        <ele>22.799999237061</ele>
        <time>2015-10-19T20:22:24Z</time>
      </trkpt>
      <trkpt lat="48.85225" lon="2.37325">
        <ele>23.200000762939</ele>
        <time>2015-10-19T20:22:25Z</time>
      </trkpt>
      <trkpt lat="48.85232" lon="2.37298">
        <ele>24.39999961853</ele>
        <time>2015-10-19T20:22:29Z</time>
      </trkpt>
      <trkpt lat="48.8524" lon="2.37273">
        <ele>25.799999237061</ele>
        <time>2015-10-19T20:22:33Z</time>
      </trkpt>
      <trkpt lat="48.85247" lon="2.37254">
        <ele>26.39999961853</ele>
        <time>2015-10-19T20:22:36Z</time>
      </trkpt>
      <trkpt lat="48.85253" lon="2.37227">
        <ele>27.200000762939</ele>
        <time>2015-10-19T20:22:40Z</time>
      </trkpt>
      <trkpt lat="48.85261" lon="2.37195">
        <ele>27.39999961853</ele>
        <time>2015-10-19T20:22:45Z</time>
      </trkpt>
      <trkpt lat="48.85266" lon="2.37166">
        <ele>28</ele>
        <time>2015-10-19T20:22:50Z</time>
      </trkpt>
      <trkpt lat="48.85274" lon="2.37136">
        <ele>30.799999237061</ele>
        <time>2015-10-19T20:22:56Z</time>
      </trkpt>
      <trkpt lat="48.85284" lon="2.3711">
        <ele>35</ele>
        <time>2015-10-19T20:23:03Z</time>
      </trkpt>
      <trkpt lat="48.85285" lon="2.37084">
        <ele>47.400001525879</ele>
        <time>2015-10-19T20:23:13Z</time>
      </trkpt>
      <trkpt lat="48.85298" lon="2.37065">
        <ele>49.79999923706</ele>
        <time>2015-10-19T20:23:19Z</time>
      </trkpt>
      <trkpt lat="48.85304" lon="2.37037">
        <ele>53.599998474121</ele>
        <time>2015-10-19T20:23:27Z</time>
      </trkpt>
      <trkpt lat="48.85315" lon="2.37013">
        <ele>56</ele>
        <time>2015-10-19T20:23:35Z</time>
      </trkpt>
      <trkpt lat="48.85317" lon="2.37001">
        <ele>56.79999923706</ele>
        <time>2015-10-19T20:23:38Z</time>
      </trkpt>
      <trkpt lat="48.85319" lon="2.36988">
        <ele>57.20000076294</ele>
        <time>2015-10-19T20:23:42Z</time>
      </trkpt>
      <trkpt lat="48.85323" lon="2.36983">
        <ele>56.400001525879</ele>
        <time>2015-10-19T20:23:45Z</time>
      </trkpt>
      <trkpt lat="48.85338" lon="2.36977">
        <ele>45.599998474121</ele>
        <time>2015-10-19T20:24:27Z</time>
      </trkpt>
      <trkpt lat="48.85346" lon="2.36979">
        <ele>41.20000076294</ele>
        <time>2015-10-19T20:24:57Z</time>
      </trkpt>
      <trkpt lat="48.85363" lon="2.36963">
        <ele>38.599998474121</ele>
        <time>2015-10-19T20:25:18Z</time>
      </trkpt>
      <trkpt lat="48.85369" lon="2.36937">
        <ele>37.599998474121</ele>
        <time>2015-10-19T20:25:28Z</time>
      </trkpt>
      <trkpt lat="48.85373" lon="2.36912">
        <ele>36</ele>
        <time>2015-10-19T20:25:37Z</time>
      </trkpt>
      <trkpt lat="48.85365" lon="2.36894">
        <ele>35.20000076294</ele>
        <time>2015-10-19T20:26:17Z</time>
      </trkpt>
      <trkpt lat="48.85371" lon="2.36876">
        <ele>36.400001525879</ele>
        <time>2015-10-19T20:26:41Z</time>
      </trkpt>
      <trkpt lat="48.85374" lon="2.36846">
        <ele>36.400001525879</ele>
        <time>2015-10-19T20:26:55Z</time>
      </trkpt>
      <trkpt lat="48.85378" lon="2.36816">
        <ele>36</ele>
        <time>2015-10-19T20:27:01Z</time>
      </trkpt>
      <trkpt lat="48.85381" lon="2.36785">
        <ele>35.79999923706</ele>
        <time>2015-10-19T20:27:06Z</time>
      </trkpt>
      <trkpt lat="48.85384" lon="2.36753">
        <ele>36</ele>
        <time>2015-10-19T20:27:11Z</time>
      </trkpt>
      <trkpt lat="48.8538" lon="2.36737">
        <ele>37</ele>
        <time>2015-10-19T20:27:15Z</time>
      </trkpt>
      <trkpt lat="48.85364" lon="2.36725">
        <ele>38.400001525879</ele>
        <time>2015-10-19T20:27:24Z</time>
      </trkpt>
      <trkpt lat="48.85351" lon="2.3672">
        <ele>41.599998474121</ele>
        <time>2015-10-19T20:27:32Z</time>
      </trkpt>
      <trkpt lat="48.85345" lon="2.3669">
        <ele>42.79999923706</ele>
        <time>2015-10-19T20:27:38Z</time>
      </trkpt>
      <trkpt lat="48.85348" lon="2.36662">
        <ele>44.20000076294</ele>
        <time>2015-10-19T20:27:42Z</time>
      </trkpt>
      <trkpt lat="48.85361" lon="2.36636">
        <ele>44.599998474121</ele>
        <time>2015-10-19T20:27:45Z</time>
      </trkpt>
      <trkpt lat="48.85369" lon="2.36609">
        <ele>44.599998474121</ele>
        <time>2015-10-19T20:27:49Z</time>
      </trkpt>
      <trkpt lat="48.85375" lon="2.36581">
        <ele>45</ele>
        <time>2015-10-19T20:27:54Z</time>
      </trkpt>
      <trkpt lat="48.85383" lon="2.36556">
        <ele>45.400001525879</ele>
        <time>2015-10-19T20:27:58Z</time>
      </trkpt>
      <trkpt lat="48.85392" lon="2.3653">
        <ele>45.400001525879</ele>
        <time>2015-10-19T20:28:02Z</time>
      </trkpt>
      <trkpt lat="48.85399" lon="2.36498">
        <ele>44.20000076294</ele>
        <time>2015-10-19T20:28:06Z</time>
      </trkpt>
      <trkpt lat="48.85399" lon="2.3649">
        <ele>43.400001525879</ele>
        <time>2015-10-19T20:28:07Z</time>
      </trkpt>
      <trkpt lat="48.85408" lon="2.36459">
        <ele>42</ele>
        <time>2015-10-19T20:28:11Z</time>
      </trkpt>
      <trkpt lat="48.85418" lon="2.36435">
        <ele>41.400001525879</ele>
        <time>2015-10-19T20:28:14Z</time>
      </trkpt>
      <trkpt lat="48.85427" lon="2.36411">
        <ele>40.599998474121</ele>
        <time>2015-10-19T20:28:17Z</time>
      </trkpt>
      <trkpt lat="48.85432" lon="2.36376">
        <ele>38.400001525879</ele>
        <time>2015-10-19T20:28:21Z</time>
      </trkpt>
      <trkpt lat="48.8544" lon="2.3635">
        <ele>37.79999923706</ele>
        <time>2015-10-19T20:28:24Z</time>
      </trkpt>
      <trkpt lat="48.85451" lon="2.36318">
        <ele>37</ele>
        <time>2015-10-19T20:28:28Z</time>
      </trkpt>
      <trkpt lat="48.85461" lon="2.36288">
        <ele>36.599998474121</ele>
        <time>2015-10-19T20:28:32Z</time>
      </trkpt>
      <trkpt lat="48.85473" lon="2.36259">
        <ele>36</ele>
        <time>2015-10-19T20:28:36Z</time>
      </trkpt>
      <trkpt lat="48.85487" lon="2.36233">
        <ele>35.79999923706</ele>
        <time>2015-10-19T20:28:40Z</time>
      </trkpt>
      <trkpt lat="48.85489" lon="2.36227">
        <ele>35.79999923706</ele>
        <time>2015-10-19T20:28:41Z</time>
      </trkpt>
      <trkpt lat="48.85496" lon="2.36201">
        <ele>35.20000076294</ele>
        <time>2015-10-19T20:28:45Z</time>
      </trkpt>
      <trkpt lat="48.85505" lon="2.36171">
        <ele>33.79999923706</ele>
        <time>2015-10-19T20:28:49Z</time>
      </trkpt>
      <trkpt lat="48.85517" lon="2.36146">
        <ele>32.79999923706</ele>
        <time>2015-10-19T20:28:53Z</time>
      </trkpt>
      <trkpt lat="48.8553" lon="2.3612">
        <ele>32.599998474121</ele>
        <time>2015-10-19T20:28:57Z</time>
      </trkpt>
      <trkpt lat="48.85538" lon="2.361">
        <ele>33.20000076294</ele>
        <time>2015-10-19T20:29:00Z</time>
      </trkpt>
      <trkpt lat="48.85547" lon="2.36072">
        <ele>33.599998474121</ele>
        <time>2015-10-19T20:29:04Z</time>
      </trkpt>
      <trkpt lat="48.85551" lon="2.36057">
        <ele>33.79999923706</ele>
        <time>2015-10-19T20:29:06Z</time>
      </trkpt>
      <trkpt lat="48.85556" lon="2.36026">
        <ele>34</ele>
        <time>2015-10-19T20:29:10Z</time>
      </trkpt>
      <trkpt lat="48.8556" lon="2.36012">
        <ele>34.20000076294</ele>
        <time>2015-10-19T20:29:12Z</time>
      </trkpt>
      <trkpt lat="48.85561" lon="2.35979">
        <ele>33.20000076294</ele>
        <time>2015-10-19T20:29:16Z</time>
      </trkpt>
      <trkpt lat="48.85563" lon="2.3597">
        <ele>33.20000076294</ele>
        <time>2015-10-19T20:29:17Z</time>
      </trkpt>
      <trkpt lat="48.85572" lon="2.3594">
        <ele>32.79999923706</ele>
        <time>2015-10-19T20:29:21Z</time>
      </trkpt>
      <trkpt lat="48.8558" lon="2.35908">
        <ele>31.60000038147</ele>
        <time>2015-10-19T20:29:25Z</time>
      </trkpt>
      <trkpt lat="48.85588" lon="2.35877">
        <ele>31</ele>
        <time>2015-10-19T20:29:29Z</time>
      </trkpt>
      <trkpt lat="48.85598" lon="2.35847">
        <ele>29.799999237061</ele>
        <time>2015-10-19T20:29:33Z</time>
      </trkpt>
      <trkpt lat="48.85607" lon="2.3582">
        <ele>29.60000038147</ele>
        <time>2015-10-19T20:29:37Z</time>
      </trkpt>
      <trkpt lat="48.85607" lon="2.35814">
        <ele>28.799999237061</ele>
        <time>2015-10-19T20:29:38Z</time>
      </trkpt>
      <trkpt lat="48.85614" lon="2.35781">
        <ele>26.39999961853</ele>
        <time>2015-10-19T20:29:43Z</time>
      </trkpt>
      <trkpt lat="48.85617" lon="2.35767">
        <ele>26.200000762939</ele>
        <time>2015-10-19T20:29:45Z</time>
      </trkpt>
      <trkpt lat="48.85624" lon="2.35748">
        <ele>26</ele>
        <time>2015-10-19T20:29:48Z</time>
      </trkpt>
      <trkpt lat="48.85635" lon="2.35723">
        <ele>25.60000038147</ele>
        <time>2015-10-19T20:29:52Z</time>
      </trkpt>
      <trkpt lat="48.8564" lon="2.35709">
        <ele>25.200000762939</ele>
        <time>2015-10-19T20:29:54Z</time>
      </trkpt>
      <trkpt lat="48.85651" lon="2.35684">
        <ele>25</ele>
        <time>2015-10-19T20:29:58Z</time>
      </trkpt>
      <trkpt lat="48.85658" lon="2.35652">
        <ele>24.60000038147</ele>
        <time>2015-10-19T20:30:03Z</time>
      </trkpt>
      <trkpt lat="48.85661" lon="2.35642">
        <ele>24.200000762939</ele>
        <time>2015-10-19T20:30:05Z</time>
      </trkpt>
      <trkpt lat="48.85671" lon="2.35619">
        <ele>24</ele>
        <time>2015-10-19T20:30:09Z</time>
      </trkpt>
      <trkpt lat="48.85667" lon="2.35598">
        <ele>21.39999961853</ele>
        <time>2015-10-19T20:30:12Z</time>
      </trkpt>
      <trkpt lat="48.85666" lon="2.35562">
        <ele>18.39999961853</ele>
        <time>2015-10-19T20:30:17Z</time>
      </trkpt>
      <trkpt lat="48.85673" lon="2.35537">
        <ele>18</ele>
        <time>2015-10-19T20:30:21Z</time>
      </trkpt>
      <trkpt lat="48.8568" lon="2.35508">
        <ele>17.799999237061</ele>
        <time>2015-10-19T20:30:25Z</time>
      </trkpt>
      <trkpt lat="48.85689" lon="2.35479">
        <ele>17.39999961853</ele>
        <time>2015-10-19T20:30:29Z</time>
      </trkpt>
      <trkpt lat="48.85699" lon="2.3545">
        <ele>17.39999961853</ele>
        <time>2015-10-19T20:30:33Z</time>
      </trkpt>
      <trkpt lat="48.8571" lon="2.35423">
        <ele>18</ele>
        <time>2015-10-19T20:30:37Z</time>
      </trkpt>
      <trkpt lat="48.85705" lon="2.35404">
        <ele>17.39999961853</ele>
        <time>2015-10-19T20:30:40Z</time>
      </trkpt>
      <trkpt lat="48.85702" lon="2.35392">
        <ele>18.200000762939</ele>
        <time>2015-10-19T20:30:44Z</time>
      </trkpt>
      <trkpt lat="48.85705" lon="2.3537">
        <ele>19.200000762939</ele>
        <time>2015-10-19T20:30:48Z</time>
      </trkpt>
      <trkpt lat="48.85712" lon="2.35343">
        <ele>19</ele>
        <time>2015-10-19T20:30:52Z</time>
      </trkpt>
      <trkpt lat="48.85718" lon="2.3532">
        <ele>19.60000038147</ele>
        <time>2015-10-19T20:30:55Z</time>
      </trkpt>
      <trkpt lat="48.85726" lon="2.35291">
        <ele>19.799999237061</ele>
        <time>2015-10-19T20:30:59Z</time>
      </trkpt>
      <trkpt lat="48.85732" lon="2.35263">
        <ele>20.799999237061</ele>
        <time>2015-10-19T20:31:03Z</time>
      </trkpt>
      <trkpt lat="48.85735" lon="2.35244">
        <ele>21.60000038147</ele>
        <time>2015-10-19T20:31:06Z</time>
      </trkpt>
      <trkpt lat="48.85737" lon="2.35232">
        <ele>21.799999237061</ele>
        <time>2015-10-19T20:31:08Z</time>
      </trkpt>
      <trkpt lat="48.85739" lon="2.35214">
        <ele>23.200000762939</ele>
        <time>2015-10-19T20:31:11Z</time>
      </trkpt>
      <trkpt lat="48.85742" lon="2.35194">
        <ele>24</ele>
        <time>2015-10-19T20:31:14Z</time>
      </trkpt>
      <trkpt lat="48.85746" lon="2.35173">
        <ele>23.799999237061</ele>
        <time>2015-10-19T20:31:17Z</time>
      </trkpt>
      <trkpt lat="48.85752" lon="2.35152">
        <ele>23.39999961853</ele>
        <time>2015-10-19T20:31:20Z</time>
      </trkpt>
      <trkpt lat="48.85762" lon="2.35124">
        <ele>25</ele>
        <time>2015-10-19T20:31:24Z</time>
      </trkpt>
      <trkpt lat="48.85773" lon="2.35094">
        <ele>23.60000038147</ele>
        <time>2015-10-19T20:31:28Z</time>
      </trkpt>
      <trkpt lat="48.85781" lon="2.35069">
        <ele>23.39999961853</ele>
        <time>2015-10-19T20:31:31Z</time>
      </trkpt>
      <trkpt lat="48.85792" lon="2.35036">
        <ele>23.60000038147</ele>
        <time>2015-10-19T20:31:35Z</time>
      </trkpt>
      <trkpt lat="48.85794" lon="2.35008">
        <ele>25.60000038147</ele>
        <time>2015-10-19T20:31:38Z</time>
      </trkpt>
      <trkpt lat="48.85805" lon="2.34983">
        <ele>27</ele>
        <time>2015-10-19T20:31:41Z</time>
      </trkpt>
      <trkpt lat="48.8581" lon="2.34966">
        <ele>27.799999237061</ele>
        <time>2015-10-19T20:31:43Z</time>
      </trkpt>
      <trkpt lat="48.85815" lon="2.34938">
        <ele>29.799999237061</ele>
        <time>2015-10-19T20:31:46Z</time>
      </trkpt>
      <trkpt lat="48.85823" lon="2.34913">
        <ele>29.799999237061</ele>
        <time>2015-10-19T20:31:49Z</time>
      </trkpt>
      <trkpt lat="48.85827" lon="2.34906">
        <ele>29.799999237061</ele>
        <time>2015-10-19T20:31:50Z</time>
      </trkpt>
      <trkpt lat="48.85835" lon="2.34882">
        <ele>28.200000762939</ele>
        <time>2015-10-19T20:31:53Z</time>
      </trkpt>
      <trkpt lat="48.85845" lon="2.34849">
        <ele>27.799999237061</ele>
        <time>2015-10-19T20:31:57Z</time>
      </trkpt>
      <trkpt lat="48.85854" lon="2.34822">
        <ele>28.799999237061</ele>
        <time>2015-10-19T20:32:01Z</time>
      </trkpt>
      <trkpt lat="48.85859" lon="2.34809">
        <ele>29.200000762939</ele>
        <time>2015-10-19T20:32:04Z</time>
      </trkpt>
      <trkpt lat="48.85868" lon="2.34784">
        <ele>31.200000762939</ele>
        <time>2015-10-19T20:32:09Z</time>
      </trkpt>
      <trkpt lat="48.85874" lon="2.34765">
        <ele>33.599998474121</ele>
        <time>2015-10-19T20:32:13Z</time>
      </trkpt>
      <trkpt lat="48.85875" lon="2.3476">
        <ele>34.20000076294</ele>
        <time>2015-10-19T20:32:14Z</time>
      </trkpt>
      <trkpt lat="48.85878" lon="2.34748">
        <ele>36.79999923706</ele>
        <time>2015-10-19T20:32:18Z</time>
      </trkpt>
      <trkpt lat="48.85885" lon="2.34742">
        <ele>38.400001525879</ele>
        <time>2015-10-19T20:32:22Z</time>
      </trkpt>
      <trkpt lat="48.85902" lon="2.34727">
        <ele>42.599998474121</ele>
        <time>2015-10-19T20:32:29Z</time>
      </trkpt>
      <trkpt lat="48.85917" lon="2.3471">
        <ele>46</ele>
        <time>2015-10-19T20:32:35Z</time>
      </trkpt>
      <trkpt lat="48.85926" lon="2.34702">
        <ele>48</ele>
        <time>2015-10-19T20:32:39Z</time>
      </trkpt>
      <trkpt lat="48.85945" lon="2.34709">
        <ele>44</ele>
        <time>2015-10-19T20:32:43Z</time>
      </trkpt>
      <trkpt lat="48.85952" lon="2.34714">
        <ele>44.599998474121</ele>
        <time>2015-10-19T20:32:46Z</time>
      </trkpt>
      <trkpt lat="48.85953" lon="2.34717">
        <ele>45.599998474121</ele>
        <time>2015-10-19T20:32:48Z</time>
      </trkpt>
      <trkpt lat="48.85951" lon="2.34722">
        <ele>48.79999923706</ele>
        <time>2015-10-19T20:32:53Z</time>
      </trkpt>
      <trkpt lat="48.85951" lon="2.34723">
        <ele>49.599998474121</ele>
        <time>2015-10-19T20:32:54Z</time>
      </trkpt>
      <trkpt lat="48.85956" lon="2.34725">
        <ele>51.20000076294</ele>
        <time>2015-10-19T20:33:02Z</time>
      </trkpt>
      <trkpt lat="48.85957" lon="2.34731">
        <ele>54.20000076294</ele>
        <time>2015-10-19T20:33:14Z</time>
      </trkpt>
      <trkpt lat="48.8596" lon="2.34728">
        <ele>54.20000076294</ele>
        <time>2015-10-19T20:33:17Z</time>
      </trkpt>
      <trkpt lat="48.85972" lon="2.34725">
        <ele>55.400001525879</ele>
        <time>2015-10-19T20:33:30Z</time>
      </trkpt>
      <trkpt lat="48.85974" lon="2.34726">
        <ele>55.79999923706</ele>
        <time>2015-10-19T20:33:33Z</time>
      </trkpt>
      <trkpt lat="48.85969" lon="2.34723">
        <ele>57.400001525879</ele>
        <time>2015-10-19T20:33:39Z</time>
      </trkpt>
      <trkpt lat="48.85964" lon="2.34721">
        <ele>57.79999923706</ele>
        <time>2015-10-19T20:33:41Z</time>
      </trkpt>
      <trkpt lat="48.85958" lon="2.34716">
        <ele>60</ele>
        <time>2015-10-19T20:33:48Z</time>
      </trkpt>
    </trkseg>
  </trk>
</gpx>